Provisional Data: Baldwin Run near Wellsboro Junction, PA


Please select a monitoring station.
Please select start date.
Please select start date.

Toggle Unit: C/F Toggle Unit: C/F
Sample Time Temperature (C) Temperature (F) Specific Conductivity (mS/cm) pH   Turbidity (NTU+) DO (mg/L)
9/6/2021 12:00:00 AM 16.06 60.908 0.001 6.56 2.75 9.72
9/6/2021 12:15:00 AM 15.98 60.764 0.001 6.58 2.7 9.74
9/6/2021 12:30:00 AM 15.84 60.512 0.001 6.57 2.78 9.76
9/6/2021 12:45:00 AM 15.65 60.17 0.001 6.62 2.74 9.81
9/6/2021 1:00:00 AM 15.45 59.81 0.001 6.57 2.86 9.86
9/6/2021 1:15:00 AM 15.27 59.486 0.001 6.68 2.86 9.89
9/6/2021 1:30:00 AM 15.1 59.18 0.001 6.68 2.99 9.93
9/6/2021 1:45:00 AM 14.95 58.91 0.001 6.64 2.95 9.97
9/6/2021 2:00:00 AM 14.85 58.73 0.001 6.65 2.95 9.99
9/6/2021 2:15:00 AM 14.83 58.694 0.001 6.68 3.03 9.99
9/6/2021 2:30:00 AM 14.85 58.73 0.001 6.7 2.85 9.99
9/6/2021 2:45:00 AM 14.88 58.784 0.001 6.71 2.84 9.98
9/6/2021 3:00:00 AM 14.93 58.874 0.001 6.71 2.91 9.96
9/6/2021 3:15:00 AM 14.94 58.892 0.001 6.7 2.84 9.96
9/6/2021 3:30:00 AM 14.93 58.874 0.001 6.67 3.24 9.96
9/6/2021 3:45:00 AM 14.9 58.82 0.001 6.63 3.3 9.97
9/6/2021 4:00:00 AM 14.88 58.784 0.001 6.65 3.25 9.97
9/6/2021 4:15:00 AM 14.84 58.712 0.001 6.64 3.4 9.99
9/6/2021 4:30:00 AM 14.77 58.586 0.001 6.59 3.44 10
9/6/2021 4:45:00 AM 14.74 58.532 0.001 6.55 3.6 10
9/6/2021 5:00:00 AM 14.72 58.496 0.001 6.62 3.15 10
9/6/2021 5:15:00 AM 14.65 58.37 0.001 6.56 4.34 10.02
9/6/2021 5:30:00 AM 14.58 58.244 0.001 6.52 4.41 10.03
9/6/2021 5:45:00 AM 14.57 58.226 0.001 6.57 3.03 10.04
9/6/2021 6:00:00 AM 14.49 58.082 0.001 6.64 4.69 10.05
9/6/2021 6:15:00 AM 14.4 57.92 0.001 6.67 3.17 10.08
9/6/2021 6:30:00 AM 14.26 57.668 0 6.48 3.92 10.12
9/6/2021 6:45:00 AM 14.14 57.452 0.001 6.45 5.47 10.15
9/6/2021 7:00:00 AM 14.12 57.416 0.001 6.56 4.38 10.15
9/6/2021 7:15:00 AM 14.1 57.38 0.001 6.64 2.93 10.16
9/6/2021 7:30:00 AM 14.09 57.362 0.001 6.62 3.53 10.16
9/6/2021 7:45:00 AM 14.16 57.488 0 6.7 3.01 10.14
9/6/2021 8:00:00 AM 14.26 57.668 0.001 6.71 2.99 10.12
9/6/2021 8:15:00 AM 14.4 57.92 0.001 6.74 3.08 10.09
9/6/2021 8:30:00 AM 14.65 58.37 0.001 6.79 3.01 10.02
9/6/2021 8:45:00 AM 14.75 58.55 0.001 6.75 3.05 10
9/6/2021 9:00:00 AM 14.78 58.604 0 6.67 3.25 10
9/6/2021 9:15:00 AM 14.81 58.658 0 6.68 3.03 10
9/6/2021 9:30:00 AM 14.88 58.784 0 6.71 3.46 9.98
9/6/2021 9:45:00 AM 15.01 59.018 0.001 6.74 3.19 9.95
9/6/2021 10:00:00 AM 15.2 59.36 0.001 6.79 3 9.9
9/6/2021 10:15:00 AM 15.44 59.792 0.001 6.78 2.82 9.84
9/6/2021 10:30:00 AM 15.68 60.224 0.001 6.81 2.87 9.79
9/6/2021 10:45:00 AM 15.94 60.692 0 6.82 2.94 9.73
9/6/2021 11:00:00 AM 16.28 61.304 0 6.85 2.79 9.66
9/6/2021 11:15:00 AM 16.46 61.628 0.001 6.76 3.13 9.63
9/6/2021 11:30:00 AM 16.63 61.934 0.001 6.55 3.08 9.58
9/6/2021 11:45:00 AM 16.86 62.348 0.001 6.6 2.91 9.53
9/6/2021 12:00:00 PM 16.97 62.546 0.001 6.57 3.24 9.52
9/6/2021 12:15:00 PM 17.09 62.762 0.001 6.55 2.93 9.5
9/6/2021 12:30:00 PM 17.16 62.888 0.001 6.52 3.19 9.49
9/6/2021 12:45:00 PM 17.35 63.23 0.001 6.56 3.04 9.43
9/6/2021 1:00:00 PM 17.49 63.482 0 6.27 3.75 9.42
9/6/2021 1:15:00 PM 17.49 63.482 0 6.1 3.93 9.42
9/6/2021 1:30:00 PM 17.27 63.086 0 6.24 7.58 9.48
9/6/2021 1:45:00 PM 17.34 63.212 0 6.12 6.9 9.46
9/6/2021 2:00:00 PM 17.49 63.482 0 6.18 8.56 9.42
9/6/2021 2:15:00 PM 17.46 63.428 0 6.14 7.98 9.45
9/6/2021 2:30:00 PM 17.48 63.464 0 5.94 7.54 9.44
9/6/2021 2:45:00 PM 17.39 63.302 0 6.14 9.77 9.47
9/6/2021 3:00:00 PM 17.31 63.158 0 5.8 7.05 9.45
9/6/2021 3:15:00 PM 17.25 63.05 0 6.02 5.66 9.49
9/6/2021 3:30:00 PM 17.27 63.086 0 6.03 8.37 9.48
9/6/2021 3:45:00 PM 17.26 63.068 0 6.1 6.25 9.48
9/6/2021 4:00:00 PM 17.18 62.924 0 6.04 6.9 9.5
9/6/2021 4:15:00 PM 17.11 62.798 0 6.07 5.09 9.5
9/6/2021 4:30:00 PM 17.01 62.618 0 5.85 5.91 9.54
9/6/2021 4:45:00 PM 16.91 62.438 0 6.06 4.74 9.57
9/6/2021 5:00:00 PM 16.88 62.384 0 6.02 4.69 9.57
9/6/2021 5:15:00 PM 16.82 62.276 0 6.08 4.73 9.59
9/6/2021 5:30:00 PM 16.75 62.15 0 6.1 4.44 9.59
9/6/2021 5:45:00 PM 16.69 62.042 0 6.11 5.06 9.6
9/6/2021 6:00:00 PM 16.62 61.916 0 6.09 3.76 9.61
9/6/2021 6:15:00 PM 16.59 61.862 0 6.2 3.08 9.62
9/6/2021 6:30:00 PM 16.51 61.718 0 6.23 2.89 9.63
9/6/2021 6:45:00 PM 16.38 61.484 0 6.24 2.79 9.67
9/6/2021 7:00:00 PM 16.23 61.214 0 6.26 2.57 9.72
9/6/2021 7:15:00 PM 16.04 60.872 0 6.24 2.7 9.75
9/6/2021 7:30:00 PM 15.86 60.548 0 6.27 2.67 9.78
9/6/2021 7:45:00 PM 15.69 60.242 0 6.26 2.49 9.82
9/6/2021 8:00:00 PM 15.52 59.936 0 6.25 2.85 9.87
9/6/2021 8:15:00 PM 15.35 59.63 0 6.26 2.64 9.9
9/6/2021 8:30:00 PM 15.18 59.324 0 6.19 3.21 9.93
9/6/2021 8:45:00 PM 15 59 0 6.23 3.38 9.99
9/6/2021 9:00:00 PM 14.85 58.73 0 6.21 2.76 10.03
9/6/2021 9:15:00 PM 14.68 58.424 0 6.25 2.49 10.07
9/6/2021 9:30:00 PM 14.52 58.136 0 6.22 3.11 10.09
9/6/2021 9:45:00 PM 14.35 57.83 0 6.2 2.99 10.14
9/6/2021 10:00:00 PM 14.2 57.56 0.001 6.25 2.64 10.19
9/6/2021 10:15:00 PM 14.06 57.308 0.001 6.25 2.57 10.22
9/6/2021 10:30:00 PM 13.93 57.074 0.001 6.24 3.09 10.24
9/6/2021 10:45:00 PM 13.81 56.858 0.001 6.27 2.36 10.27
9/6/2021 11:00:00 PM 13.69 56.642 0.001 6.22 3 10.3
9/6/2021 11:15:00 PM 13.58 56.444 0.001 6.23 2.77 10.34
9/6/2021 11:30:00 PM 13.46 56.228 0.001 6.25 2.78 10.37
9/6/2021 11:45:00 PM 13.34 56.012 0 6.21 3.65 10.38
9/7/2021 12:00:00 AM 13.22 55.796 0 6.22 3.05 10.41
9/7/2021 12:15:00 AM 13.12 55.616 0.001 6.25 2.4 10.43
9/7/2021 12:30:00 AM 13.03 55.454 0.001 6.24 2.86 10.46
9/7/2021 12:45:00 AM 12.94 55.292 0.001 6.22 2.86 10.49
9/7/2021 1:00:00 AM 12.84 55.112 0 6.24 3.07 10.52
9/7/2021 1:15:00 AM 12.76 54.968 0 6.26 2.2 10.53
9/7/2021 1:30:00 AM 12.66 54.788 0 6.26 2.39 10.55
9/7/2021 1:45:00 AM 12.58 54.644 0 6.23 3.2 10.57
9/7/2021 2:00:00 AM 12.49 54.482 0 6.22 3.31 10.59
9/7/2021 2:15:00 AM 12.38 54.284 0 6.08 5.25 10.62
9/7/2021 2:30:00 AM 12.35 54.23 0 6.25 2.39 10.63
9/7/2021 2:45:00 AM 12.26 54.068 0 6.2 4.17 10.66
9/7/2021 3:00:00 AM 12.21 53.978 0 6.18 4.07 10.67
9/7/2021 3:15:00 AM 12.18 53.924 0 6.2 2.84 10.68
9/7/2021 3:30:00 AM 12.1 53.78 0 6.21 3.33 10.69
9/7/2021 3:45:00 AM 12.11 53.798 0 6.28 2.31 10.69
9/7/2021 4:00:00 AM 12.12 53.816 0 6.31 2.26 10.7
9/7/2021 4:15:00 AM 12.1 53.78 0.001 6.29 2.48 10.69
9/7/2021 4:30:00 AM 12.08 53.744 0.001 6.26 2.8 10.69
9/7/2021 4:45:00 AM 11.99 53.582 0 6.19 4 10.72
9/7/2021 5:00:00 AM 11.94 53.492 0 6.13 5.31 10.72
9/7/2021 5:15:00 AM 11.89 53.402 0 6.14 4.52 10.74
9/7/2021 5:30:00 AM 11.88 53.384 0 6.16 4.07 10.74
9/7/2021 5:45:00 AM 11.82 53.276 0 6.1 4.79 10.75
9/7/2021 6:00:00 AM 11.7 53.06 0 6.03 4.75 10.77
9/7/2021 6:15:00 AM 11.76 53.168 0 6.25 2.22 10.79
9/7/2021 6:30:00 AM 11.77 53.186 0 6.25 2.35 10.78
9/7/2021 6:45:00 AM 11.71 53.078 0 6.26 3.1 10.81
9/7/2021 7:00:00 AM 11.74 53.132 0 6.3 2.21 10.8
9/7/2021 7:15:00 AM 11.74 53.132 0 6.27 2.17 10.79
9/7/2021 7:30:00 AM 11.72 53.096 0 6.25 2.31 10.8
9/7/2021 7:45:00 AM 11.72 53.096 0 6.28 2.1 10.8
9/7/2021 8:00:00 AM 11.71 53.078 0 6.3 2.11 10.8
9/7/2021 8:15:00 AM 11.72 53.096 0 6.31 2.13 10.8
9/7/2021 8:30:00 AM 11.78 53.204 0 6.38 2.03 10.79
9/7/2021 8:45:00 AM 11.88 53.384 0 6.37 2.32 10.75
9/7/2021 9:00:00 AM 11.94 53.492 0 6.35 2.29 10.73
9/7/2021 9:15:00 AM 12.09 53.762 0 6.29 2.12 10.68
9/7/2021 9:30:00 AM 12.33 54.194 0 6.34 2.31 10.63
9/7/2021 9:45:00 AM 12.63 54.734 0 6.53 3.45 10.55
9/7/2021 10:00:00 AM 12.98 55.364 0 6.62 3.33 10.45
9/7/2021 10:15:00 AM 13.42 56.156 0.001 6.7 3.35 10.34
9/7/2021 10:30:00 AM 13.8 56.84 0 6.74 3.27 10.25
9/7/2021 10:45:00 AM 14.28 57.704 0 6.8 3.3 10.12
9/7/2021 11:00:00 AM 14.69 58.442 0.001 6.79 3.11 10.04
9/7/2021 11:15:00 AM 15.02 59.036 0.001 6.74 3.1 9.95
9/7/2021 11:30:00 AM 15.35 59.63 0.001 6.64 3.31 9.89
9/7/2021 11:45:00 AM 15.55 59.99 0 6.36 3.43 9.83
9/7/2021 12:00:00 PM 15.68 60.224 0 6.51 3.34 9.81
9/7/2021 12:15:00 PM 15.94 60.692 0 6.28 3.47 9.77
9/7/2021 12:30:00 PM 16.18 61.124 0 6.18 3.24 9.71
9/7/2021 12:45:00 PM 16.47 61.646 0 6.1 3.34 9.66
9/7/2021 1:00:00 PM 16.89 62.402 0 6.14 3.33 9.55
9/7/2021 1:15:00 PM 17.51 63.518 0 6.15 3.67 9.43
9/7/2021 1:30:00 PM 17.92 64.256 0 5.98 3.55 9.34
9/7/2021 1:45:00 PM 17.82 64.076 0 6.13 2.83 9.37
9/7/2021 2:00:00 PM 17.82 64.076 0 6.05 4.51 9.37
9/7/2021 2:15:00 PM 17.86 64.148 0 6.01 3.9 9.37
9/7/2021 2:30:00 PM 17.85 64.13 0 6.08 2.72 9.36
9/7/2021 2:45:00 PM 17.74 63.932 0 6.05 2.79 9.38
9/7/2021 3:00:00 PM 17.63 63.734 0 6.17 2.69 9.41
9/7/2021 3:15:00 PM 17.57 63.626 0 6.05 2.55 9.4
9/7/2021 3:30:00 PM 17.54 63.572 0 6.18 2.85 9.42
9/7/2021 3:45:00 PM 17.51 63.518 0 6.2 2.65 9.42
9/7/2021 4:00:00 PM 17.48 63.464 0 6.23 2.72 9.42
9/7/2021 4:15:00 PM 17.47 63.446 0 6.23 2.86 9.42
9/7/2021 4:30:00 PM 17.42 63.356 0 6.25 3.01 9.43
9/7/2021 4:45:00 PM 17.4 63.32 0 6.25 2.94 9.43
9/7/2021 5:00:00 PM 17.37 63.266 0 6.27 3.62 9.44
9/7/2021 5:15:00 PM 17.34 63.212 0 6.24 3.22 9.44
9/7/2021 5:30:00 PM 17.32 63.176 0 6.31 3.93 9.45
9/7/2021 5:45:00 PM 17.3 63.14 0 6.33 3.69 9.45
9/7/2021 6:00:00 PM 17.29 63.122 0 6.31 3.66 9.45
9/7/2021 6:15:00 PM 17.25 63.05 0 6.33 3.53 9.46
9/7/2021 6:30:00 PM 17.22 62.996 0 6.36 3.61 9.46
9/7/2021 6:45:00 PM 17.18 62.924 0 6.36 3.72 9.48
9/7/2021 7:00:00 PM 17.12 62.816 0 6.38 3.62 9.5
9/7/2021 7:15:00 PM 17.04 62.672 0 6.38 3.55 9.51
9/7/2021 7:30:00 PM 16.96 62.528 0 6.39 3.45 9.53
9/7/2021 7:45:00 PM 16.86 62.348 0 6.39 3.59 9.55
9/7/2021 8:00:00 PM 16.77 62.186 0 6.4 3.63 9.57
9/7/2021 8:15:00 PM 16.68 62.024 0 6.39 3.44 9.58
9/7/2021 8:30:00 PM 16.57 61.826 0 6.39 3.43 9.61
9/7/2021 8:45:00 PM 16.47 61.646 0 6.4 3.21 9.63
9/7/2021 9:00:00 PM 16.39 61.502 0 6.4 2.97 9.66
9/7/2021 9:15:00 PM 16.3 61.34 0 6.42 3.26 9.68
9/7/2021 9:30:00 PM 16.21 61.178 0 6.42 3.26 9.7
9/7/2021 9:45:00 PM 16.15 61.07 0 6.42 3.23 9.71
9/7/2021 10:00:00 PM 16.08 60.944 0 6.43 3.15 9.71
9/7/2021 10:15:00 PM 16.03 60.854 0 6.43 2.95 9.72
9/7/2021 10:30:00 PM 16.01 60.818 0 6.45 3.15 9.73
9/7/2021 10:45:00 PM 15.97 60.746 0 6.46 3.34 9.73
9/7/2021 11:00:00 PM 15.92 60.656 0 6.45 3.16 9.74
9/7/2021 11:15:00 PM 15.89 60.602 0 6.46 3.05 9.75
9/7/2021 11:30:00 PM 15.85 60.53 0 6.47 3.54 9.76
9/7/2021 11:45:00 PM 15.82 60.476 0 6.48 3.4 9.77
9/8/2021 12:00:00 AM 15.78 60.404 0 6.48 3.26 9.78
9/8/2021 12:15:00 AM 15.75 60.35 0 6.48 3.11 9.78
9/8/2021 12:30:00 AM 15.71 60.278 0 6.48 3.21 9.8
9/8/2021 12:45:00 AM 15.68 60.224 0 6.48 2.8 9.8
9/8/2021 1:00:00 AM 15.64 60.152 0 6.48 3.19 9.81
9/8/2021 1:15:00 AM 15.61 60.098 0 6.48 3.11 9.81
9/8/2021 1:30:00 AM 15.56 60.008 0 6.46 2.5 9.82
9/8/2021 1:45:00 AM 15.53 59.954 0 6.48 3.11 9.83
9/8/2021 2:00:00 AM 15.51 59.918 0 6.49 3.3 9.84
9/8/2021 2:15:00 AM 15.49 59.882 0 6.48 2.66 9.84
9/8/2021 2:30:00 AM 15.44 59.792 0 6.5 3.36 9.85
9/8/2021 2:45:00 AM 15.42 59.756 0 6.5 2.6 9.84
9/8/2021 3:00:00 AM 15.39 59.702 0 6.51 3.48 9.84
9/8/2021 3:15:00 AM 15.35 59.63 0 6.49 3.02 9.85
9/8/2021 3:30:00 AM 15.29 59.522 0 6.47 2.82 9.86
9/8/2021 3:45:00 AM 15.24 59.432 0 6.47 2.53 9.87
9/8/2021 4:00:00 AM 15.18 59.324 0 6.47 2.93 9.88
9/8/2021 4:15:00 AM 15.08 59.144 0 6.44 2.46 9.91
9/8/2021 4:30:00 AM 14.99 58.982 0 6.42 2.35 9.93
9/8/2021 4:45:00 AM 14.9 58.82 0 6.4 2.6 9.96
9/8/2021 5:00:00 AM 14.83 58.694 0 6.42 2.38 9.97
9/8/2021 5:15:00 AM 14.79 58.622 0 6.46 2.66 9.97
9/8/2021 5:30:00 AM 14.74 58.532 0 6.43 2.28 9.98
9/8/2021 5:45:00 AM 14.67 58.406 0 6.42 2.31 10
9/8/2021 6:00:00 AM 14.6 58.28 0 6.44 2.25 10.01
9/8/2021 6:15:00 AM 14.54 58.172 0 6.42 2.32 10.02
9/8/2021 6:30:00 AM 14.49 58.082 0 6.44 2.32 10.03
9/8/2021 6:45:00 AM 14.47 58.046 0 6.47 2.41 10.04
9/8/2021 7:00:00 AM 14.45 58.01 0 6.46 2.3 10.04
9/8/2021 7:15:00 AM 14.44 57.992 0 6.48 2.4 10.05
9/8/2021 7:30:00 AM 14.48 58.064 0 6.52 2.94 10.04
9/8/2021 7:45:00 AM 14.54 58.172 0 6.56 3.21 10.02
9/8/2021 8:00:00 AM 14.62 58.316 0 6.6 3.69 10
9/8/2021 8:15:00 AM 14.71 58.478 0 6.62 3.65 9.97
9/8/2021 8:30:00 AM 14.81 58.658 0 6.63 4.05 9.96
9/8/2021 8:45:00 AM 14.94 58.892 0.001 6.67 4.04 9.93
9/8/2021 9:00:00 AM 15.14 59.252 0 6.77 3.61 9.88
9/8/2021 9:15:00 AM 15.4 59.72 0.001 6.82 3.58 9.81
9/8/2021 9:30:00 AM 15.18 59.324 0.029 7.32 8.54 9.75
9/8/2021 9:45:00 AM 15.19 59.342 0.074 7.46 20.22 9.8
9/8/2021 10:00:00 AM 15.31 59.558 0.074 7.49 13.97 9.81
9/8/2021 10:15:00 AM 15.49 59.882 0.074 7.5 17.65 9.81
9/8/2021 10:30:00 AM 15.58 60.044 0.074 7.51 18.13 9.77
9/8/2021 10:45:00 AM 15.69 60.242 0.074 7.51 17.42 9.75
9/8/2021 11:00:00 AM 15.85 60.53 0.074 7.53 19.48 9.72
9/8/2021 11:15:00 AM 15.98 60.764 0.074 7.53 16.45 9.7
9/8/2021 11:30:00 AM 16.13 61.034 0.074 7.56 17 9.68
9/8/2021 11:45:00 AM 16.25 61.25 0.074 7.55 17.85 9.66
9/8/2021 12:00:00 PM 16.36 61.448 0.074 7.56 14.52 9.64
9/8/2021 12:15:00 PM 16.3 61.34 0.074 7.52 27.49 9.57
9/8/2021 12:30:00 PM 16.29 61.322 0.074 7.54 16.23 9.59
9/8/2021 12:45:00 PM 16.35 61.43 0.074 7.56 16.42 9.61
9/8/2021 1:00:00 PM 16.35 61.43 0.074 7.55 16.07 9.56
9/8/2021 1:15:00 PM 16.33 61.394 0.074 7.51 16.13 9.51
9/8/2021 1:30:00 PM 16.28 61.304 0.074 7.51 15.38 9.51
9/8/2021 1:45:00 PM 16.25 61.25 0.074 7.51 14.11 9.5
9/8/2021 2:00:00 PM 16.21 61.178 0.074 7.47 15.15 9.5
9/8/2021 2:15:00 PM 16.22 61.196 0.073 7.45 22.8 9.49
9/8/2021 2:30:00 PM 16.42 61.556 0.065 7.4 58.41 9.44
9/8/2021 2:45:00 PM 16.56 61.808 0.062 7.4 331.75 9.44
9/8/2021 3:00:00 PM 16.7 62.06 0.07 7.47 468.15 9.42
9/8/2021 3:15:00 PM 16.71 62.078 0.068 7.47 221.89 9.42
9/8/2021 3:30:00 PM 16.57 61.826 0.069 7.47 114.16 9.45
9/8/2021 3:45:00 PM 16.52 61.736 0.07 7.47 81.34 9.47
9/8/2021 4:00:00 PM 16.52 61.736 0.07 7.45 56.31 9.47
9/8/2021 4:15:00 PM 16.49 61.682 0.071 7.45 48.72 9.47
9/8/2021 4:30:00 PM 16.44 61.592 0.07 7.47 48.16 9.5
9/8/2021 4:45:00 PM 16.36 61.448 0.069 7.48 46.38 9.52
9/8/2021 5:00:00 PM 16.3 61.34 0.068 7.44 40.98 9.55
9/8/2021 5:15:00 PM 16.25 61.25 0.067 7.44 39.96 9.55
9/8/2021 5:30:00 PM 16.21 61.178 0.069 7.43 53.22 9.55
9/8/2021 5:45:00 PM 16.19 61.142 0.071 7.46 42.77 9.57
9/8/2021 6:00:00 PM 16.16 61.088 0.071 7.47 41.22 9.57
9/8/2021 6:15:00 PM 16.16 61.088 0.07 7.46 36.96 9.59
9/8/2021 6:30:00 PM 16.15 61.07 0.07 7.43 32.09 9.56
9/8/2021 6:45:00 PM 16.12 61.016 0.07 7.42 32.61 9.56
9/8/2021 7:00:00 PM 16.1 60.98 0.071 7.41 36.19 9.56
9/8/2021 7:15:00 PM 16.08 60.944 0.071 7.4 33.27 9.55
9/8/2021 7:30:00 PM 16.05 60.89 0.071 7.4 30.82 9.55
9/8/2021 7:45:00 PM 16.04 60.872 0.071 7.41 27.82 9.54
9/8/2021 8:00:00 PM 16.02 60.836 0.071 7.41 33.06 9.54
9/8/2021 8:15:00 PM 16 60.8 0.072 7.43 26.49 9.54
9/8/2021 8:30:00 PM 15.98 60.764 0.073 7.44 26.08 9.55
9/8/2021 8:45:00 PM 15.96 60.728 0.073 7.46 26.26 9.56
9/8/2021 9:00:00 PM 15.94 60.692 0.074 7.49 22.22 9.56
9/8/2021 9:15:00 PM 15.91 60.638 0.074 7.48 21.6 9.56
9/8/2021 9:30:00 PM 15.89 60.602 0.074 7.49 20.55 9.57
9/8/2021 9:45:00 PM 15.86 60.548 0.075 7.5 19.99 9.57
9/8/2021 10:00:00 PM 15.84 60.512 0.075 7.49 19.36 9.57
9/8/2021 10:15:00 PM 15.82 60.476 0.076 7.5 18.92 9.58
9/8/2021 10:30:00 PM 15.81 60.458 0.076 7.49 19.55 9.58
9/8/2021 10:45:00 PM 15.8 60.44 0.077 7.49 17.69 9.58
9/8/2021 11:00:00 PM 15.79 60.422 0.077 7.5 18.59 9.58
9/8/2021 11:15:00 PM 15.77 60.386 0.077 7.5 17.91 9.59
9/8/2021 11:30:00 PM 15.76 60.368 0.077 7.5 19.12 9.6
9/8/2021 11:45:00 PM 15.73 60.314 0.077 7.52 19.79 9.6
9/9/2021 12:00:00 AM 15.71 60.278 0.077 7.52 18.81 9.61
9/9/2021 12:15:00 AM 15.69 60.242 0.077 7.52 19.14 9.61
9/9/2021 12:30:00 AM 15.68 60.224 0.077 7.52 17.97 9.62
9/9/2021 12:45:00 AM 15.66 60.188 0.078 7.52 18.13 9.62
9/9/2021 1:00:00 AM 15.64 60.152 0.078 7.52 17.86 9.63
9/9/2021 1:15:00 AM 15.61 60.098 0.078 7.51 15.85 9.63
9/9/2021 1:30:00 AM 15.59 60.062 0.078 7.52 17.19 9.64
9/9/2021 1:45:00 AM 15.56 60.008 0.078 7.5 18.13 9.64
9/9/2021 2:00:00 AM 15.54 59.972 0.078 7.51 18.76 9.65
9/9/2021 2:15:00 AM 15.52 59.936 0.078 7.53 18.39 9.65
9/9/2021 2:30:00 AM 15.5 59.9 0.078 7.41 14.26 9.65
9/9/2021 2:45:00 AM 15.47 59.846 0.078 7.54 16.58 9.65
9/9/2021 3:00:00 AM 15.45 59.81 0.078 7.53 15.73 9.66
9/9/2021 3:15:00 AM 15.43 59.774 0.078 7.53 16.29 9.66
9/9/2021 3:30:00 AM 15.4 59.72 0.078 7.5 15.7 9.66
9/9/2021 3:45:00 AM 15.38 59.684 0.078 7.5 13.83 9.67
9/9/2021 4:00:00 AM 15.35 59.63 0.078 7.5 15.66 9.67
9/9/2021 4:15:00 AM 15.33 59.594 0.078 7.5 14.61 9.68
9/9/2021 4:30:00 AM 15.3 59.54 0.078 7.49 14.86 9.69
9/9/2021 4:45:00 AM 15.28 59.504 0.078 7.49 15.29 9.69
9/9/2021 5:00:00 AM 15.26 59.468 0.078 7.49 15.64 9.69
9/9/2021 5:15:00 AM 15.24 59.432 0.078 7.5 15.6 9.7
9/9/2021 5:30:00 AM 15.22 59.396 0.078 7.51 14.92 9.7
9/9/2021 5:45:00 AM 15.2 59.36 0.078 7.51 16 9.71
9/9/2021 6:00:00 AM 15.18 59.324 0.078 7.51 16.05 9.71
9/9/2021 6:15:00 AM 15.15 59.27 0.078 7.51 13.9 9.71
9/9/2021 6:30:00 AM 15.13 59.234 0.078 7.5 16.19 9.72
9/9/2021 6:45:00 AM 15.12 59.216 0.078 7.51 15.67 9.73
9/9/2021 7:00:00 AM 15.11 59.198 0.078 7.51 16.93 9.73
9/9/2021 7:15:00 AM 15.1 59.18 0.078 7.53 15.42 9.75
9/9/2021 7:30:00 AM 15.09 59.162 0.078 7.52 15.42 9.76
9/9/2021 7:45:00 AM 15.09 59.162 0.078 7.53 15.48 9.77
9/9/2021 8:00:00 AM 15.09 59.162 0.078 7.51 14.95 9.77
9/9/2021 8:15:00 AM 15.1 59.18 0.078 7.52 14.81 9.79
9/9/2021 8:30:00 AM 15.13 59.234 0.078 7.53 15.13 9.81
9/9/2021 8:45:00 AM 15.15 59.27 0.078 7.55 14.32 9.81
9/9/2021 9:00:00 AM 15.18 59.324 0.077 7.54 13.86 9.81
9/9/2021 9:15:00 AM 15.19 59.342 0.077 7.55 15.19 9.8
9/9/2021 9:30:00 AM 15.2 59.36 0.078 7.55 14.49 9.79
9/9/2021 9:45:00 AM 15.2 59.36 0.078 7.57 14.31 9.8
9/9/2021 10:00:00 AM 15.22 59.396 0.077 7.55 12.95 9.8
9/9/2021 10:15:00 AM 15.3 59.54 0.078 7.58 12.38 9.81
9/9/2021 10:30:00 AM 15.36 59.648 0.077 7.56 12.71 9.8
9/9/2021 10:45:00 AM 15.53 59.954 0.077 7.57 12.92 9.8
9/9/2021 11:00:00 AM 15.68 60.224 0.077 7.59 13.15 9.79
9/9/2021 11:15:00 AM 15.73 60.314 0.077 7.61 12.84 9.77
9/9/2021 11:30:00 AM 15.85 60.53 0.077 7.61 12.83 9.76
9/9/2021 11:45:00 AM 15.88 60.584 0.077 7.6 14.33 9.74
9/9/2021 12:00:00 PM 15.91 60.638 0.077 7.61 12.79 9.73
9/9/2021 12:15:00 PM 15.93 60.674 0.077 7.59 12.37 9.73
9/9/2021 12:30:00 PM 15.96 60.728 0.077 7.6 12.22 9.72
9/9/2021 12:45:00 PM 16 60.8 0.077 7.6 13.11 9.72
9/9/2021 1:00:00 PM 16.04 60.872 0.077 7.62 13.15 9.7
9/9/2021 1:15:00 PM 16.09 60.962 0.077 7.6 14.58 9.69
9/9/2021 1:30:00 PM 16.12 61.016 0.077 7.39 14.34 9.68
9/9/2021 1:45:00 PM 16.16 61.088 0.077 7.62 15.71 9.68
9/9/2021 2:00:00 PM 16.22 61.196 0.077 7.61 15.06 9.67
9/9/2021 2:15:00 PM 16.26 61.268 0.077 7.61 15.28 9.66
9/9/2021 2:30:00 PM 16.27 61.286 0.077 7.59 14.27 9.63
9/9/2021 2:45:00 PM 16.32 61.376 0.077 7.6 14.17 9.63
9/9/2021 3:00:00 PM 16.25 61.25 0.077 7.59 13.87 9.59
9/9/2021 3:15:00 PM 16.2 61.16 0.077 7.57 16.55 9.58
9/9/2021 3:30:00 PM 16.13 61.034 0.077 7.56 14.72 9.57
9/9/2021 3:45:00 PM 16.07 60.926 0.077 7.55 17.56 9.58
9/9/2021 4:00:00 PM 16.06 60.908 0.077 7.54 16.35 9.62
9/9/2021 4:15:00 PM 16.05 60.89 0.077 7.55 15.5 9.59
9/9/2021 4:30:00 PM 16.06 60.908 0.077 7.56 14.94 9.58
9/9/2021 4:45:00 PM 16.05 60.89 0.077 7.53 15.35 9.56
9/9/2021 5:00:00 PM 16.02 60.836 0.077 7.54 14.26 9.57
9/9/2021 5:15:00 PM 15.99 60.782 0.077 7.54 14.85 9.57
9/9/2021 5:30:00 PM 15.95 60.71 0.077 7.57 13.43 9.57
9/9/2021 5:45:00 PM 15.91 60.638 0.077 7.54 13.1 9.58
9/9/2021 6:00:00 PM 15.88 60.584 0.077 7.56 14.32 9.58
9/9/2021 6:15:00 PM 15.85 60.53 0.077 7.56 14.36 9.59
9/9/2021 6:30:00 PM 15.83 60.494 0.077 7.56 14.96 9.6
9/9/2021 6:45:00 PM 15.8 60.44 0.077 7.54 11.74 9.6
9/9/2021 7:00:00 PM 15.78 60.404 0.077 7.53 12.46 9.6
9/9/2021 7:15:00 PM 15.75 60.35 0.077 7.54 13.33 9.6
9/9/2021 7:30:00 PM 15.72 60.296 0.077 7.54 12.72 9.6
9/9/2021 7:45:00 PM 15.67 60.206 0.077 7.53 13.65 9.6
9/9/2021 8:00:00 PM 15.62 60.116 0.077 7.52 14.4 9.61
9/9/2021 8:15:00 PM 15.57 60.026 0.077 7.52 15.26 9.62
9/9/2021 8:30:00 PM 15.51 59.918 0.077 7.52 14.91 9.64
9/9/2021 8:45:00 PM 15.46 59.828 0.077 7.53 14.72 9.64
9/9/2021 9:00:00 PM 15.41 59.738 0.077 7.51 13.37 9.66
9/9/2021 9:15:00 PM 15.35 59.63 0.077 7.51 12.48 9.67
9/9/2021 9:30:00 PM 15.29 59.522 0.077 7.5 13.37 9.68
9/9/2021 9:45:00 PM 15.23 59.414 0.077 7.52 14.34 9.69
9/9/2021 10:00:00 PM 15.17 59.306 0.077 7.49 13.5 9.71
9/9/2021 10:15:00 PM 15.1 59.18 0.077 7.49 13.29 9.73
9/9/2021 10:30:00 PM 15.04 59.072 0.077 7.47 12.47 9.74
9/9/2021 10:45:00 PM 14.98 58.964 0.077 7.41 12.93 9.76
9/9/2021 11:00:00 PM 14.92 58.856 0.077 7.4 13.3 9.77
9/9/2021 11:15:00 PM 14.86 58.748 0.077 7.43 14.15 9.78
9/9/2021 11:30:00 PM 14.8 58.64 0.077 7.42 13.06 9.79
9/9/2021 11:45:00 PM 14.74 58.532 0.077 7.4 13 9.81
9/10/2021 12:00:00 AM 14.68 58.424 0.077 7.41 12.81 9.82
9/10/2021 12:15:00 AM 14.62 58.316 0.077 7.4 12.49 9.83
9/10/2021 12:30:00 AM 14.56 58.208 0.077 7.4 12.02 9.85
9/10/2021 12:45:00 AM 14.51 58.118 0.077 7.39 12.6 9.87
9/10/2021 1:00:00 AM 14.46 58.028 0.077 7.4 12.65 9.88
9/10/2021 1:15:00 AM 14.42 57.956 0.077 7.42 13.87 9.9
9/10/2021 1:30:00 AM 14.38 57.884 0.077 7.42 12.73 9.9
9/10/2021 1:45:00 AM 14.35 57.83 0.077 7.43 12.88 9.92
9/10/2021 2:00:00 AM 14.32 57.776 0.077 7.44 11.87 9.92
9/10/2021 2:15:00 AM 14.29 57.722 0.077 7.44 11.92 9.93
9/10/2021 2:30:00 AM 14.27 57.686 0.077 7.44 11.27 9.94
9/10/2021 2:45:00 AM 14.24 57.632 0.077 7.46 13.51 9.94
9/10/2021 3:00:00 AM 14.22 57.596 0.077 7.48 10.15 9.94
9/10/2021 3:15:00 AM 14.19 57.542 0.077 7.45 11.49 9.95
9/10/2021 3:30:00 AM 14.16 57.488 0.077 7.46 12.21 9.95
9/10/2021 3:45:00 AM 14.13 57.434 0.077 7.48 12.01 9.96
9/10/2021 4:00:00 AM 14.1 57.38 0.077 7.45 11.72 9.97
9/10/2021 4:15:00 AM 14.06 57.308 0.077 7.48 12.09 9.97
9/10/2021 4:30:00 AM 14.03 57.254 0.077 7.47 11.61 9.98
9/10/2021 4:45:00 AM 13.99 57.182 0.077 7.47 12.17 9.99
9/10/2021 5:00:00 AM 13.96 57.128 0.077 7.48 12.36 10
9/10/2021 5:15:00 AM 13.93 57.074 0.077 7.47 11.37 10.01
9/10/2021 5:30:00 AM 13.89 57.002 0.077 7.46 10.94 10.03
9/10/2021 5:45:00 AM 13.85 56.93 0.077 7.45 11.52 10.04
9/10/2021 6:00:00 AM 13.82 56.876 0.077 7.46 11.69 10.05
9/10/2021 6:15:00 AM 13.78 56.804 0.077 7.45 11.11 10.06
9/10/2021 6:30:00 AM 13.74 56.732 0.077 7.44 11.1 10.07
9/10/2021 6:45:00 AM 13.7 56.66 0.077 7.45 12.3 10.09
9/10/2021 7:00:00 AM 13.67 56.606 0.077 7.45 12.51 10.1
9/10/2021 7:15:00 AM 13.64 56.552 0.077 7.45 11.71 10.12
9/10/2021 7:30:00 AM 13.62 56.516 0.077 7.46 13.36 10.13
9/10/2021 7:45:00 AM 13.62 56.516 0.077 7.48 11.16 10.14
9/10/2021 8:00:00 AM 13.63 56.534 0.077 7.46 11.13 10.15
9/10/2021 8:15:00 AM 13.65 56.57 0.076 7.48 12.19 10.16
9/10/2021 8:30:00 AM 13.7 56.66 0.076 7.51 10.3 10.16
9/10/2021 8:45:00 AM 13.74 56.732 0.076 7.55 10.63 10.17
9/10/2021 9:00:00 AM 13.82 56.876 0.076 7.55 11.25 10.18
9/10/2021 9:15:00 AM 13.89 57.002 0.076 7.56 10.79 10.17
9/10/2021 9:30:00 AM 14.01 57.218 0.077 7.55 10.54 10.16
9/10/2021 9:45:00 AM 14.07 57.326 0.076 7.58 11.32 10.15
9/10/2021 10:00:00 AM 14.16 57.488 0.076 7.58 10.24 10.15
9/10/2021 10:15:00 AM 14.16 57.488 0.076 7.57 10.9 10.11
9/10/2021 10:30:00 AM 14.24 57.632 0.076 7.59 10.73 10.13
9/10/2021 10:45:00 AM 14.21 57.578 0.076 7.57 10.82 10.1
9/10/2021 11:00:00 AM 14.37 57.866 0.076 7.6 10.72 10.14
9/10/2021 11:15:00 AM 14.36 57.848 0.076 7.59 10.27 10.07
9/10/2021 11:30:00 AM 14.35 57.83 0.076 7.56 10.89 10.09
9/10/2021 11:45:00 AM 14.47 58.046 0.076 7.58 11.75 10.1
9/10/2021 12:00:00 PM 14.45 58.01 0.076 7.58 10.07 10.06
9/10/2021 12:15:00 PM 14.52 58.136 0.076 7.59 10.42 10.08
9/10/2021 12:30:00 PM 14.54 58.172 0.076 7.58 11.23 10.05
9/10/2021 12:45:00 PM 14.69 58.442 0.076 7.59 10 10.04
9/10/2021 1:00:00 PM 14.71 58.478 0.076 7.58 11.89 10.01
9/10/2021 1:15:00 PM 14.78 58.604 0.076 7.61 10.75 10.03
9/10/2021 1:30:00 PM 14.83 58.694 0.076 7.59 11.09 10
9/10/2021 1:45:00 PM 14.92 58.856 0.076 7.6 11.07 10.01
9/10/2021 2:00:00 PM 14.94 58.892 0.076 7.61 10.02 9.97
9/10/2021 2:15:00 PM 14.96 58.928 0.077 7.58 10.75 9.95
9/10/2021 2:30:00 PM 15.01 59.018 0.076 7.59 11.7 9.97
9/10/2021 2:45:00 PM 15.02 59.036 0.076 7.6 11.7 9.94
9/10/2021 3:00:00 PM 14.96 58.928 0.076 7.58 10.35 9.93
9/10/2021 3:15:00 PM 14.87 58.766 0.076 7.57 10.97 9.91
9/10/2021 3:30:00 PM 14.83 58.694 0.076 7.57 10.94 9.92
9/10/2021 3:45:00 PM 14.86 58.748 0.076 7.58 10.94 9.94
9/10/2021 4:00:00 PM 14.88 58.784 0.076 7.56 11.37 9.9
9/10/2021 4:15:00 PM 14.89 58.802 0.076 7.56 11.7 9.94
9/10/2021 4:30:00 PM 14.86 58.748 0.076 7.55 12.74 9.9
9/10/2021 4:45:00 PM 14.88 58.784 0.076 7.57 12.03 9.93
9/10/2021 5:00:00 PM 14.92 58.856 0.076 7.55 11.85 9.94
9/10/2021 5:15:00 PM 14.92 58.856 0.076 7.56 10.43 9.9
9/10/2021 5:30:00 PM 14.91 58.838 0.076 7.56 10.48 9.88
9/10/2021 5:45:00 PM 14.88 58.784 0.076 7.55 10.81 9.88
9/10/2021 6:00:00 PM 14.85 58.73 0.076 7.54 11.92 9.88
9/10/2021 6:15:00 PM 14.82 58.676 0.076 7.53 11.13 9.88
9/10/2021 6:30:00 PM 14.79 58.622 0.076 7.52 11.88 9.88
9/10/2021 6:45:00 PM 14.75 58.55 0.076 7.54 10.39 9.88
9/10/2021 7:00:00 PM 14.7 58.46 0.076 7.53 11.99 9.89
9/10/2021 7:15:00 PM 14.66 58.388 0.076 7.53 11.89 9.88
9/10/2021 7:30:00 PM 14.61 58.298 0.076 7.52 11.54 9.89
9/10/2021 7:45:00 PM 14.57 58.226 0.076 7.53 11.63 9.9
9/10/2021 8:00:00 PM 14.52 58.136 0.076 7.52 12.45 9.91
9/10/2021 8:15:00 PM 14.48 58.064 0.076 7.49 12.45 9.92
9/10/2021 8:30:00 PM 14.43 57.974 0.076 7.52 12.75 9.94
9/10/2021 8:45:00 PM 14.37 57.866 0.076 7.5 12.19 9.96
9/10/2021 9:00:00 PM 14.31 57.758 0.076 7.5 12.17 9.97
9/10/2021 9:15:00 PM 14.25 57.65 0.076 7.51 12.72 9.98
9/10/2021 9:30:00 PM 14.18 57.524 0.076 7.52 11 10
9/10/2021 9:45:00 PM 14.12 57.416 0.076 7.51 11.82 10.01
9/10/2021 10:00:00 PM 14.06 57.308 0.077 7.5 11.98 10.02
9/10/2021 10:15:00 PM 14 57.2 0.077 7.5 11.25 10.04
9/10/2021 10:30:00 PM 13.94 57.092 0.077 7.45 11.1 10.05
9/10/2021 10:45:00 PM 13.88 56.984 0.077 7.47 11.19 10.07
9/10/2021 11:00:00 PM 13.81 56.858 0.077 7.46 9.83 10.09
9/10/2021 11:15:00 PM 13.75 56.75 0.077 7.45 11.7 10.11
9/10/2021 11:30:00 PM 13.69 56.642 0.077 7.45 11.17 10.13
9/10/2021 11:45:00 PM 13.63 56.534 0.077 7.44 10.69 10.14
9/11/2021 12:00:00 AM 13.58 56.444 0.077 7.42 10.6 10.15
9/11/2021 12:15:00 AM 13.52 56.336 0.077 7.43 10.33 10.17
9/11/2021 12:30:00 AM 13.46 56.228 0.077 7.43 11.11 10.17
9/11/2021 12:45:00 AM 13.4 56.12 0.077 7.43 9.99 10.19
9/11/2021 1:00:00 AM 13.34 56.012 0.077 7.44 9.39 10.2
9/11/2021 1:15:00 AM 13.28 55.904 0.077 7.44 10.5 10.22
9/11/2021 1:30:00 AM 13.22 55.796 0.077 7.43 10.27 10.24
9/11/2021 1:45:00 AM 13.16 55.688 0.077 7.45 10.55 10.26
9/11/2021 2:00:00 AM 13.11 55.598 0.077 7.45 11.09 10.27
9/11/2021 2:15:00 AM 13.05 55.49 0.077 7.46 10.27 10.29
9/11/2021 2:30:00 AM 13 55.4 0.077 7.46 9.81 10.3
9/11/2021 2:45:00 AM 12.96 55.328 0.077 7.46 10.41 10.31
9/11/2021 3:00:00 AM 12.93 55.274 0.077 7.48 9.59 10.32
9/11/2021 3:15:00 AM 12.91 55.238 0.077 7.48 9.46 10.32
9/11/2021 3:30:00 AM 12.88 55.184 0.077 7.49 10.47 10.33
9/11/2021 3:45:00 AM 12.85 55.13 0.077 7.5 10.01 10.33
9/11/2021 4:00:00 AM 12.83 55.094 0.077 7.52 9.7 10.34
9/11/2021 4:15:00 AM 12.8 55.04 0.077 7.52 9.39 10.34
9/11/2021 4:30:00 AM 12.76 54.968 0.077 7.49 9.28 10.35
9/11/2021 4:45:00 AM 12.73 54.914 0.077 7.5 9.96 10.35
9/11/2021 5:00:00 AM 12.71 54.878 0.077 7.49 8.76 10.37
9/11/2021 5:15:00 AM 12.68 54.824 0.077 7.49 9.22 10.38
9/11/2021 5:30:00 AM 12.64 54.752 0.077 7.48 9.16 10.39
9/11/2021 5:45:00 AM 12.61 54.698 0.076 7.48 9.52 10.4
9/11/2021 6:00:00 AM 12.58 54.644 0.077 7.51 8.73 10.41
9/11/2021 6:15:00 AM 12.56 54.608 0.077 7.5 9.63 10.42
9/11/2021 6:30:00 AM 12.52 54.536 0.077 7.47 9.37 10.43
9/11/2021 6:45:00 AM 12.49 54.482 0.077 7.48 8.77 10.45
9/11/2021 7:00:00 AM 12.46 54.428 0.077 7.49 9.46 10.46
9/11/2021 7:15:00 AM 12.44 54.392 0.077 7.46 8.96 10.48
9/11/2021 7:30:00 AM 12.42 54.356 0.077 7.47 10.28 10.49
9/11/2021 7:45:00 AM 12.4 54.32 0.077 7.51 10.58 10.51
9/11/2021 8:00:00 AM 12.39 54.302 0.076 7.5 9.72 10.53
9/11/2021 8:15:00 AM 12.38 54.284 0.076 7.5 10.52 10.53
9/11/2021 8:30:00 AM 12.38 54.284 0.077 7.53 10.21 10.55
9/11/2021 8:45:00 AM 12.41 54.338 0.076 7.53 9.69 10.58
9/11/2021 9:00:00 AM 12.45 54.41 0.076 7.57 9.43 10.6
9/11/2021 9:15:00 AM 12.49 54.482 0.076 7.56 9.52 10.59
9/11/2021 9:30:00 AM 12.51 54.518 0.076 7.56 9.5 10.58
9/11/2021 9:45:00 AM 12.56 54.608 0.076 7.58 9.55 10.57
9/11/2021 10:00:00 AM 12.65 54.77 0.076 7.56 9.64 10.55
9/11/2021 10:15:00 AM 12.8 55.04 0.076 7.59 9.13 10.53
9/11/2021 10:30:00 AM 12.97 55.346 0.076 7.58 9.88 10.51
9/11/2021 10:45:00 AM 13.11 55.598 0.076 7.57 10.45 10.48
9/11/2021 11:00:00 AM 13.24 55.832 0.076 7.57 9.74 10.44
9/11/2021 11:15:00 AM 13.36 56.048 0.076 7.57 10.3 10.39
9/11/2021 11:30:00 AM 13.48 56.264 0.076 7.58 9.72 10.37
9/11/2021 11:45:00 AM 13.58 56.444 0.076 7.57 10.52 10.35
9/11/2021 12:00:00 PM 13.69 56.642 0.076 7.6 9.57 10.33
9/11/2021 12:15:00 PM 13.8 56.84 0.076 7.6 9.1 10.3
9/11/2021 12:30:00 PM 13.9 57.02 0.076 7.61 9.49 10.27
9/11/2021 12:45:00 PM 14.01 57.218 0.076 7.6 9.3 10.23
9/11/2021 1:00:00 PM 14.13 57.434 0.076 7.58 10 10.21
9/11/2021 1:15:00 PM 14.17 57.506 0.076 7.61 9.43 10.18
9/11/2021 1:30:00 PM 14.19 57.542 0.076 7.6 9.6 10.16
9/11/2021 1:45:00 PM 14.23 57.614 0.076 7.59 10.1 10.16
9/11/2021 2:00:00 PM 14.32 57.776 0.076 7.59 9.43 10.16
9/11/2021 2:15:00 PM 14.37 57.866 0.076 7.58 9.81 10.14
9/11/2021 2:30:00 PM 14.45 58.01 0.076 7.59 9.94 10.13
9/11/2021 2:45:00 PM 14.5 58.1 0.076 7.59 10.31 10.1
9/11/2021 3:00:00 PM 14.56 58.208 0.076 7.62 10.39 10.07
9/11/2021 3:15:00 PM 14.61 58.298 0.076 7.61 11.35 10.06
9/11/2021 3:30:00 PM 14.64 58.352 0.076 7.59 11.04 10.04
9/11/2021 3:45:00 PM 14.66 58.388 0.076 7.61 10.62 10.01
9/11/2021 4:00:00 PM 14.69 58.442 0.076 7.58 9.94 10
9/11/2021 4:15:00 PM 14.73 58.514 0.076 7.58 9.74 9.99
9/11/2021 4:30:00 PM 14.75 58.55 0.076 7.58 10.35 9.99
9/11/2021 4:45:00 PM 14.76 58.568 0.076 7.57 10.57 9.97
9/11/2021 5:00:00 PM 14.75 58.55 0.076 7.56 11.69 9.94
9/11/2021 5:15:00 PM 14.75 58.55 0.076 7.54 10.65 9.93
9/11/2021 5:30:00 PM 14.76 58.568 0.076 7.57 10.64 9.93
9/11/2021 5:45:00 PM 14.75 58.55 0.076 7.54 10.74 9.92
9/11/2021 6:00:00 PM 14.75 58.55 0.076 7.53 11.15 9.92
9/11/2021 6:15:00 PM 14.74 58.532 0.076 7.53 9.86 9.91
9/11/2021 6:30:00 PM 14.72 58.496 0.076 7.51 9.75 9.9
9/11/2021 6:45:00 PM 14.7 58.46 0.076 7.53 10.51 9.9
9/11/2021 7:00:00 PM 14.68 58.424 0.076 7.53 10.13 9.89
9/11/2021 7:15:00 PM 14.66 58.388 0.076 7.53 9.08 9.89
9/11/2021 7:30:00 PM 14.64 58.352 0.076 7.53 10.16 9.89
9/11/2021 7:45:00 PM 14.62 58.316 0.077 7.52 10.63 9.88
9/11/2021 8:00:00 PM 14.6 58.28 0.076 7.5 10.33 9.89
9/11/2021 8:15:00 PM 14.58 58.244 0.076 7.5 10.77 9.89
9/11/2021 8:30:00 PM 14.56 58.208 0.076 7.5 10.78 9.89
9/11/2021 8:45:00 PM 14.54 58.172 0.077 7.51 9.98 9.9
9/11/2021 9:00:00 PM 14.52 58.136 0.077 7.52 12.17 9.91
9/11/2021 9:15:00 PM 14.5 58.1 0.077 7.52 10.49 9.92
9/11/2021 9:30:00 PM 14.47 58.046 0.077 7.5 10.37 9.93
9/11/2021 9:45:00 PM 14.45 58.01 0.077 7.5 10.66 9.93
9/11/2021 10:00:00 PM 14.42 57.956 0.077 7.53 10.9 9.94
9/11/2021 10:15:00 PM 14.39 57.902 0.077 7.51 11.07 9.95
9/11/2021 10:30:00 PM 14.37 57.866 0.077 7.49 10.51 9.95
9/11/2021 10:45:00 PM 14.34 57.812 0.077 7.48 10.68 9.96
9/11/2021 11:00:00 PM 14.32 57.776 0.077 7.49 9.74 9.96
9/11/2021 11:15:00 PM 14.3 57.74 0.077 7.5 11.42 9.96
9/11/2021 11:30:00 PM 14.28 57.704 0.077 7.5 10 9.97
9/11/2021 11:45:00 PM 14.26 57.668 0.077 7.52 10.21 9.98
9/12/2021 12:00:00 AM 14.23 57.614 0.077 7.49 10.02 9.98
9/12/2021 12:15:00 AM 14.2 57.56 0.077 7.49 9.85 9.99
9/12/2021 12:30:00 AM 14.18 57.524 0.077 7.52 10.57 9.99
9/12/2021 12:45:00 AM 14.15 57.47 0.077 7.51 10.38 10
9/12/2021 1:00:00 AM 14.13 57.434 0.077 7.51 8.3 10
9/12/2021 1:15:00 AM 14.11 57.398 0.077 7.51 8.74 10
9/12/2021 1:30:00 AM 14.1 57.38 0.077 7.51 9.22 10.01
9/12/2021 1:45:00 AM 14.09 57.362 0.077 7.48 9.72 10.01
9/12/2021 2:00:00 AM 14.08 57.344 0.077 7.45 9.51 10.01
9/12/2021 2:15:00 AM 14.07 57.326 0.078 7.32 9.11 10.01
9/12/2021 2:30:00 AM 14.07 57.326 0.077 7.48 9.87 10.01
9/12/2021 2:45:00 AM 14.07 57.326 0.077 7.47 9.17 10.01
9/12/2021 3:00:00 AM 14.06 57.308 0.077 7.48 9.32 10.01
9/12/2021 3:15:00 AM 14.05 57.29 0.077 7.48 8.96 10.01
9/12/2021 3:30:00 AM 14.03 57.254 0.077 7.48 9.32 10.02
9/12/2021 3:45:00 AM 14.01 57.218 0.077 7.49 8.93 10.02
9/12/2021 4:00:00 AM 13.99 57.182 0.077 7.49 9.24 10.02
9/12/2021 4:15:00 AM 13.97 57.146 0.077 7.49 9.33 10.03
9/12/2021 4:30:00 AM 13.94 57.092 0.077 7.51 8.9 10.04
9/12/2021 4:45:00 AM 13.93 57.074 0.077 7.48 9.2 10.04
9/12/2021 5:00:00 AM 13.92 57.056 0.077 7.49 8.79 10.05
9/12/2021 5:15:00 AM 13.9 57.02 0.077 7.49 8.57 10.05
9/12/2021 5:30:00 AM 13.89 57.002 0.077 7.49 9.08 10.05
9/12/2021 5:45:00 AM 13.89 57.002 0.077 7.49 8.81 10.05
9/12/2021 6:00:00 AM 13.88 56.984 0.077 7.48 9.47 10.06
9/12/2021 6:15:00 AM 13.87 56.966 0.077 7.49 8.6 10.06
9/12/2021 6:30:00 AM 13.87 56.966 0.077 7.5 8.59 10.06
9/12/2021 6:45:00 AM 13.86 56.948 0.077 7.49 9.42 10.06
9/12/2021 7:00:00 AM 13.86 56.948 0.077 7.49 9.46 10.07
9/12/2021 7:15:00 AM 13.86 56.948 0.077 7.5 9.38 10.08
9/12/2021 7:30:00 AM 13.87 56.966 0.077 7.51 9.15 10.09
9/12/2021 7:45:00 AM 13.88 56.984 0.077 7.5 9.69 10.09
9/12/2021 8:00:00 AM 13.9 57.02 0.077 7.5 9.93 10.1
9/12/2021 8:15:00 AM 13.93 57.074 0.077 7.51 9.74 10.12
9/12/2021 8:30:00 AM 13.98 57.164 0.077 7.52 10.38 10.12
9/12/2021 8:45:00 AM 14.03 57.254 0.077 7.54 9.79 10.13
9/12/2021 9:00:00 AM 14.11 57.398 0.077 7.54 9.9 10.14
9/12/2021 9:15:00 AM 14.18 57.524 0.077 7.55 10.03 10.13
9/12/2021 9:30:00 AM 14.23 57.614 0.077 7.53 9.4 10.1
9/12/2021 9:45:00 AM 14.25 57.65 0.077 7.53 9.23 10.08
9/12/2021 10:00:00 AM 14.29 57.722 0.077 7.51 9.35 10.09
9/12/2021 10:15:00 AM 14.33 57.794 0.077 7.52 8.67 10.1
9/12/2021 10:30:00 AM 14.35 57.83 0.077 7.53 10.15 10.04
9/12/2021 10:45:00 AM 14.38 57.884 0.077 7.52 9.8 10.05
9/12/2021 11:00:00 AM 14.45 58.01 0.077 7.51 9.43 10.1
9/12/2021 11:15:00 AM 14.51 58.118 0.077 7.52 8.73 10.06
9/12/2021 11:30:00 AM 14.52 58.136 0.077 7.5 8.36 10.01
9/12/2021 11:45:00 AM 14.57 58.226 0.077 7.52 8.19 10.03
9/12/2021 12:00:00 PM 14.63 58.334 0.077 7.53 8.15 10.04
9/12/2021 12:15:00 PM 14.68 58.424 0.077 7.54 8.71 10.01
9/12/2021 12:30:00 PM 14.77 58.586 0.077 7.56 8.93 10.02
9/12/2021 12:45:00 PM 14.82 58.676 0.077 7.58 8.98 9.99
9/12/2021 1:00:00 PM 14.84 58.712 0.077 7.56 8.82 9.97
9/12/2021 1:15:00 PM 14.88 58.784 0.077 7.55 9.73 9.97
9/12/2021 1:30:00 PM 14.91 58.838 0.077 7.54 9.1 9.96
9/12/2021 1:45:00 PM 14.98 58.964 0.077 7.54 9.83 9.98
9/12/2021 2:00:00 PM 15.03 59.054 0.077 7.54 9.3 9.97
9/12/2021 2:15:00 PM 15.14 59.252 0.077 7.57 9.19 9.97
9/12/2021 2:30:00 PM 15.22 59.396 0.077 7.6 8.7 9.95
9/12/2021 2:45:00 PM 15.31 59.558 0.077 7.61 9.1 9.91
9/12/2021 3:00:00 PM 15.38 59.684 0.077 7.59 8.84 9.9
9/12/2021 3:15:00 PM 15.44 59.792 0.077 7.58 9.04 9.87
9/12/2021 3:30:00 PM 15.5 59.9 0.077 7.59 9.19 9.87
9/12/2021 3:45:00 PM 15.55 59.99 0.077 7.58 9.65 9.86
9/12/2021 4:00:00 PM 15.61 60.098 0.077 7.58 8.62 9.84
9/12/2021 4:15:00 PM 15.65 60.17 0.077 7.56 9.25 9.8
9/12/2021 4:30:00 PM 15.66 60.188 0.077 7.54 9.02 9.79
9/12/2021 4:45:00 PM 15.66 60.188 0.077 7.54 8.56 9.76
9/12/2021 5:00:00 PM 15.71 60.278 0.077 7.54 9.02 9.76
9/12/2021 5:15:00 PM 15.74 60.332 0.077 7.54 9.27 9.75
9/12/2021 5:30:00 PM 15.77 60.386 0.077 7.55 8.42 9.74
9/12/2021 5:45:00 PM 15.78 60.404 0.077 7.52 8.78 9.71
9/12/2021 6:00:00 PM 15.78 60.404 0.077 7.5 8.1 9.68
9/12/2021 6:15:00 PM 15.78 60.404 0.077 7.5 8.8 9.67
9/12/2021 6:30:00 PM 15.78 60.404 0.077 7.5 9.12 9.66
9/12/2021 6:45:00 PM 15.78 60.404 0.077 7.49 8.5 9.64
9/12/2021 7:00:00 PM 15.78 60.404 0.077 7.48 8.95 9.62
9/12/2021 7:15:00 PM 15.78 60.404 0.078 7.49 9.17 9.61
9/12/2021 7:30:00 PM 15.78 60.404 0.078 7.46 8.72 9.6
9/12/2021 7:45:00 PM 15.78 60.404 0.078 7.46 9.86 9.61
9/12/2021 8:00:00 PM 15.78 60.404 0.078 7.45 9.92 9.6
9/12/2021 8:15:00 PM 15.78 60.404 0.078 7.46 10.1 9.61
9/12/2021 8:30:00 PM 15.78 60.404 0.078 7.46 11.63 9.61
9/12/2021 8:45:00 PM 15.78 60.404 0.078 7.45 9.29 9.61
9/12/2021 9:00:00 PM 15.78 60.404 0.078 7.45 9.39 9.61
9/12/2021 9:15:00 PM 15.78 60.404 0.078 7.44 10.22 9.61
9/12/2021 9:30:00 PM 15.79 60.422 0.078 7.44 8.95 9.61
9/12/2021 9:45:00 PM 15.79 60.422 0.078 7.43 8.79 9.6
9/12/2021 10:00:00 PM 15.79 60.422 0.078 7.43 8.99 9.61
9/12/2021 10:15:00 PM 15.79 60.422 0.078 7.43 8.45 9.6
9/12/2021 10:30:00 PM 15.79 60.422 0.078 7.43 9.41 9.6
9/12/2021 10:45:00 PM 15.79 60.422 0.078 7.42 8.55 9.6
9/12/2021 11:00:00 PM 15.78 60.404 0.079 7.41 8.59 9.6
9/12/2021 11:15:00 PM 15.77 60.386 0.079 7.4 9.61 9.6
9/12/2021 11:30:00 PM 15.77 60.386 0.079 7.42 8.82 9.6
9/12/2021 11:45:00 PM 15.76 60.368 0.079 7.41 8.81 9.6
9/13/2021 12:00:00 AM 15.75 60.35 0.079 7.45 9.74 9.61
9/13/2021 12:15:00 AM 15.74 60.332 0.079 7.45 8.85 9.61
9/13/2021 12:30:00 AM 15.73 60.314 0.079 7.44 10.91 9.62
9/13/2021 12:45:00 AM 15.72 60.296 0.079 7.45 10.54 9.63
9/13/2021 1:00:00 AM 15.72 60.296 0.079 7.45 10.11 9.63
9/13/2021 1:15:00 AM 15.72 60.296 0.079 7.47 10.22 9.63
9/13/2021 1:30:00 AM 15.71 60.278 0.079 7.45 10.11 9.64
9/13/2021 1:45:00 AM 15.71 60.278 0.079 7.45 11.15 9.64
9/13/2021 2:00:00 AM 15.72 60.296 0.079 7.44 11.05 9.63
9/13/2021 2:15:00 AM 15.71 60.278 0.079 7.45 10.96 9.63
9/13/2021 2:30:00 AM 15.71 60.278 0.079 7.44 10.29 9.63
9/13/2021 2:45:00 AM 15.7 60.26 0.079 7.44 10.65 9.63
9/13/2021 3:00:00 AM 15.7 60.26 0.079 7.45 10.63 9.64
9/13/2021 3:15:00 AM 15.7 60.26 0.079 7.43 10.9 9.64
9/13/2021 3:30:00 AM 15.7 60.26 0.079 7.43 10.96 9.63
9/13/2021 3:45:00 AM 15.69 60.242 0.079 7.45 9.74 9.64
9/13/2021 4:00:00 AM 15.69 60.242 0.079 7.44 12.71 9.64
9/13/2021 4:15:00 AM 15.69 60.242 0.079 7.47 11.02 9.64
9/13/2021 4:30:00 AM 15.69 60.242 0.079 7.46 10.57 9.64
9/13/2021 4:45:00 AM 15.69 60.242 0.079 7.47 10.44 9.65
9/13/2021 5:00:00 AM 15.69 60.242 0.079 7.46 10.89 9.65
9/13/2021 5:15:00 AM 15.69 60.242 0.079 7.47 10.31 9.65
9/13/2021 5:30:00 AM 15.69 60.242 0.079 7.48 10.25 9.65
9/13/2021 5:45:00 AM 15.69 60.242 0.079 7.47 9.46 9.65
9/13/2021 6:00:00 AM 15.7 60.26 0.079 7.47 10.88 9.65
9/13/2021 6:15:00 AM 15.7 60.26 0.079 7.46 9.97 9.65
9/13/2021 6:30:00 AM 15.7 60.26 0.079 7.46 9.58 9.65
9/13/2021 6:45:00 AM 15.71 60.278 0.079 7.46 10.73 9.65
9/13/2021 7:00:00 AM 15.71 60.278 0.079 7.47 10.72 9.65
9/13/2021 7:15:00 AM 15.71 60.278 0.079 7.45 12.01 9.65
9/13/2021 7:30:00 AM 15.71 60.278 0.079 7.43 11.24 9.65
9/13/2021 7:45:00 AM 15.71 60.278 0.079 7.42 11.84 9.66
9/13/2021 8:00:00 AM 15.71 60.278 0.079 7.42 10.53 9.67
9/13/2021 8:15:00 AM 15.72 60.296 0.079 7.42 11.08 9.68
9/13/2021 8:30:00 AM 15.72 60.296 0.079 7.42 11.45 9.68
9/13/2021 8:45:00 AM 15.74 60.332 0.079 7.43 11.14 9.71
9/13/2021 9:00:00 AM 15.76 60.368 0.079 7.41 10.46 9.72
9/13/2021 9:15:00 AM 15.78 60.404 0.079 7.42 10.4 9.73
9/13/2021 9:30:00 AM 15.8 60.44 0.079 7.42 10.49 9.71
9/13/2021 9:45:00 AM 15.82 60.476 0.079 7.45 9.73 9.71
9/13/2021 10:00:00 AM 15.84 60.512 0.079 7.44 9.18 9.71
9/13/2021 10:15:00 AM 15.87 60.566 0.079 7.48 10.37 9.73
9/13/2021 10:30:00 AM 15.9 60.62 0.079 7.51 9.02 9.73
9/13/2021 10:45:00 AM 15.93 60.674 0.079 7.49 9.57 9.72
9/13/2021 11:00:00 AM 15.96 60.728 0.079 7.5 9.51 9.72
9/13/2021 11:15:00 AM 15.97 60.746 0.079 7.51 9.65 9.71
9/13/2021 11:30:00 AM 16.01 60.818 0.079 7.52 9.28 9.73
9/13/2021 11:45:00 AM 16.06 60.908 0.079 7.52 9.55 9.75
9/13/2021 12:00:00 PM 16.09 60.962 0.079 7.54 9.11 9.75
9/13/2021 12:15:00 PM 16.15 61.07 0.078 7.58 9.18 9.75
9/13/2021 12:30:00 PM 16.19 61.142 0.078 7.55 9.45 9.74
9/13/2021 12:45:00 PM 16.3 61.34 0.078 7.57 9.86 9.76
9/13/2021 1:00:00 PM 16.42 61.556 0.078 7.6 9.78 9.73
9/13/2021 1:15:00 PM 16.51 61.718 0.078 7.57 10.05 9.68
9/13/2021 1:30:00 PM 16.6 61.88 0.078 7.57 10.21 9.67
9/13/2021 1:45:00 PM 16.65 61.97 0.078 7.58 10.71 9.65
9/13/2021 2:00:00 PM 16.69 62.042 0.078 7.6 9.99 9.63
9/13/2021 2:15:00 PM 16.79 62.222 0.078 7.61 10.31 9.63
9/13/2021 2:30:00 PM 16.88 62.384 0.078 7.58 10.82 9.62
9/13/2021 2:45:00 PM 16.96 62.528 0.079 7.58 10.18 9.6
9/13/2021 3:00:00 PM 17.01 62.618 0.078 7.56 10.77 9.58
9/13/2021 3:15:00 PM 17.01 62.618 0.078 7.54 10.01 9.54
9/13/2021 3:30:00 PM 17.02 62.636 0.078 7.54 9.97 9.56
9/13/2021 3:45:00 PM 17.03 62.654 0.078 7.56 10.81 9.54
9/13/2021 4:00:00 PM 17.06 62.708 0.078 7.57 10.42 9.52
9/13/2021 4:15:00 PM 17.08 62.744 0.078 7.56 9.92 9.51
9/13/2021 4:30:00 PM 17.09 62.762 0.078 7.55 10.15 9.49
9/13/2021 4:45:00 PM 17.09 62.762 0.078 7.55 10.4 9.48
9/13/2021 5:00:00 PM 17.08 62.744 0.078 7.53 9.83 9.47
9/13/2021 5:15:00 PM 17.06 62.708 0.078 7.53 11.33 9.45
9/13/2021 5:30:00 PM 17.05 62.69 0.079 7.54 9.85 9.45
9/13/2021 5:45:00 PM 17.03 62.654 0.079 7.5 10.45 9.43
9/13/2021 6:00:00 PM 17.01 62.618 0.079 7.47 10.11 9.4
9/13/2021 6:15:00 PM 16.99 62.582 0.079 7.5 9.75 9.4
9/13/2021 6:30:00 PM 16.97 62.546 0.079 7.47 10.69 9.41
9/13/2021 6:45:00 PM 16.95 62.51 0.079 7.47 10.23 9.41
9/13/2021 7:00:00 PM 16.92 62.456 0.078 7.44 9.63 9.41
9/13/2021 7:15:00 PM 16.91 62.438 0.078 7.47 10.77 9.4
9/13/2021 7:30:00 PM 16.88 62.384 0.078 7.47 12.3 9.39
9/13/2021 7:45:00 PM 16.87 62.366 0.078 7.5 13.53 9.37
9/13/2021 8:00:00 PM 16.83 62.294 0.078 7.48 15.86 9.38
9/13/2021 8:15:00 PM 16.8 62.24 0.078 7.48 16.73 9.39
9/13/2021 8:30:00 PM 16.78 62.204 0.078 7.48 14.04 9.4
9/13/2021 8:45:00 PM 16.74 62.132 0.078 7.49 12.87 9.41
9/13/2021 9:00:00 PM 16.7 62.06 0.078 7.47 12.25 9.42
9/13/2021 9:15:00 PM 16.66 61.988 0.078 7.47 12.81 9.42
9/13/2021 9:30:00 PM 16.63 61.934 0.079 7.47 11.46 9.43
9/13/2021 9:45:00 PM 16.6 61.88 0.079 7.5 10.39 9.44
9/13/2021 10:00:00 PM 16.57 61.826 0.079 7.48 10.87 9.43
9/13/2021 10:15:00 PM 16.54 61.772 0.079 7.48 11.65 9.45
9/13/2021 10:30:00 PM 16.51 61.718 0.079 7.49 11.48 9.46
9/13/2021 10:45:00 PM 16.48 61.664 0.079 7.48 11.11 9.46
9/13/2021 11:00:00 PM 16.46 61.628 0.079 7.48 10.64 9.47
9/13/2021 11:15:00 PM 16.44 61.592 0.079 7.47 10.56 9.48
9/13/2021 11:30:00 PM 16.43 61.574 0.079 7.46 10.88 9.49
9/13/2021 11:45:00 PM 16.41 61.538 0.079 7.46 10.68 9.49
9/14/2021 12:00:00 AM 16.4 61.52 0.079 7.34 11.39 9.5
9/14/2021 12:15:00 AM 16.44 61.592 0.075 7.43 26.46 9.52
9/14/2021 12:30:00 AM 16.42 61.556 0.074 7.42 40.74 9.49
9/14/2021 12:45:00 AM 16.44 61.592 0.073 7.43 168.6 9.52
9/14/2021 1:00:00 AM 16.43 61.574 0.078 7.48 215.84 9.54
9/14/2021 1:15:00 AM 16.48 61.664 0.078 7.48 119.1 9.51
9/14/2021 1:30:00 AM 16.46 61.628 0.076 7.45 87.33 9.53
9/14/2021 1:45:00 AM 16.41 61.538 0.078 7.49 65.82 9.54
9/14/2021 2:00:00 AM 16.39 61.502 0.079 7.5 55.53 9.55
9/14/2021 2:15:00 AM 16.37 61.466 0.078 7.49 44.41 9.57
9/14/2021 2:30:00 AM 16.34 61.412 0.078 7.5 52.51 9.56
9/14/2021 2:45:00 AM 16.3 61.34 0.078 7.47 77.53 9.6
9/14/2021 3:00:00 AM 16.26 61.268 0.076 7.48 67.08 9.62
9/14/2021 3:15:00 AM 16.22 61.196 0.075 7.48 58.35 9.64
9/14/2021 3:30:00 AM 16.18 61.124 0.073 7.48 52.06 9.64
9/14/2021 3:45:00 AM 16.16 61.088 0.074 7.47 40.83 9.65
9/14/2021 4:00:00 AM 16.14 61.052 0.073 7.47 35.32 9.64
9/14/2021 4:15:00 AM 16.13 61.034 0.073 7.46 31.74 9.64
9/14/2021 4:30:00 AM 16.12 61.016 0.072 7.46 24.67 9.65
9/14/2021 4:45:00 AM 16.11 60.998 0.072 7.45 28.77 9.64
9/14/2021 5:00:00 AM 16.1 60.98 0.072 7.47 27.84 9.64
9/14/2021 5:15:00 AM 16.08 60.944 0.072 7.47 29.14 9.64
9/14/2021 5:30:00 AM 16.06 60.908 0.073 7.47 30.33 9.64
9/14/2021 5:45:00 AM 16.05 60.89 0.073 7.47 24.92 9.64
9/14/2021 6:00:00 AM 16.03 60.854 0.074 7.48 25.68 9.64
9/14/2021 6:15:00 AM 16.01 60.818 0.074 7.48 24.11 9.64
9/14/2021 6:30:00 AM 16 60.8 0.075 7.49 25.07 9.64
9/14/2021 6:45:00 AM 15.99 60.782 0.075 7.49 24.01 9.64
9/14/2021 7:00:00 AM 15.98 60.764 0.075 7.49 20.74 9.64
9/14/2021 7:15:00 AM 15.97 60.746 0.076 7.48 21.25 9.64
9/14/2021 7:30:00 AM 15.96 60.728 0.076 7.48 19.94 9.64
9/14/2021 7:45:00 AM 15.96 60.728 0.077 7.48 18.24 9.64
9/14/2021 8:00:00 AM 15.95 60.71 0.077 7.48 17.72 9.65
9/14/2021 8:15:00 AM 15.95 60.71 0.078 7.48 17.23 9.65
9/14/2021 8:30:00 AM 15.95 60.71 0.078 7.48 17.14 9.65
9/14/2021 8:45:00 AM 15.96 60.728 0.078 7.48 13.98 9.66
9/14/2021 9:00:00 AM 15.97 60.746 0.079 7.49 15.29 9.67
9/14/2021 9:15:00 AM 15.98 60.764 0.079 7.48 14.67 9.67
9/14/2021 9:30:00 AM 15.99 60.782 0.08 7.49 13.55 9.67
9/14/2021 9:45:00 AM 16.02 60.836 0.08 7.49 13.09 9.68
9/14/2021 10:00:00 AM 16.05 60.89 0.079 7.49 14.73 9.69
9/14/2021 10:15:00 AM 16.09 60.962 0.079 7.51 13.36 9.71
9/14/2021 10:30:00 AM 16.15 61.07 0.079 7.52 13.51 9.74
9/14/2021 10:45:00 AM 16.22 61.196 0.08 7.53 13.16 9.73
9/14/2021 11:00:00 AM 16.26 61.268 0.08 7.55 12.97 9.72
9/14/2021 11:15:00 AM 16.38 61.484 0.08 7.58 13.31 9.71
9/14/2021 11:30:00 AM 16.51 61.718 0.08 7.61 12.51 9.67
9/14/2021 11:45:00 AM 16.62 61.916 0.08 7.61 11.62 9.65
9/14/2021 12:00:00 PM 16.69 62.042 0.079 7.6 11.03 9.65
9/14/2021 12:15:00 PM 16.76 62.168 0.08 7.63 10.53 9.62
9/14/2021 12:30:00 PM 16.85 62.33 0.08 7.62 10.7 9.62
9/14/2021 12:45:00 PM 16.93 62.474 0.08 7.63 9.96 9.59
9/14/2021 1:00:00 PM 17.03 62.654 0.08 7.63 9.91 9.56
9/14/2021 1:15:00 PM 17.07 62.726 0.08 7.64 10.42 9.54
9/14/2021 1:30:00 PM 17.12 62.816 0.08 7.63 9.83 9.54
9/14/2021 1:45:00 PM 17.2 62.96 0.08 7.65 9.88 9.53
9/14/2021 2:00:00 PM 17.28 63.104 0.08 7.65 9.96 9.5
9/14/2021 2:15:00 PM 17.36 63.248 0.08 7.63 9.38 9.48
9/14/2021 2:30:00 PM 17.4 63.32 0.08 7.52 9.45 9.47
9/14/2021 2:45:00 PM 17.44 63.392 0.08 7.63 9.77 9.45
9/14/2021 3:00:00 PM 17.49 63.482 0.08 7.62 9.92 9.43
9/14/2021 3:15:00 PM 17.52 63.536 0.08 7.62 9.51 9.42
9/14/2021 3:30:00 PM 17.54 63.572 0.08 7.6 9.91 9.4
9/14/2021 3:45:00 PM 17.53 63.554 0.08 7.61 9.15 9.39
9/14/2021 4:00:00 PM 17.52 63.536 0.08 7.62 9.73 9.38
9/14/2021 4:15:00 PM 17.53 63.554 0.08 7.61 10.36 9.38
9/14/2021 4:30:00 PM 17.54 63.572 0.08 7.57 10.49 9.37
9/14/2021 4:45:00 PM 17.54 63.572 0.08 7.57 10.39 9.38
9/14/2021 5:00:00 PM 17.54 63.572 0.08 7.59 11 9.37
9/14/2021 5:15:00 PM 17.54 63.572 0.08 7.56 10.25 9.35
9/14/2021 5:30:00 PM 17.55 63.59 0.08 7.57 9.49 9.35
9/14/2021 5:45:00 PM 17.54 63.572 0.08 7.57 10.31 9.31
9/14/2021 6:00:00 PM 17.52 63.536 0.08 7.53 9.52 9.3
9/14/2021 6:15:00 PM 17.51 63.518 0.08 7.53 9.9 9.3
9/14/2021 6:30:00 PM 17.49 63.482 0.08 7.52 10.26 9.27
9/14/2021 6:45:00 PM 17.47 63.446 0.08 7.49 9.3 9.26
9/14/2021 7:00:00 PM 17.44 63.392 0.08 7.51 11.11 9.25
9/14/2021 7:15:00 PM 17.41 63.338 0.08 7.48 10.12 9.24
9/14/2021 7:30:00 PM 17.39 63.302 0.08 7.5 10.19 9.23
9/14/2021 7:45:00 PM 17.36 63.248 0.081 7.51 9.56 9.24
9/14/2021 8:00:00 PM 17.35 63.23 0.081 7.51 10.02 9.25
9/14/2021 8:15:00 PM 17.33 63.194 0.08 7.48 10.14 9.26
9/14/2021 8:30:00 PM 17.31 63.158 0.08 7.48 9.66 9.26
9/14/2021 8:45:00 PM 17.29 63.122 0.08 7.49 9.87 9.27
9/14/2021 9:00:00 PM 17.27 63.086 0.08 7.49 9.91 9.27
9/14/2021 9:15:00 PM 17.24 63.032 0.08 7.49 19.05 9.27
9/14/2021 9:30:00 PM 17.22 62.996 0.08 7.5 10.21 9.28
9/14/2021 9:45:00 PM 17.2 62.96 0.08 7.48 9.86 9.28
9/14/2021 10:00:00 PM 17.18 62.924 0.08 7.48 9.66 9.29
9/14/2021 10:15:00 PM 17.16 62.888 0.08 7.5 9.13 9.29
9/14/2021 10:30:00 PM 17.14 62.852 0.08 7.48 9.49 9.29
9/14/2021 10:45:00 PM 17.12 62.816 0.081 7.47 9.42 9.3
9/14/2021 11:00:00 PM 17.1 62.78 0.081 7.48 9.86 9.31
9/14/2021 11:15:00 PM 17.07 62.726 0.084 7.49 9.63 9.31
9/14/2021 11:30:00 PM 17.05 62.69 0.081 7.5 9.94 9.31
9/14/2021 11:45:00 PM 17.03 62.654 0.081 7.48 9.22 9.32
9/15/2021 12:00:00 AM 17.01 62.618 0.129 7.48 9.28 9.33
9/15/2021 12:15:00 AM 16.99 62.582 0.1 7.48 9.81 9.33
9/15/2021 12:30:00 AM 16.97 62.546 0.092 7.48 10.66 9.33
9/15/2021 12:45:00 AM 16.96 62.528 0.211 7.45 9.13 9.33
9/15/2021 1:00:00 AM 16.94 62.492 0.142 7.49 9.1 9.34
9/15/2021 1:15:00 AM 16.93 62.474 0.107 7.49 9.19 9.34
9/15/2021 1:30:00 AM 16.92 62.456 0.098 7.49 15.45 9.33
9/15/2021 1:45:00 AM 16.91 62.438 0.094 7.5 9.18 9.34
9/15/2021 2:00:00 AM 16.89 62.402 0.091 7.5 9.6 9.35
9/15/2021 2:15:00 AM 16.88 62.384 0.09 7.48 9.27 9.35
9/15/2021 2:30:00 AM 16.87 62.366 0.089 7.49 9.4 9.35
9/15/2021 2:45:00 AM 16.86 62.348 0.083 7.48 8.78 9.36
9/15/2021 3:00:00 AM 16.85 62.33 0.083 7.5 11.31 9.36
9/15/2021 3:15:00 AM 16.84 62.312 0.082 7.49 22.24 9.36
9/15/2021 3:30:00 AM 16.83 62.294 0.082 7.47 10.03 9.36
9/15/2021 3:45:00 AM 16.81 62.258 0.082 7.48 10.52 9.36
9/15/2021 4:00:00 AM 16.8 62.24 0.082 7.47 9.46 9.37
9/15/2021 4:15:00 AM 16.78 62.204 0.082 7.49 10.29 9.37
9/15/2021 4:30:00 AM 16.76 62.168 0.082 7.48 10.14 9.37
9/15/2021 4:45:00 AM 16.75 62.15 0.082 7.46 9.46 9.37
9/15/2021 5:00:00 AM 16.73 62.114 0.082 7.46 9.88 9.37
9/15/2021 5:15:00 AM 16.71 62.078 0.082 7.46 10.49 9.36
9/15/2021 5:30:00 AM 16.69 62.042 0.082 7.46 9.53 9.37
9/15/2021 5:45:00 AM 16.67 62.006 0.081 7.43 10.26 9.38
9/15/2021 6:00:00 AM 16.65 61.97 0.081 7.48 10.38 9.38
9/15/2021 6:15:00 AM 16.63 61.934 0.081 7.46 10.12 9.38
9/15/2021 6:30:00 AM 16.6 61.88 0.081 7.48 10.32 9.38
9/15/2021 6:45:00 AM 16.58 61.844 0.081 7.46 11.37 9.39
9/15/2021 7:00:00 AM 16.57 61.826 0.081 7.46 11.18 9.38
9/15/2021 7:15:00 AM 16.57 61.826 0.081 7.46 10.52 9.39
9/15/2021 7:30:00 AM 16.56 61.808 0.081 7.46 11.86 9.41
9/15/2021 7:45:00 AM 16.57 61.826 0.081 7.45 10.88 9.42
9/15/2021 8:00:00 AM 16.59 61.862 0.081 7.46 11.07 9.42
9/15/2021 8:15:00 AM 16.62 61.916 0.081 7.45 10.77 9.43
9/15/2021 8:30:00 AM 16.65 61.97 0.081 7.45 10.01 9.45
9/15/2021 8:45:00 AM 16.68 62.024 0.081 7.44 9.97 9.45
9/15/2021 9:00:00 AM 16.7 62.06 0.081 7.47 9.99 9.44
9/15/2021 9:15:00 AM 16.74 62.132 0.081 7.49 9.66 9.47
9/15/2021 9:30:00 AM 16.82 62.276 0.081 7.5 9.21 9.49
9/15/2021 9:45:00 AM 16.9 62.42 0.081 7.54 9.6 9.5
9/15/2021 10:00:00 AM 16.97 62.546 0.081 7.54 9.32 9.49
9/15/2021 10:15:00 AM 17.11 62.798 0.081 7.58 10.04 9.5
9/15/2021 10:30:00 AM 17.18 62.924 0.08 7.59 9.59 9.48
9/15/2021 10:45:00 AM 17.25 63.05 0.08 7.58 9.53 9.49
9/15/2021 11:00:00 AM 17.26 63.068 0.08 7.58 9.3 9.43
9/15/2021 11:15:00 AM 17.28 63.104 0.08 7.56 9.66 9.4
9/15/2021 11:30:00 AM 17.25 63.05 0.081 7.51 10.32 9.33
9/15/2021 11:45:00 AM 17.3 63.14 0.079 7.48 15.28 9.31
9/15/2021 12:00:00 PM 17.31 63.158 0.078 7.54 15.31 9.36
9/15/2021 12:15:00 PM 17.37 63.266 0.078 7.57 33.16 9.39
9/15/2021 12:30:00 PM 17.41 63.338 0.079 7.6 45.7 9.41
9/15/2021 12:45:00 PM 17.4 63.32 0.08 7.58 29.81 9.39
9/15/2021 1:00:00 PM 17.38 63.284 0.081 7.56 20.53 9.37
9/15/2021 1:15:00 PM 17.35 63.23 0.081 7.53 16.63 9.33
9/15/2021 1:30:00 PM 17.42 63.356 0.078 7.48 16.83 9.3
9/15/2021 1:45:00 PM 17.43 63.374 0.077 7.49 25.18 9.31
9/15/2021 2:00:00 PM 17.45 63.41 0.077 7.5 85.1 9.31
9/15/2021 2:15:00 PM 17.51 63.518 0.081 7.53 98.82 9.32
9/15/2021 2:30:00 PM 17.6 63.68 0.08 7.51 78.63 9.3
9/15/2021 2:45:00 PM 17.63 63.734 0.08 7.55 54.16 9.32
9/15/2021 3:00:00 PM 17.62 63.716 0.081 7.56 43.23 9.31
9/15/2021 3:15:00 PM 17.59 63.662 0.082 7.54 36.06 9.3
9/15/2021 3:30:00 PM 17.57 63.626 0.081 7.54 27.03 9.31
9/15/2021 3:45:00 PM 17.55 63.59 0.081 7.53 23.72 9.32
9/15/2021 4:00:00 PM 17.53 63.554 0.081 7.51 21.64 9.31
9/15/2021 4:15:00 PM 17.49 63.482 0.081 7.56 19.45 9.32
9/15/2021 4:30:00 PM 17.46 63.428 0.08 7.55 19.1 9.34
9/15/2021 4:45:00 PM 17.41 63.338 0.08 7.55 19.62 9.35
9/15/2021 5:00:00 PM 17.36 63.248 0.079 7.55 21.51 9.37
9/15/2021 5:15:00 PM 17.3 63.14 0.078 7.55 26.06 9.37
9/15/2021 5:30:00 PM 17.26 63.068 0.078 7.53 35.63 9.38
9/15/2021 5:45:00 PM 17.22 62.996 0.078 7.58 40.72 9.4
9/15/2021 6:00:00 PM 17.2 62.96 0.079 7.52 34.91 9.4
9/15/2021 6:15:00 PM 17.18 62.924 0.079 7.55 30.73 9.41
9/15/2021 6:30:00 PM 17.15 62.87 0.079 7.53 27.16 9.41
9/15/2021 6:45:00 PM 17.11 62.798 0.078 7.54 32.32 9.42
9/15/2021 7:00:00 PM 17.08 62.744 0.078 7.57 33.64 9.44
9/15/2021 7:15:00 PM 17.06 62.708 0.078 7.54 32.44 9.45
9/15/2021 7:30:00 PM 17.02 62.636 0.078 7.54 31.98 9.46
9/15/2021 7:45:00 PM 16.97 62.546 0.077 7.56 31.59 9.47
9/15/2021 8:00:00 PM 16.93 62.474 0.077 7.5 30.36 9.5
9/15/2021 8:15:00 PM 16.89 62.402 0.076 7.52 28.05 9.5
9/15/2021 8:30:00 PM 16.86 62.348 0.076 7.56 27.62 9.51
9/15/2021 8:45:00 PM 16.82 62.276 0.076 7.56 24.1 9.52
9/15/2021 9:00:00 PM 16.77 62.186 0.076 7.57 22.28 9.52
9/15/2021 9:15:00 PM 16.69 62.042 0.076 7.56 28.53 9.53
9/15/2021 9:30:00 PM 16.63 61.934 0.076 7.57 26.59 9.54
9/15/2021 9:45:00 PM 16.58 61.844 0.076 7.55 20.75 9.56
9/15/2021 10:00:00 PM 16.53 61.754 0.076 7.55 19.57 9.56
9/15/2021 10:15:00 PM 16.48 61.664 0.076 7.56 27.7 9.57
9/15/2021 10:30:00 PM 16.43 61.574 0.076 7.55 21.54 9.58
9/15/2021 10:45:00 PM 16.39 61.502 0.076 7.54 18.02 9.59
9/15/2021 11:00:00 PM 16.36 61.448 0.076 7.53 19.83 9.6
9/15/2021 11:15:00 PM 16.32 61.376 0.076 7.53 19.66 9.61
9/15/2021 11:30:00 PM 16.28 61.304 0.076 7.54 17.83 9.61
9/15/2021 11:45:00 PM 16.25 61.25 0.077 7.53 18.78 9.62
9/16/2021 12:00:00 AM 16.21 61.178 0.077 7.54 16.87 9.62
9/16/2021 12:15:00 AM 16.18 61.124 0.077 7.54 16.81 9.63
9/16/2021 12:30:00 AM 16.15 61.07 0.077 7.52 16.07 9.63
9/16/2021 12:45:00 AM 16.12 61.016 0.077 7.55 16.6 9.63
9/16/2021 1:00:00 AM 16.09 60.962 0.077 7.52 14.37 9.63
9/16/2021 1:15:00 AM 16.06 60.908 0.077 7.53 14.46 9.66
9/16/2021 1:30:00 AM 16.02 60.836 0.077 7.53 13.85 9.65
9/16/2021 1:45:00 AM 15.99 60.782 0.077 7.52 13.61 9.66
9/16/2021 2:00:00 AM 15.96 60.728 0.077 7.5 14.42 9.66
9/16/2021 2:15:00 AM 15.93 60.674 0.077 7.51 13.58 9.66
9/16/2021 2:30:00 AM 15.9 60.62 0.078 7.51 13.77 9.67
9/16/2021 2:45:00 AM 15.86 60.548 0.078 7.53 14.44 9.67
9/16/2021 3:00:00 AM 15.82 60.476 0.078 7.54 13.39 9.7
9/16/2021 3:15:00 AM 15.77 60.386 0.078 7.51 14.15 9.71
9/16/2021 3:30:00 AM 15.72 60.296 0.078 7.51 13.56 9.73
9/16/2021 3:45:00 AM 15.68 60.224 0.078 7.51 13.72 9.73
9/16/2021 4:00:00 AM 15.65 60.17 0.078 7.52 13.45 9.74
9/16/2021 4:15:00 AM 15.63 60.134 0.078 7.53 13.54 9.75
9/16/2021 4:30:00 AM 15.6 60.08 0.078 7.52 14.05 9.76
9/16/2021 4:45:00 AM 15.57 60.026 0.078 7.52 12.57 9.77
9/16/2021 5:00:00 AM 15.55 59.99 0.078 7.54 13.58 9.77
9/16/2021 5:15:00 AM 15.53 59.954 0.078 7.52 13.91 9.78
9/16/2021 5:30:00 AM 15.51 59.918 0.078 7.5 13.54 9.78
9/16/2021 5:45:00 AM 15.49 59.882 0.078 7.5 13.36 9.79
9/16/2021 6:00:00 AM 15.47 59.846 0.078 7.51 12.19 9.79
9/16/2021 6:15:00 AM 15.46 59.828 0.078 7.52 11.8 9.78
9/16/2021 6:30:00 AM 15.44 59.792 0.078 7.49 13.09 9.79
9/16/2021 6:45:00 AM 15.43 59.774 0.078 7.5 13.9 9.8
9/16/2021 7:00:00 AM 15.42 59.756 0.078 7.52 13.64 9.8
9/16/2021 7:15:00 AM 15.41 59.738 0.078 7.53 13.37 9.81
9/16/2021 7:30:00 AM 15.4 59.72 0.078 7.52 13.13 9.82
9/16/2021 7:45:00 AM 15.4 59.72 0.078 7.53 12.55 9.83
9/16/2021 8:00:00 AM 15.41 59.738 0.078 7.51 12.34 9.84
9/16/2021 8:15:00 AM 15.41 59.738 0.078 7.52 12.09 9.85
9/16/2021 8:30:00 AM 15.42 59.756 0.078 7.54 13.66 9.86
9/16/2021 8:45:00 AM 15.42 59.756 0.078 7.53 12.31 9.86
9/16/2021 9:00:00 AM 15.43 59.774 0.078 7.53 12.83 9.88
9/16/2021 9:15:00 AM 15.43 59.774 0.078 7.56 12.72 9.9
9/16/2021 9:30:00 AM 15.43 59.774 0.078 7.57 14.87 9.91
9/16/2021 9:45:00 AM 15.45 59.81 0.078 7.57 13.83 9.93
9/16/2021 10:00:00 AM 15.47 59.846 0.078 7.58 14.84 9.93
9/16/2021 10:15:00 AM 15.48 59.864 0.078 7.57 15.57 9.92
9/16/2021 10:30:00 AM 15.48 59.864 0.078 7.56 12.59 9.9
9/16/2021 10:45:00 AM 15.51 59.918 0.078 7.56 13.15 9.93
9/16/2021 11:00:00 AM 15.54 59.972 0.078 7.58 11.87 9.94
9/16/2021 11:15:00 AM 15.59 60.062 0.078 7.58 12.46 9.95
9/16/2021 11:30:00 AM 15.64 60.152 0.078 7.61 10.61 9.96
9/16/2021 11:45:00 AM 15.73 60.314 0.078 7.6 11.28 9.94
9/16/2021 12:00:00 PM 15.79 60.422 0.078 7.62 11.3 9.92
9/16/2021 12:15:00 PM 15.88 60.584 0.078 7.63 10.92 9.91
9/16/2021 12:30:00 PM 15.93 60.674 0.078 7.6 10.91 9.87
9/16/2021 12:45:00 PM 15.99 60.782 0.078 7.61 10.67 9.87
9/16/2021 1:00:00 PM 16.05 60.89 0.078 7.59 11.27 9.83
9/16/2021 1:15:00 PM 16.1 60.98 0.078 7.6 11.34 9.81
9/16/2021 1:30:00 PM 16.13 61.034 0.078 7.58 10.99 9.83
9/16/2021 1:45:00 PM 16.13 61.034 0.078 7.61 11.85 9.83
9/16/2021 2:00:00 PM 16.14 61.052 0.078 7.57 11.21 9.77
9/16/2021 2:15:00 PM 16.18 61.124 0.078 7.57 11.22 9.76
9/16/2021 2:30:00 PM 16.21 61.178 0.078 7.59 10.63 9.76
9/16/2021 2:45:00 PM 16.21 61.178 0.078 7.55 12.15 9.71
9/16/2021 3:00:00 PM 16.22 61.196 0.078 7.55 12.46 9.76
9/16/2021 3:15:00 PM 16.24 61.232 0.077 7.56 12.94 9.78
9/16/2021 3:30:00 PM 16.28 61.304 0.078 7.57 11.93 9.76
9/16/2021 3:45:00 PM 16.28 61.304 0.078 7.55 11.55 9.72
9/16/2021 4:00:00 PM 16.26 61.268 0.078 7.53 11.68 9.71
9/16/2021 4:15:00 PM 16.26 61.268 0.078 7.55 12.29 9.69
9/16/2021 4:30:00 PM 16.27 61.286 0.078 7.54 11.45 9.69
9/16/2021 4:45:00 PM 16.27 61.286 0.078 7.53 11.45 9.67
9/16/2021 5:00:00 PM 16.28 61.304 0.078 7.54 10.72 9.68
9/16/2021 5:15:00 PM 16.28 61.304 0.078 7.53 11.38 9.67
9/16/2021 5:30:00 PM 16.27 61.286 0.078 7.53 12.56 9.68
9/16/2021 5:45:00 PM 16.26 61.268 0.078 7.5 11.53 9.67
9/16/2021 6:00:00 PM 16.26 61.268 0.078 7.49 11.88 9.65
9/16/2021 6:15:00 PM 16.25 61.25 0.078 7.48 11.64 9.65
9/16/2021 6:30:00 PM 16.23 61.214 0.078 7.47 11.91 9.64
9/16/2021 6:45:00 PM 16.22 61.196 0.078 7.48 11.78 9.63
9/16/2021 7:00:00 PM 16.2 61.16 0.078 7.45 12.57 9.61
9/16/2021 7:15:00 PM 16.19 61.142 0.078 7.45 11.82 9.61
9/16/2021 7:30:00 PM 16.17 61.106 0.078 7.44 11.53 9.63
9/16/2021 7:45:00 PM 16.16 61.088 0.078 7.44 11.48 9.61
9/16/2021 8:00:00 PM 16.14 61.052 0.078 7.47 14.79 9.63
9/16/2021 8:15:00 PM 16.13 61.034 0.078 7.44 16.28 9.63
9/16/2021 8:30:00 PM 16.12 61.016 0.078 7.44 14.31 9.62
9/16/2021 8:45:00 PM 16.11 60.998 0.078 7.44 12.91 9.63
9/16/2021 9:00:00 PM 16.1 60.98 0.078 7.47 11.83 9.62
9/16/2021 9:15:00 PM 16.09 60.962 0.078 7.46 13.53 9.63
9/16/2021 9:30:00 PM 16.08 60.944 0.078 7.43 13.75 9.62
9/16/2021 9:45:00 PM 16.07 60.926 0.078 7.43 12.65 9.62
9/16/2021 10:00:00 PM 16.06 60.908 0.078 7.44 12.22 9.62
9/16/2021 10:15:00 PM 16.05 60.89 0.078 7.42 11.94 9.62
9/16/2021 10:30:00 PM 16.05 60.89 0.078 7.41 11.93 9.65
9/16/2021 10:45:00 PM 16.04 60.872 0.078 7.4 10.41 9.65
9/16/2021 11:00:00 PM 16.02 60.836 0.079 7.4 10.73 9.65
9/16/2021 11:15:00 PM 16.01 60.818 0.078 7.41 10.91 9.66
9/16/2021 11:30:00 PM 16 60.8 0.079 7.43 10.68 9.66
9/16/2021 11:45:00 PM 16 60.8 0.079 7.41 10.84 9.66
9/17/2021 12:00:00 AM 15.99 60.782 0.079 7.43 10.94 9.66
9/17/2021 12:15:00 AM 15.98 60.764 0.079 7.42 10.33 9.66
9/17/2021 12:30:00 AM 15.98 60.764 0.079 7.44 10.1 9.66
9/17/2021 12:45:00 AM 15.97 60.746 0.079 7.43 11.37 9.65
9/17/2021 1:00:00 AM 15.97 60.746 0.079 7.44 11.53 9.65
9/17/2021 1:15:00 AM 15.97 60.746 0.079 7.44 11.5 9.65
9/17/2021 1:30:00 AM 15.96 60.728 0.079 7.44 10.83 9.65
9/17/2021 1:45:00 AM 15.96 60.728 0.079 7.45 12.29 9.64
9/17/2021 2:00:00 AM 15.96 60.728 0.079 7.44 12.01 9.65
9/17/2021 2:15:00 AM 15.96 60.728 0.079 7.42 12.15 9.65
9/17/2021 2:30:00 AM 15.96 60.728 0.079 7.41 11.78 9.66
9/17/2021 2:45:00 AM 15.96 60.728 0.079 7.42 11.02 9.64
9/17/2021 3:00:00 AM 15.95 60.71 0.079 7.39 12.52 9.66
9/17/2021 3:15:00 AM 15.95 60.71 0.079 7.43 12.91 9.65
9/17/2021 3:30:00 AM 15.95 60.71 0.079 7.4 12.81 9.65
9/17/2021 3:45:00 AM 15.95 60.71 0.079 7.41 12.43 9.64
9/17/2021 4:00:00 AM 15.95 60.71 0.079 7.39 12.45 9.65
9/17/2021 4:15:00 AM 15.95 60.71 0.079 7.39 12.43 9.65
9/17/2021 4:30:00 AM 15.94 60.692 0.079 7.39 11.09 9.65
9/17/2021 4:45:00 AM 15.94 60.692 0.079 7.36 12.05 9.66
9/17/2021 5:00:00 AM 15.94 60.692 0.079 7.41 10.66 9.66
9/17/2021 5:15:00 AM 15.94 60.692 0.079 7.38 10.43 9.66
9/17/2021 5:30:00 AM 15.93 60.674 0.079 7.38 10.55 9.65
9/17/2021 5:45:00 AM 15.93 60.674 0.079 7.37 9.52 9.65
9/17/2021 6:00:00 AM 15.92 60.656 0.079 7.38 10.83 9.66
9/17/2021 6:15:00 AM 15.92 60.656 0.079 7.41 10.77 9.66
9/17/2021 6:30:00 AM 15.92 60.656 0.079 7.4 10.92 9.67
9/17/2021 6:45:00 AM 15.91 60.638 0.079 7.39 12.51 9.67
9/17/2021 7:00:00 AM 15.91 60.638 0.079 7.42 13.15 9.66
9/17/2021 7:15:00 AM 15.91 60.638 0.079 7.41 11.37 9.62
9/17/2021 7:30:00 AM 15.92 60.656 0.079 7.41 12.63 9.66
9/17/2021 7:45:00 AM 15.92 60.656 0.079 7.43 12.73 9.66
9/17/2021 8:00:00 AM 15.93 60.674 0.079 7.41 12.25 9.68
9/17/2021 8:15:00 AM 15.93 60.674 0.079 7.41 12.08 9.7
9/17/2021 8:30:00 AM 15.95 60.71 0.079 7.39 10.4 9.67
9/17/2021 8:45:00 AM 15.97 60.746 0.079 7.43 11.32 9.7
9/17/2021 9:00:00 AM 15.98 60.764 0.079 7.43 12.48 9.66
9/17/2021 9:15:00 AM 16 60.8 0.079 7.39 10.35 9.7
9/17/2021 9:30:00 AM 16.02 60.836 0.079 7.4 10.4 9.71
9/17/2021 9:45:00 AM 16.04 60.872 0.079 7.4 11.46 9.71
9/17/2021 10:00:00 AM 16.07 60.926 0.079 7.43 11.2 9.72
9/17/2021 10:15:00 AM 16.08 60.944 0.079 7.41 11.15 9.7
9/17/2021 10:30:00 AM 16.1 60.98 0.079 7.42 10.23 9.72
9/17/2021 10:45:00 AM 16.15 61.07 0.079 7.45 9.85 9.73
9/17/2021 11:00:00 AM 16.21 61.178 0.079 7.47 9.85 9.78
9/17/2021 11:15:00 AM 16.31 61.358 0.079 7.5 10.47 9.79
9/17/2021 11:30:00 AM 16.39 61.502 0.079 7.51 10.01 9.75
9/17/2021 11:45:00 AM 16.45 61.61 0.079 7.5 9.96 9.71
9/17/2021 12:00:00 PM 16.49 61.682 0.078 7.53 10.61 9.67
9/17/2021 12:15:00 PM 16.54 61.772 0.078 7.52 10.49 9.67
9/17/2021 12:30:00 PM 16.58 61.844 0.079 7.53 8.92 9.68
9/17/2021 12:45:00 PM 16.59 61.862 0.078 7.54 11.23 9.65
9/17/2021 1:00:00 PM 16.6 61.88 0.078 7.52 11.14 9.63
9/17/2021 1:15:00 PM 16.59 61.862 0.078 7.49 11.75 9.62
9/17/2021 1:30:00 PM 16.57 61.826 0.078 7.46 10.2 9.58
9/17/2021 1:45:00 PM 16.6 61.88 0.078 7.47 12.72 9.66
9/17/2021 2:00:00 PM 16.65 61.97 0.078 7.49 11.3 9.67
9/17/2021 2:15:00 PM 16.69 62.042 0.078 7.51 9.08 9.64
9/17/2021 2:30:00 PM 16.74 62.132 0.078 7.5 10.08 9.63
9/17/2021 2:45:00 PM 16.8 62.24 0.078 7.53 9.84 9.64
9/17/2021 3:00:00 PM 16.84 62.312 0.078 7.54 11.1 9.59
9/17/2021 3:15:00 PM 16.9 62.42 0.078 7.53 11.71 9.65
9/17/2021 3:30:00 PM 16.92 62.456 0.078 7.53 11.82 9.59
9/17/2021 3:45:00 PM 16.93 62.474 0.078 7.52 11.09 9.59
9/17/2021 4:00:00 PM 16.93 62.474 0.078 7.53 10.84 9.5
9/17/2021 4:15:00 PM 16.92 62.456 0.078 7.5 10.79 9.57
9/17/2021 4:30:00 PM 16.91 62.438 0.078 7.48 10.08 9.54
9/17/2021 4:45:00 PM 16.94 62.492 0.078 7.51 10.68 9.53
9/17/2021 5:00:00 PM 16.96 62.528 0.078 7.48 11.42 9.53
9/17/2021 5:15:00 PM 16.96 62.528 0.078 7.48 12.11 9.53
9/17/2021 5:30:00 PM 16.95 62.51 0.078 7.49 11.3 9.47
9/17/2021 5:45:00 PM 16.94 62.492 0.078 7.45 12.14 9.51
9/17/2021 6:00:00 PM 16.92 62.456 0.078 7.46 13.12 9.44
9/17/2021 6:15:00 PM 16.9 62.42 0.078 7.42 11.59 9.47
9/17/2021 6:30:00 PM 16.87 62.366 0.078 7.45 11.94 9.43
9/17/2021 6:45:00 PM 16.85 62.33 0.078 7.45 11.47 9.45
9/17/2021 7:00:00 PM 16.83 62.294 0.078 7.42 11.63 9.42
9/17/2021 7:15:00 PM 16.8 62.24 0.078 7.45 12.64 9.44
9/17/2021 7:30:00 PM 16.78 62.204 0.078 7.43 11.73 9.43
9/17/2021 7:45:00 PM 16.75 62.15 0.078 7.45 13.42 9.47
9/17/2021 8:00:00 PM 16.73 62.114 0.078 7.44 13.8 9.44
9/17/2021 8:15:00 PM 16.71 62.078 0.078 7.43 13.72 9.47
9/17/2021 8:30:00 PM 16.69 62.042 0.078 7.44 12.29 9.47
9/17/2021 8:45:00 PM 16.67 62.006 0.078 7.44 13.38 9.49
9/17/2021 9:00:00 PM 16.65 61.97 0.079 7.43 10.7 9.49
9/17/2021 9:15:00 PM 16.63 61.934 0.08 7.44 13.17 9.49
9/17/2021 9:30:00 PM 16.61 61.898 0.08 7.45 13.43 9.49
9/17/2021 9:45:00 PM 16.58 61.844 0.08 7.46 12.6 9.5
9/17/2021 10:00:00 PM 16.56 61.808 0.079 7.44 12.74 9.51
9/17/2021 10:15:00 PM 16.55 61.79 0.079 7.43 12.94 9.5
9/17/2021 10:30:00 PM 16.53 61.754 0.079 7.42 11.39 9.5
9/17/2021 10:45:00 PM 16.51 61.718 0.079 7.44 11.23 9.51
9/17/2021 11:00:00 PM 16.48 61.664 0.079 7.43 11.59 9.5
9/17/2021 11:15:00 PM 16.46 61.628 0.079 7.42 13.94 9.51
9/17/2021 11:30:00 PM 16.45 61.61 0.079 7.43 11.4 9.52
9/17/2021 11:45:00 PM 16.43 61.574 0.079 7.44 11.53 9.53
9/18/2021 12:00:00 AM 16.41 61.538 0.079 7.43 13.21 9.52
9/18/2021 12:15:00 AM 16.38 61.484 0.078 7.43 11.62 9.54
9/18/2021 12:30:00 AM 16.36 61.448 0.078 7.43 11.99 9.55
9/18/2021 12:45:00 AM 16.36 61.448 0.078 7.41 12.57 9.54
9/18/2021 1:00:00 AM 16.34 61.412 0.078 7.45 11.68 9.55
9/18/2021 1:15:00 AM 16.33 61.394 0.078 7.44 9.53 9.55
9/18/2021 1:30:00 AM 16.33 61.394 0.078 7.4 10.96 9.54
9/18/2021 1:45:00 AM 16.34 61.412 0.078 7.41 10.98 9.55
9/18/2021 2:00:00 AM 16.33 61.394 0.078 7.39 11.75 9.56
9/18/2021 2:15:00 AM 16.33 61.394 0.078 7.38 10.08 9.56
9/18/2021 2:30:00 AM 16.32 61.376 0.078 7.42 9.85 9.56
9/18/2021 2:45:00 AM 16.31 61.358 0.078 7.41 9.97 9.55
9/18/2021 3:00:00 AM 16.3 61.34 0.078 7.41 9.61 9.55
9/18/2021 3:15:00 AM 16.29 61.322 0.078 7.4 10.32 9.55
9/18/2021 3:30:00 AM 16.28 61.304 0.078 7.41 9.91 9.55
9/18/2021 3:45:00 AM 16.27 61.286 0.078 7.43 9.35 9.55
9/18/2021 4:00:00 AM 16.25 61.25 0.078 7.41 11.57 9.57
9/18/2021 4:15:00 AM 16.24 61.232 0.078 7.43 10.6 9.57
9/18/2021 4:30:00 AM 16.22 61.196 0.078 7.42 11.18 9.58
9/18/2021 4:45:00 AM 16.21 61.178 0.078 7.41 11.76 9.58
9/18/2021 5:00:00 AM 16.19 61.142 0.078 7.41 11.16 9.58
9/18/2021 5:15:00 AM 16.17 61.106 0.078 7.42 10.16 9.58
9/18/2021 5:30:00 AM 16.14 61.052 0.078 7.42 10.24 9.6
9/18/2021 5:45:00 AM 16.12 61.016 0.078 7.43 13.29 9.6
9/18/2021 6:00:00 AM 16.11 60.998 0.078 7.43 11.09 9.59
9/18/2021 6:15:00 AM 16.1 60.98 0.078 7.41 11.68 9.6
9/18/2021 6:30:00 AM 16.1 60.98 0.078 7.44 11.03 9.6
9/18/2021 6:45:00 AM 16.1 60.98 0.078 7.41 11.48 9.61
9/18/2021 7:00:00 AM 16.09 60.962 0.078 7.44 12.63 9.6
9/18/2021 7:15:00 AM 16.09 60.962 0.078 7.42 11.64 9.61
9/18/2021 7:30:00 AM 16.09 60.962 0.078 7.43 11.81 9.62
9/18/2021 7:45:00 AM 16.09 60.962 0.078 7.42 11.81 9.62
9/18/2021 8:00:00 AM 16.1 60.98 0.078 7.44 13.57 9.64
9/18/2021 8:15:00 AM 16.11 60.998 0.078 7.42 12.54 9.66
9/18/2021 8:30:00 AM 16.14 61.052 0.078 7.44 12.72 9.68
9/18/2021 8:45:00 AM 16.16 61.088 0.078 7.44 14 9.69
9/18/2021 9:00:00 AM 16.2 61.16 0.078 7.45 12.25 9.7
9/18/2021 9:15:00 AM 16.23 61.214 0.078 7.46 12.39 9.7
9/18/2021 9:30:00 AM 16.29 61.322 0.078 7.46 10.5 9.7
9/18/2021 9:45:00 AM 16.38 61.484 0.078 7.47 11.89 9.7
9/18/2021 10:00:00 AM 16.48 61.664 0.078 7.49 13.13 9.68
9/18/2021 10:15:00 AM 16.55 61.79 0.078 7.49 10.44 9.66
9/18/2021 10:30:00 AM 16.65 61.97 0.078 7.48 11.27 9.65
9/18/2021 10:45:00 AM 16.75 62.15 0.078 7.53 11.6 9.64
9/18/2021 11:00:00 AM 16.85 62.33 0.078 7.52 11.42 9.62
9/18/2021 11:15:00 AM 16.97 62.546 0.078 7.51 10.4 9.62
9/18/2021 11:30:00 AM 17.03 62.654 0.078 7.51 11.43 9.57
9/18/2021 11:45:00 AM 17.08 62.744 0.078 7.49 11.07 9.58
9/18/2021 12:00:00 PM 17.13 62.834 0.078 7.53 11.37 9.58
9/18/2021 12:15:00 PM 17.18 62.924 0.078 7.52 9.39 9.58
9/18/2021 12:30:00 PM 17.22 62.996 0.077 7.49 9.52 9.55
9/18/2021 12:45:00 PM 17.26 63.068 0.078 7.53 11.08 9.54
9/18/2021 1:00:00 PM 17.35 63.23 0.077 7.51 11.76 9.54
9/18/2021 1:15:00 PM 17.37 63.266 0.078 7.51 10.19 9.52
9/18/2021 1:30:00 PM 17.43 63.374 0.077 7.53 10.61 9.53
9/18/2021 1:45:00 PM 17.45 63.41 0.077 7.53 10.98 9.51
9/18/2021 2:00:00 PM 17.48 63.464 0.077 7.54 10.53 9.5
9/18/2021 2:15:00 PM 17.55 63.59 0.077 7.52 10.66 9.51
9/18/2021 2:30:00 PM 17.62 63.716 0.077 7.53 10.53 9.5
9/18/2021 2:45:00 PM 17.62 63.716 0.077 7.52 9.45 9.4
9/18/2021 3:00:00 PM 17.62 63.716 0.077 7.53 12.04 9.42
9/18/2021 3:15:00 PM 17.59 63.662 0.077 7.54 13.14 9.44
9/18/2021 3:30:00 PM 17.58 63.644 0.076 7.51 13.74 9.42
9/18/2021 3:45:00 PM 17.56 63.608 0.077 7.49 15.54 9.44
9/18/2021 4:00:00 PM 17.53 63.554 0.077 7.51 13.37 9.43
9/18/2021 4:15:00 PM 17.53 63.554 0.077 7.49 13.12 9.43
9/18/2021 4:30:00 PM 17.54 63.572 0.077 7.48 10.44 9.43
9/18/2021 4:45:00 PM 17.55 63.59 0.077 7.51 11.62 9.41
9/18/2021 5:00:00 PM 17.53 63.554 0.077 7.5 11.22 9.38
9/18/2021 5:15:00 PM 17.5 63.5 0.077 7.49 11.38 9.36
9/18/2021 5:30:00 PM 17.47 63.446 0.078 7.49 11.06 9.35
9/18/2021 5:45:00 PM 17.43 63.374 0.078 7.45 10.26 9.35
9/18/2021 6:00:00 PM 17.41 63.338 0.078 7.45 9.77 9.35
9/18/2021 6:15:00 PM 17.39 63.302 0.078 7.46 9.88 9.35
9/18/2021 6:30:00 PM 17.35 63.23 0.078 7.46 10.23 9.34
9/18/2021 6:45:00 PM 17.33 63.194 0.078 7.45 11.67 9.34
9/18/2021 7:00:00 PM 17.3 63.14 0.078 7.46 10.95 9.34
9/18/2021 7:15:00 PM 17.26 63.068 0.078 7.44 10.41 9.34
9/18/2021 7:30:00 PM 17.24 63.032 0.078 7.45 11.73 9.34
9/18/2021 7:45:00 PM 17.2 62.96 0.078 7.47 10.96 9.34
9/18/2021 8:00:00 PM 17.17 62.906 0.078 7.46 10.82 9.35
9/18/2021 8:15:00 PM 17.13 62.834 0.078 7.47 11.66 9.36
9/18/2021 8:30:00 PM 17.1 62.78 0.078 7.46 10.53 9.35
9/18/2021 8:45:00 PM 17.06 62.708 0.078 7.46 12.11 9.38
9/18/2021 9:00:00 PM 17.03 62.654 0.078 7.47 10.76 9.39
9/18/2021 9:15:00 PM 17 62.6 0.078 7.48 11.98 9.4
9/18/2021 9:30:00 PM 16.98 62.564 0.078 7.48 12.05 9.4
9/18/2021 9:45:00 PM 16.96 62.528 0.078 7.45 10.73 9.42
9/18/2021 10:00:00 PM 16.95 62.51 0.078 7.46 11.05 9.42
9/18/2021 10:15:00 PM 16.93 62.474 0.078 7.45 10.21 9.43
9/18/2021 10:30:00 PM 16.92 62.456 0.078 7.46 10.89 9.42
9/18/2021 10:45:00 PM 16.89 62.402 0.078 7.47 13.12 9.44
9/18/2021 11:00:00 PM 16.87 62.366 0.078 7.45 12.96 9.44
9/18/2021 11:15:00 PM 16.84 62.312 0.078 7.46 12.67 9.45
9/18/2021 11:30:00 PM 16.82 62.276 0.078 7.45 11.7 9.46
9/18/2021 11:45:00 PM 16.79 62.222 0.078 7.46 12.9 9.47
9/19/2021 12:00:00 AM 16.76 62.168 0.078 7.44 12.24 9.47
9/19/2021 12:15:00 AM 16.72 62.096 0.078 7.44 12.72 9.47
9/19/2021 12:30:00 AM 16.68 62.024 0.078 7.46 12.25 9.48
9/19/2021 12:45:00 AM 16.62 61.916 0.078 7.45 11.55 9.49
9/19/2021 1:00:00 AM 16.57 61.826 0.078 7.45 12.62 9.5
9/19/2021 1:15:00 AM 16.51 61.718 0.078 7.44 12.8 9.51
9/19/2021 1:30:00 AM 16.45 61.61 0.078 7.47 12.17 9.52
9/19/2021 1:45:00 AM 16.39 61.502 0.078 7.46 12.22 9.54
9/19/2021 2:00:00 AM 16.33 61.394 0.078 7.45 12.49 9.56
9/19/2021 2:15:00 AM 16.29 61.322 0.078 7.44 12.09 9.58
9/19/2021 2:30:00 AM 16.26 61.268 0.078 7.45 11.78 9.57
9/19/2021 2:45:00 AM 16.23 61.214 0.078 7.45 12.99 9.58
9/19/2021 3:00:00 AM 16.21 61.178 0.078 7.45 14.13 9.59
9/19/2021 3:15:00 AM 16.18 61.124 0.078 7.46 13.16 9.6
9/19/2021 3:30:00 AM 16.15 61.07 0.078 7.46 13.46 9.6
9/19/2021 3:45:00 AM 16.12 61.016 0.078 7.48 12.47 9.6
9/19/2021 4:00:00 AM 16.09 60.962 0.078 7.48 12.78 9.61
9/19/2021 4:15:00 AM 16.05 60.89 0.078 7.47 12.76 9.61
9/19/2021 4:30:00 AM 16.01 60.818 0.078 7.47 12.98 9.62
9/19/2021 4:45:00 AM 15.96 60.728 0.078 7.49 13.65 9.63
9/19/2021 5:00:00 AM 15.92 60.656 0.078 7.47 13.41 9.64
9/19/2021 5:15:00 AM 15.87 60.566 0.078 7.49 13.16 9.65
9/19/2021 5:30:00 AM 15.83 60.494 0.078 7.46 13.01 9.66
9/19/2021 5:45:00 AM 15.78 60.404 0.078 7.48 12.35 9.67
9/19/2021 6:00:00 AM 15.74 60.332 0.078 7.48 11.82 9.69
9/19/2021 6:15:00 AM 15.71 60.278 0.078 7.49 12.7 9.7
9/19/2021 6:30:00 AM 15.68 60.224 0.078 7.47 12.91 9.71
9/19/2021 6:45:00 AM 15.64 60.152 0.078 7.48 12.56 9.72
9/19/2021 7:00:00 AM 15.62 60.116 0.078 7.47 12.68 9.73
9/19/2021 7:15:00 AM 15.58 60.044 0.078 7.47 13.45 9.74
9/19/2021 7:30:00 AM 15.55 59.99 0.078 7.49 14.05 9.76
9/19/2021 7:45:00 AM 15.53 59.954 0.077 7.47 11.65 9.77
9/19/2021 8:00:00 AM 15.5 59.9 0.077 7.49 13.32 9.78
9/19/2021 8:15:00 AM 15.47 59.846 0.078 7.49 11.56 9.79
9/19/2021 8:30:00 AM 15.45 59.81 0.078 7.5 12.1 9.79
9/19/2021 8:45:00 AM 15.43 59.774 0.077 7.49 11.36 9.81
9/19/2021 9:00:00 AM 15.42 59.756 0.077 7.52 11.66 9.82
9/19/2021 9:15:00 AM 15.41 59.738 0.077 7.51 11.66 9.84
9/19/2021 9:30:00 AM 15.43 59.774 0.077 7.54 11.38 9.89
9/19/2021 9:45:00 AM 15.46 59.828 0.077 7.55 11.15 9.93
9/19/2021 10:00:00 AM 15.51 59.918 0.077 7.54 10.96 9.93
9/19/2021 10:15:00 AM 15.56 60.008 0.077 7.55 10.61 9.94
9/19/2021 10:30:00 AM 15.69 60.242 0.077 7.57 10.7 9.95
9/19/2021 10:45:00 AM 15.79 60.422 0.077 7.59 11.36 9.92
9/19/2021 11:00:00 AM 15.85 60.53 0.077 7.58 10.62 9.85
9/19/2021 11:15:00 AM 15.9 60.62 0.077 7.56 10.12 9.84
9/19/2021 11:30:00 AM 15.94 60.692 0.077 7.55 9.91 9.83
9/19/2021 11:45:00 AM 15.99 60.782 0.077 7.58 10.12 9.82
9/19/2021 12:00:00 PM 16.03 60.854 0.077 7.57 9.89 9.81
9/19/2021 12:15:00 PM 16.06 60.908 0.077 7.56 10.59 9.8
9/19/2021 12:30:00 PM 16.09 60.962 0.077 7.58 9.95 9.79
9/19/2021 12:45:00 PM 16.14 61.052 0.077 7.58 9.79 9.77
9/19/2021 1:00:00 PM 16.17 61.106 0.077 7.58 10.85 9.76
9/19/2021 1:15:00 PM 16.17 61.106 0.077 7.58 10.21 9.76
9/19/2021 1:30:00 PM 16.18 61.124 0.077 7.57 9.85 9.74
9/19/2021 1:45:00 PM 16.18 61.124 0.077 7.57 10.15 9.74
9/19/2021 2:00:00 PM 16.19 61.142 0.077 7.54 10.78 9.72
9/19/2021 2:15:00 PM 16.18 61.124 0.077 7.55 9.69 9.71
9/19/2021 2:30:00 PM 16.17 61.106 0.077 7.56 10.84 9.71
9/19/2021 2:45:00 PM 16.17 61.106 0.077 7.53 10.3 9.69
9/19/2021 3:00:00 PM 16.17 61.106 0.077 7.52 10.89 9.68
9/19/2021 3:15:00 PM 16.17 61.106 0.077 7.54 9.93 9.68
9/19/2021 3:30:00 PM 16.17 61.106 0.077 7.52 10.48 9.67
9/19/2021 3:45:00 PM 16.17 61.106 0.077 7.52 9.57 9.67
9/19/2021 4:00:00 PM 16.16 61.088 0.077 7.52 10.41 9.67
9/19/2021 4:15:00 PM 16.15 61.07 0.077 7.51 10.18 9.67
9/19/2021 4:30:00 PM 16.14 61.052 0.077 7.52 10.11 9.65
9/19/2021 4:45:00 PM 16.11 60.998 0.077 7.5 10.27 9.65
9/19/2021 5:00:00 PM 16.09 60.962 0.077 7.52 9.94 9.66
9/19/2021 5:15:00 PM 16.07 60.926 0.077 7.52 10.4 9.65
9/19/2021 5:30:00 PM 16.05 60.89 0.077 7.49 10.6 9.65
9/19/2021 5:45:00 PM 16.02 60.836 0.077 7.49 9.94 9.66
9/19/2021 6:00:00 PM 15.99 60.782 0.077 7.49 10.21 9.65
9/19/2021 6:15:00 PM 15.95 60.71 0.077 7.49 9.33 9.66
9/19/2021 6:30:00 PM 15.92 60.656 0.077 7.49 10.54 9.66
9/19/2021 6:45:00 PM 15.87 60.566 0.077 7.49 10.13 9.67
9/19/2021 7:00:00 PM 15.82 60.476 0.077 7.52 10.36 9.68
9/19/2021 7:15:00 PM 15.78 60.404 0.077 7.47 11.05 9.68
9/19/2021 7:30:00 PM 15.73 60.314 0.077 7.48 10.72 9.69
9/19/2021 7:45:00 PM 15.67 60.206 0.077 7.48 11.06 9.7
9/19/2021 8:00:00 PM 15.62 60.116 0.077 7.48 11.39 9.71
9/19/2021 8:15:00 PM 15.56 60.008 0.077 7.5 11.51 9.73
9/19/2021 8:30:00 PM 15.5 59.9 0.077 7.48 11.01 9.74
9/19/2021 8:45:00 PM 15.44 59.792 0.077 7.49 10.32 9.75
9/19/2021 9:00:00 PM 15.38 59.684 0.077 7.5 10.46 9.76
9/19/2021 9:15:00 PM 15.32 59.576 0.077 7.47 11.07 9.77
9/19/2021 9:30:00 PM 15.25 59.45 0.077 7.49 10.77 9.79
9/19/2021 9:45:00 PM 15.18 59.324 0.077 7.51 11.39 9.8
9/19/2021 10:00:00 PM 15.11 59.198 0.077 7.49 10.11 9.83
9/19/2021 10:15:00 PM 15.04 59.072 0.077 7.5 10.53 9.85
9/19/2021 10:30:00 PM 14.97 58.946 0.077 7.48 10.04 9.86
9/19/2021 10:45:00 PM 14.89 58.802 0.078 7.51 9.68 9.88
9/19/2021 11:00:00 PM 14.83 58.694 0.077 7.49 11.07 9.89
9/19/2021 11:15:00 PM 14.76 58.568 0.077 7.51 10.29 9.91
9/19/2021 11:30:00 PM 14.69 58.442 0.077 7.49 9.39 9.92
9/19/2021 11:45:00 PM 14.62 58.316 0.077 7.49 9.57 9.94
9/20/2021 12:00:00 AM 14.55 58.19 0.077 7.52 10.47 9.96
9/20/2021 12:15:00 AM 14.48 58.064 0.077 7.53 9.16 9.97
9/20/2021 12:30:00 AM 14.42 57.956 0.077 7.53 9.64 9.99
9/20/2021 12:45:00 AM 14.35 57.83 0.077 7.53 9.23 10.01
9/20/2021 1:00:00 AM 14.29 57.722 0.077 7.52 9.06 10.03
9/20/2021 1:15:00 AM 14.22 57.596 0.077 7.49 10.17 10.04
9/20/2021 1:30:00 AM 14.17 57.506 0.077 7.48 9.4 10.05
9/20/2021 1:45:00 AM 14.13 57.434 0.077 7.49 10.05 10.06
9/20/2021 2:00:00 AM 14.09 57.362 0.077 7.48 8.77 10.07
9/20/2021 2:15:00 AM 14.06 57.308 0.077 7.48 10.22 10.08
9/20/2021 2:30:00 AM 14.03 57.254 0.077 7.49 9.93 10.09
9/20/2021 2:45:00 AM 14.01 57.218 0.077 7.47 8.56 10.09
9/20/2021 3:00:00 AM 13.98 57.164 0.077 7.47 9.85 10.1
9/20/2021 3:15:00 AM 13.94 57.092 0.077 7.47 10.3 10.11
9/20/2021 3:30:00 AM 13.91 57.038 0.077 7.49 9.21 10.12
9/20/2021 3:45:00 AM 13.87 56.966 0.077 7.48 10.01 10.13
9/20/2021 4:00:00 AM 13.82 56.876 0.077 7.47 9.15 10.14
9/20/2021 4:15:00 AM 13.78 56.804 0.077 7.46 9.48 10.15
9/20/2021 4:30:00 AM 13.74 56.732 0.077 7.45 9.21 10.17
9/20/2021 4:45:00 AM 13.69 56.642 0.077 7.45 8.58 10.18
9/20/2021 5:00:00 AM 13.64 56.552 0.077 7.41 9.14 10.18
9/20/2021 5:15:00 AM 13.6 56.48 0.077 7.29 8.78 10.2
9/20/2021 5:30:00 AM 13.55 56.39 0.077 7.37 8.83 10.2
9/20/2021 5:45:00 AM 13.51 56.318 0.078 7.42 8.01 10.21
9/20/2021 6:00:00 AM 13.47 56.246 0.077 7.4 8.32 10.22
9/20/2021 6:15:00 AM 13.43 56.174 0.077 7.4 8.98 10.23
9/20/2021 6:30:00 AM 13.38 56.084 0.077 7.4 8.79 10.24
9/20/2021 6:45:00 AM 13.34 56.012 0.077 7.4 8.58 10.25
9/20/2021 7:00:00 AM 13.3 55.94 0.077 7.43 9.23 10.27
9/20/2021 7:15:00 AM 13.27 55.886 0.077 7.42 9.03 10.28
9/20/2021 7:30:00 AM 13.24 55.832 0.078 7.42 8.84 10.31
9/20/2021 7:45:00 AM 13.21 55.778 0.077 7.41 9.09 10.33
9/20/2021 8:00:00 AM 13.19 55.742 0.078 7.44 9.71 10.35
9/20/2021 8:15:00 AM 13.18 55.724 0.077 7.48 9.8 10.39
9/20/2021 8:30:00 AM 13.18 55.724 0.077 7.48 9.77 10.41
9/20/2021 8:45:00 AM 13.19 55.742 0.077 7.51 9.63 10.42
9/20/2021 9:00:00 AM 13.21 55.778 0.077 7.51 9.84 10.43
9/20/2021 9:15:00 AM 13.24 55.832 0.077 7.52 9.8 10.41
9/20/2021 9:30:00 AM 13.32 55.976 0.077 7.54 9.77 10.4
9/20/2021 9:45:00 AM 13.42 56.156 0.077 7.53 8.35 10.39
9/20/2021 10:00:00 AM 13.53 56.354 0.077 7.53 10.21 10.38
9/20/2021 10:15:00 AM 13.64 56.552 0.077 7.56 10.4 10.36
9/20/2021 10:30:00 AM 13.76 56.768 0.077 7.54 10.62 10.35
9/20/2021 10:45:00 AM 13.88 56.984 0.077 7.57 10.04 10.32
9/20/2021 11:00:00 AM 14.01 57.218 0.077 7.55 9.55 10.28
9/20/2021 11:15:00 AM 14.12 57.416 0.077 7.58 9.67 10.26
9/20/2021 11:30:00 AM 14.23 57.614 0.077 7.57 9.68 10.24
9/20/2021 11:45:00 AM 14.33 57.794 0.077 7.57 9.46 10.23
9/20/2021 12:00:00 PM 14.42 57.956 0.077 7.6 9.58 10.22
9/20/2021 12:15:00 PM 14.51 58.118 0.077 7.59 9.33 10.19
9/20/2021 12:30:00 PM 14.61 58.298 0.077 7.61 9.68 10.16
9/20/2021 12:45:00 PM 14.69 58.442 0.077 7.6 9.5 10.14
9/20/2021 1:00:00 PM 14.77 58.586 0.076 7.59 9.73 10.1
9/20/2021 1:15:00 PM 14.86 58.748 0.077 7.59 9.62 10.07
9/20/2021 1:30:00 PM 14.93 58.874 0.077 7.6 9.13 10.06
9/20/2021 1:45:00 PM 15 59 0.077 7.6 9.63 10.04
9/20/2021 2:00:00 PM 15.06 59.108 0.077 7.6 9.31 10.02
9/20/2021 2:15:00 PM 15.11 59.198 0.077 7.58 9.03 10
9/20/2021 2:30:00 PM 15.16 59.288 0.076 7.57 10.07 9.97
9/20/2021 2:45:00 PM 15.22 59.396 0.076 7.57 9.45 9.98
9/20/2021 3:00:00 PM 15.3 59.54 0.076 7.59 8.95 10.01
9/20/2021 3:15:00 PM 15.34 59.612 0.076 7.6 9.43 9.99
9/20/2021 3:30:00 PM 15.37 59.666 0.076 7.58 8.93 9.97
9/20/2021 3:45:00 PM 15.42 59.756 0.076 7.59 8.68 9.96
9/20/2021 4:00:00 PM 15.46 59.828 0.076 7.59 8.85 9.94
9/20/2021 4:15:00 PM 15.5 59.9 0.076 7.6 9.03 9.92
9/20/2021 4:30:00 PM 15.53 59.954 0.076 7.58 8.82 9.93
9/20/2021 4:45:00 PM 15.53 59.954 0.077 7.57 9.69 9.9
9/20/2021 5:00:00 PM 15.53 59.954 0.076 7.56 8.23 9.88
9/20/2021 5:15:00 PM 15.53 59.954 0.076 7.56 9.27 9.88
9/20/2021 5:30:00 PM 15.54 59.972 0.076 7.55 8.75 9.85
9/20/2021 5:45:00 PM 15.52 59.936 0.077 7.55 8.92 9.84
9/20/2021 6:00:00 PM 15.53 59.954 0.077 7.52 8.4 9.84
9/20/2021 6:15:00 PM 15.52 59.936 0.077 7.51 9.28 9.82
9/20/2021 6:30:00 PM 15.52 59.936 0.077 7.49 9.65 9.8
9/20/2021 6:45:00 PM 15.51 59.918 0.077 7.48 8.93 9.79
9/20/2021 7:00:00 PM 15.5 59.9 0.077 7.5 8.59 9.78
9/20/2021 7:15:00 PM 15.48 59.864 0.077 7.49 8.71 9.77
9/20/2021 7:30:00 PM 15.46 59.828 0.077 7.48 9.09 9.76
9/20/2021 7:45:00 PM 15.44 59.792 0.077 7.48 9.63 9.76
9/20/2021 8:00:00 PM 15.41 59.738 0.077 7.48 8.73 9.77
9/20/2021 8:15:00 PM 15.38 59.684 0.077 7.49 9.35 9.77
9/20/2021 8:30:00 PM 15.35 59.63 0.077 7.5 9.42 9.78
9/20/2021 8:45:00 PM 15.32 59.576 0.077 7.5 9.33 9.78
9/20/2021 9:00:00 PM 15.29 59.522 0.077 7.51 8.72 9.79
9/20/2021 9:15:00 PM 15.26 59.468 0.078 7.5 8.16 9.8
9/20/2021 9:30:00 PM 15.24 59.432 0.077 7.49 9.62 9.8
9/20/2021 9:45:00 PM 15.21 59.378 0.077 7.49 9.12 9.81
9/20/2021 10:00:00 PM 15.19 59.342 0.077 7.49 8.65 9.82
9/20/2021 10:15:00 PM 15.17 59.306 0.077 7.51 9.81 9.82
9/20/2021 10:30:00 PM 15.15 59.27 0.077 7.52 9.09 9.82
9/20/2021 10:45:00 PM 15.12 59.216 0.077 7.51 9.17 9.83
9/20/2021 11:00:00 PM 15.1 59.18 0.078 7.51 10.51 9.83
9/20/2021 11:15:00 PM 15.08 59.144 0.077 7.51 8.5 9.84
9/20/2021 11:30:00 PM 15.06 59.108 0.078 7.54 9.01 9.85
9/20/2021 11:45:00 PM 15.04 59.072 0.078 7.52 9.6 9.85
9/21/2021 12:00:00 AM 15.03 59.054 0.078 7.52 8.89 9.85
9/21/2021 12:15:00 AM 15.01 59.018 0.078 7.51 9.47 9.86
9/21/2021 12:30:00 AM 14.99 58.982 0.077 7.52 9.08 9.86
9/21/2021 12:45:00 AM 14.98 58.964 0.077 7.54 8.34 9.87
9/21/2021 1:00:00 AM 14.96 58.928 0.078 7.5 9.03 9.87
9/21/2021 1:15:00 AM 14.95 58.91 0.077 7.51 9.66 9.88
9/21/2021 1:30:00 AM 14.94 58.892 0.077 7.51 9.39 9.88
9/21/2021 1:45:00 AM 14.93 58.874 0.078 7.51 8.36 9.88
9/21/2021 2:00:00 AM 14.93 58.874 0.078 7.52 9.14 9.88
9/21/2021 2:15:00 AM 14.92 58.856 0.077 7.51 9.46 9.88
9/21/2021 2:30:00 AM 14.92 58.856 0.078 7.5 9.47 9.89
9/21/2021 2:45:00 AM 14.92 58.856 0.077 7.53 8.76 9.89
9/21/2021 3:00:00 AM 14.92 58.856 0.077 7.54 8.65 9.89
9/21/2021 3:15:00 AM 14.92 58.856 0.077 7.52 8.74 9.89
9/21/2021 3:30:00 AM 14.93 58.874 0.077 7.52 7.82 9.89
9/21/2021 3:45:00 AM 14.92 58.856 0.078 7.52 8.93 9.89
9/21/2021 4:00:00 AM 14.91 58.838 0.077 7.52 8.47 9.89
9/21/2021 4:15:00 AM 14.89 58.802 0.077 7.52 7.63 9.9
9/21/2021 4:30:00 AM 14.88 58.784 0.077 7.51 9.13 9.9
9/21/2021 4:45:00 AM 14.87 58.766 0.077 7.53 8.91 9.89
9/21/2021 5:00:00 AM 14.86 58.748 0.071 7.53 34.54 9.89
9/21/2021 5:15:00 AM 14.85 58.73 0.077 7.51 8.95 9.87
9/21/2021 5:30:00 AM 14.85 58.73 0.077 7.52 8.98 9.87
9/21/2021 5:45:00 AM 14.84 58.712 0.077 7.53 8.9 9.87
9/21/2021 6:00:00 AM 14.84 58.712 0.077 7.52 8.63 9.88
9/21/2021 6:15:00 AM 14.84 58.712 0.077 7.52 9.16 9.9
9/21/2021 6:30:00 AM 14.84 58.712 0.077 7.52 9.35 9.91
9/21/2021 6:45:00 AM 14.84 58.712 0.077 7.54 9.3 9.9
9/21/2021 7:00:00 AM 14.83 58.694 0.077 7.52 8.6 9.91
9/21/2021 7:15:00 AM 14.83 58.694 0.077 7.52 8.63 9.91
9/21/2021 7:30:00 AM 14.83 58.694 0.077 7.53 9.2 9.92
9/21/2021 7:45:00 AM 14.83 58.694 0.077 7.54 8.37 9.93
9/21/2021 8:00:00 AM 14.84 58.712 0.077 7.53 8.8 9.94
9/21/2021 8:15:00 AM 14.85 58.73 0.077 7.56 8.53 9.97
9/21/2021 8:30:00 AM 14.88 58.784 0.077 7.55 8.94 9.99
9/21/2021 8:45:00 AM 14.91 58.838 0.077 7.54 8.74 10.02
9/21/2021 9:00:00 AM 14.94 58.892 0.077 7.58 9.07 10.02
9/21/2021 9:15:00 AM 14.98 58.964 0.077 7.57 8.76 10.04
9/21/2021 9:30:00 AM 15.06 59.108 0.077 7.61 9.11 10.06
9/21/2021 9:45:00 AM 15.1 59.18 0.077 7.6 8.35 10.04
9/21/2021 10:00:00 AM 15.13 59.234 0.077 7.57 7.81 10.02
9/21/2021 10:15:00 AM 15.16 59.288 0.077 7.58 7.69 10.02
9/21/2021 10:30:00 AM 15.26 59.468 0.077 7.6 7.52 10.03
9/21/2021 10:45:00 AM 15.33 59.594 0.077 7.6 8.21 9.99
9/21/2021 11:00:00 AM 15.37 59.666 0.077 7.59 8.02 9.99
9/21/2021 11:15:00 AM 15.45 59.81 0.077 7.61 7.98 10.01
9/21/2021 11:30:00 AM 15.56 60.008 0.077 7.61 7.83 10
9/21/2021 11:45:00 AM 15.58 60.044 0.077 7.64 8.59 9.96
9/21/2021 12:00:00 PM 15.57 60.026 0.077 7.59 8.21 9.92
9/21/2021 12:15:00 PM 15.58 60.044 0.077 7.6 7.47 9.94
9/21/2021 12:30:00 PM 15.56 60.008 0.077 7.6 6.96 9.92
9/21/2021 12:45:00 PM 15.6 60.08 0.077 7.63 7.65 9.95
9/21/2021 1:00:00 PM 15.63 60.134 0.077 7.6 7.81 9.95
9/21/2021 1:15:00 PM 15.66 60.188 0.077 7.63 7.7 9.95
9/21/2021 1:30:00 PM 15.73 60.314 0.077 7.64 6.88 9.95
9/21/2021 1:45:00 PM 15.8 60.44 0.076 7.62 8.27 9.94
9/21/2021 2:00:00 PM 15.84 60.512 0.077 7.62 8.96 9.91
9/21/2021 2:15:00 PM 15.85 60.53 0.077 7.62 8.25 9.86
9/21/2021 2:30:00 PM 15.87 60.566 0.077 7.62 7.92 9.88
9/21/2021 2:45:00 PM 15.92 60.656 0.077 7.63 8.65 9.89
9/21/2021 3:00:00 PM 15.94 60.692 0.077 7.61 7.99 9.87
9/21/2021 3:15:00 PM 15.93 60.674 0.077 7.61 7.85 9.81
9/21/2021 3:30:00 PM 15.91 60.638 0.077 7.6 8.05 9.8
9/21/2021 3:45:00 PM 15.88 60.584 0.077 7.61 8.1 9.79
9/21/2021 4:00:00 PM 15.87 60.566 0.077 7.59 8.28 9.79
9/21/2021 4:15:00 PM 15.85 60.53 0.077 7.59 8.82 9.76
9/21/2021 4:30:00 PM 15.84 60.512 0.077 7.56 9.5 9.77
9/21/2021 4:45:00 PM 15.83 60.494 0.077 7.58 8.98 9.77
9/21/2021 5:00:00 PM 15.82 60.476 0.077 7.55 7.69 9.76
9/21/2021 5:15:00 PM 15.82 60.476 0.077 7.54 7.35 9.76
9/21/2021 5:30:00 PM 15.81 60.458 0.077 7.54 8.46 9.75
9/21/2021 5:45:00 PM 15.79 60.422 0.077 7.52 8.56 9.73
9/21/2021 6:00:00 PM 15.78 60.404 0.077 7.53 7.83 9.72
9/21/2021 6:15:00 PM 15.76 60.368 0.077 7.54 8.49 9.71
9/21/2021 6:30:00 PM 15.74 60.332 0.077 7.5 7.86 9.71
9/21/2021 6:45:00 PM 15.72 60.296 0.077 7.49 8.99 9.7
9/21/2021 7:00:00 PM 15.7 60.26 0.077 7.49 8.12 9.7
9/21/2021 7:15:00 PM 15.68 60.224 0.077 7.49 8.53 9.69
9/21/2021 7:30:00 PM 15.66 60.188 0.078 7.48 8.07 9.69
9/21/2021 7:45:00 PM 15.64 60.152 0.078 7.48 9.58 9.69
9/21/2021 8:00:00 PM 15.62 60.116 0.078 7.5 9.38 9.7
9/21/2021 8:15:00 PM 15.61 60.098 0.078 7.48 8.92 9.7
9/21/2021 8:30:00 PM 15.6 60.08 0.078 7.47 10.32 9.7
9/21/2021 8:45:00 PM 15.59 60.062 0.078 7.47 8.22 9.7
9/21/2021 9:00:00 PM 15.59 60.062 0.078 7.47 8.74 9.7
9/21/2021 9:15:00 PM 15.58 60.044 0.078 7.46 10.48 9.71
9/21/2021 9:30:00 PM 15.58 60.044 0.078 7.47 8.47 9.71
9/21/2021 9:45:00 PM 15.58 60.044 0.078 7.45 8.14 9.7
9/21/2021 10:00:00 PM 15.57 60.026 0.078 7.45 8.69 9.7
9/21/2021 10:15:00 PM 15.57 60.026 0.078 7.47 8.83 9.7
9/21/2021 10:30:00 PM 15.57 60.026 0.078 7.46 13.38 9.7
9/21/2021 10:45:00 PM 15.56 60.008 0.078 7.43 9.51 9.69
9/21/2021 11:00:00 PM 15.57 60.026 0.078 7.47 9.74 9.69
9/21/2021 11:15:00 PM 15.57 60.026 0.078 7.48 8.68 9.7
9/21/2021 11:30:00 PM 15.57 60.026 0.078 7.45 9.76 9.69
9/21/2021 11:45:00 PM 15.57 60.026 0.078 7.45 9.29 9.69
9/22/2021 12:00:00 AM 15.58 60.044 0.078 7.46 8.35 9.69
9/22/2021 12:15:00 AM 15.58 60.044 0.078 7.44 8.83 9.69
9/22/2021 12:30:00 AM 15.58 60.044 0.078 7.45 11.25 9.69
9/22/2021 12:45:00 AM 15.58 60.044 0.078 7.46 8.66 9.68
9/22/2021 1:00:00 AM 15.58 60.044 0.078 7.48 9.56 9.69
9/22/2021 1:15:00 AM 15.58 60.044 0.078 7.48 8.93 9.69
9/22/2021 1:30:00 AM 15.59 60.062 0.078 7.49 8.14 9.68
9/22/2021 1:45:00 AM 15.59 60.062 0.078 7.44 9.43 9.68
9/22/2021 2:00:00 AM 15.59 60.062 0.078 7.46 8.58 9.68
9/22/2021 2:15:00 AM 15.6 60.08 0.078 7.48 8.93 9.68
9/22/2021 2:30:00 AM 15.59 60.062 0.078 7.48 8.99 9.68
9/22/2021 2:45:00 AM 15.6 60.08 0.078 7.46 8.8 9.68
9/22/2021 3:00:00 AM 15.6 60.08 0.079 7.46 9.25 9.68
9/22/2021 3:15:00 AM 15.6 60.08 0.078 7.45 8.38 9.67
9/22/2021 3:30:00 AM 15.61 60.098 0.078 7.46 9.51 9.67
9/22/2021 3:45:00 AM 15.6 60.08 0.078 7.46 8.37 9.67
9/22/2021 4:00:00 AM 15.6 60.08 0.078 7.48 8.07 9.67
9/22/2021 4:15:00 AM 15.6 60.08 0.078 7.45 8.44 9.67
9/22/2021 4:30:00 AM 15.6 60.08 0.078 7.47 8.77 9.66
9/22/2021 4:45:00 AM 15.59 60.062 0.078 7.48 8.61 9.67
9/22/2021 5:00:00 AM 15.59 60.062 0.078 7.48 10.55 9.67
9/22/2021 5:15:00 AM 15.59 60.062 0.078 7.49 8.92 9.67
9/22/2021 5:30:00 AM 15.59 60.062 0.078 7.47 7.62 9.67
9/22/2021 5:45:00 AM 15.59 60.062 0.078 7.46 7.7 9.67
9/22/2021 6:00:00 AM 15.6 60.08 0.078 7.49 10.2 9.67
9/22/2021 6:15:00 AM 15.6 60.08 0.078 7.47 7.82 9.66
9/22/2021 6:30:00 AM 15.61 60.098 0.078 7.48 7.62 9.66
9/22/2021 6:45:00 AM 15.6 60.08 0.078 7.46 10.26 9.66
9/22/2021 7:00:00 AM 15.61 60.098 0.078 7.46 13.39 9.66
9/22/2021 7:15:00 AM 15.62 60.116 0.078 7.49 12.06 9.65
9/22/2021 7:30:00 AM 15.62 60.116 0.078 7.48 12.5 9.64
9/22/2021 7:45:00 AM 15.63 60.134 0.078 7.48 12.04 9.66
9/22/2021 8:00:00 AM 15.64 60.152 0.078 7.45 10.25 9.67
9/22/2021 8:15:00 AM 15.65 60.17 0.078 7.49 10.31 9.68
9/22/2021 8:30:00 AM 15.66 60.188 0.078 7.49 9.92 9.68
9/22/2021 8:45:00 AM 15.67 60.206 0.078 7.48 9.85 9.67
9/22/2021 9:00:00 AM 15.69 60.242 0.078 7.5 10.13 9.67
9/22/2021 9:15:00 AM 15.7 60.26 0.078 7.5 8.73 9.67
9/22/2021 9:30:00 AM 15.71 60.278 0.078 7.5 9.67 9.68
9/22/2021 9:45:00 AM 15.74 60.332 0.078 7.47 8.05 9.69
9/22/2021 10:00:00 AM 15.76 60.368 0.078 7.52 9.23 9.68
9/22/2021 10:15:00 AM 15.77 60.386 0.078 7.49 9.99 9.68
9/22/2021 10:30:00 AM 15.81 60.458 0.078 7.51 9.18 9.7
9/22/2021 10:45:00 AM 15.84 60.512 0.078 7.52 8.52 9.7
9/22/2021 11:00:00 AM 15.87 60.566 0.078 7.52 9.28 9.68
9/22/2021 11:15:00 AM 15.9 60.62 0.078 7.52 8.41 9.68
9/22/2021 11:30:00 AM 15.93 60.674 0.078 7.53 9 9.68
9/22/2021 11:45:00 AM 15.98 60.764 0.078 7.57 10.71 9.7
9/22/2021 12:00:00 PM 16.03 60.854 0.078 7.55 8.44 9.66
9/22/2021 12:15:00 PM 16.06 60.908 0.078 7.55 8.25 9.68
9/22/2021 12:30:00 PM 16.09 60.962 0.078 7.54 8.92 9.66
9/22/2021 12:45:00 PM 16.12 61.016 0.078 7.58 8.48 9.64
9/22/2021 1:00:00 PM 16.22 61.196 0.078 7.6 8.24 9.69
9/22/2021 1:15:00 PM 16.29 61.322 0.078 7.59 8.3 9.7
9/22/2021 1:30:00 PM 16.34 61.412 0.078 7.59 8.48 9.65
9/22/2021 1:45:00 PM 16.36 61.448 0.078 7.57 9.06 9.61
9/22/2021 2:00:00 PM 16.36 61.448 0.078 7.57 9.42 9.59
9/22/2021 2:15:00 PM 16.37 61.466 0.078 7.56 10.11 9.59
9/22/2021 2:30:00 PM 16.39 61.502 0.078 7.57 10.12 9.59
9/22/2021 2:45:00 PM 16.4 61.52 0.078 7.58 10.63 9.56
9/22/2021 3:00:00 PM 16.47 61.646 0.078 7.6 10.02 9.59
9/22/2021 3:15:00 PM 16.48 61.664 0.078 7.57 10.95 9.57
9/22/2021 3:30:00 PM 16.49 61.682 0.078 7.56 10.83 9.53
9/22/2021 3:45:00 PM 16.48 61.664 0.078 7.53 9.98 9.49
9/22/2021 4:00:00 PM 16.5 61.7 0.078 7.55 9.13 9.51
9/22/2021 4:15:00 PM 16.5 61.7 0.078 7.56 10.13 9.51
9/22/2021 4:30:00 PM 16.51 61.718 0.078 7.55 10.03 9.48
9/22/2021 4:45:00 PM 16.54 61.772 0.078 7.56 10.48 9.48
9/22/2021 5:00:00 PM 16.54 61.772 0.078 7.58 9.31 9.49
9/22/2021 5:15:00 PM 16.55 61.79 0.078 7.58 9.31 9.48
9/22/2021 5:30:00 PM 16.54 61.772 0.078 7.55 9.54 9.44
9/22/2021 5:45:00 PM 16.53 61.754 0.078 7.55 11.67 9.45
9/22/2021 6:00:00 PM 16.53 61.754 0.077 7.52 12.12 9.42
9/22/2021 6:15:00 PM 16.52 61.736 0.078 7.52 12.89 9.4
9/22/2021 6:30:00 PM 16.51 61.718 0.078 7.52 14.23 9.39
9/22/2021 6:45:00 PM 16.51 61.718 0.078 7.53 19.78 9.39
9/22/2021 7:00:00 PM 16.49 61.682 0.079 7.5 18.34 9.39
9/22/2021 7:15:00 PM 16.49 61.682 0.079 7.49 18.01 9.39
9/22/2021 7:30:00 PM 16.48 61.664 0.079 7.49 15.75 9.39
9/22/2021 7:45:00 PM 16.48 61.664 0.079 7.49 14.73 9.39
9/22/2021 8:00:00 PM 16.5 61.7 0.079 7.51 11.88 9.39
9/22/2021 8:15:00 PM 16.51 61.718 0.079 7.52 12.4 9.38
9/22/2021 8:30:00 PM 16.5 61.7 0.079 7.53 12.76 9.38
9/22/2021 8:45:00 PM 16.51 61.718 0.079 7.5 11.72 9.39
9/22/2021 9:00:00 PM 16.52 61.736 0.079 7.53 11.85 9.38
9/22/2021 9:15:00 PM 16.54 61.772 0.079 7.53 13.18 9.37
9/22/2021 9:30:00 PM 16.55 61.79 0.079 7.53 11.01 9.37
9/22/2021 9:45:00 PM 16.57 61.826 0.079 7.52 12.99 9.37
9/22/2021 10:00:00 PM 16.61 61.898 0.078 7.54 13.67 9.37
9/22/2021 10:15:00 PM 16.62 61.916 0.078 7.52 13.87 9.36
9/22/2021 10:30:00 PM 16.61 61.898 0.078 7.51 14.27 9.36
9/22/2021 10:45:00 PM 16.6 61.88 0.078 7.5 13.61 9.35
9/22/2021 11:00:00 PM 16.62 61.916 0.078 7.51 11.51 9.37
9/22/2021 11:15:00 PM 16.64 61.952 0.108 7.5 10.97 9.37
9/22/2021 11:30:00 PM 16.66 61.988 0.117 7.51 12 9.36
9/22/2021 11:45:00 PM 16.67 62.006 0.093 7.51 11.51 9.36
9/23/2021 12:00:00 AM 16.69 62.042 0.082 7.52 12.95 9.36
9/23/2021 12:15:00 AM 16.7 62.06 0.081 7.52 11.27 9.35
9/23/2021 12:30:00 AM 16.7 62.06 0.197 7.47 10.58 9.34
9/23/2021 12:45:00 AM 16.69 62.042 0.139 7.51 12.03 9.34
9/23/2021 1:00:00 AM 16.71 62.078 0.101 7.51 11.57 9.34
9/23/2021 1:15:00 AM 16.74 62.132 0.093 7.51 13.26 9.33
9/23/2021 1:30:00 AM 16.74 62.132 0.084 7.51 12.05 9.33
9/23/2021 1:45:00 AM 16.74 62.132 0.082 7.5 12.27 9.33
9/23/2021 2:00:00 AM 16.82 62.276 0.079 7.52 14.77 9.33
9/23/2021 2:15:00 AM 16.87 62.366 0.075 7.49 37.14 9.32
9/23/2021 2:30:00 AM 16.92 62.456 0.071 7.45 141.37 9.32
9/23/2021 2:45:00 AM 16.96 62.528 0.078 7.49 285.63 9.34
9/23/2021 3:00:00 AM 17.03 62.654 0.076 7.48 197.45 9.32
9/23/2021 3:15:00 AM 17.02 62.636 0.076 7.51 129.86 9.33
9/23/2021 3:30:00 AM 17.01 62.618 0.075 7.48 125.71 9.35
9/23/2021 3:45:00 AM 17.03 62.654 0.072 7.48 297.4 9.38
9/23/2021 4:00:00 AM 16.96 62.528 0.068 7.44 318.44 9.43
9/23/2021 4:15:00 AM 16.93 62.474 0.065 7.45 282.18 9.45
9/23/2021 4:30:00 AM 16.92 62.456 0.062 7.43 358.88 9.46
9/23/2021 4:45:00 AM 16.95 62.51 0.059 7.4 432.98 9.46
9/23/2021 5:00:00 AM 16.93 62.474 0.06 7.42 309.69 9.49
9/23/2021 5:15:00 AM 16.85 62.33 0.06 7.34 460.44 9.51
9/23/2021 5:30:00 AM 16.77 62.186 0.059 7.39 305.84 9.53
9/23/2021 5:45:00 AM 16.69 62.042 0.057 7.37 265.53 9.55
9/23/2021 6:00:00 AM 16.6 61.88 0.055 7.29 275.41 9.56
9/23/2021 6:15:00 AM 16.51 61.718 0.053 7.25 284.74 9.59
9/23/2021 6:30:00 AM 16.41 61.538 0.052 7.24 236.19 9.61
9/23/2021 6:45:00 AM 16.3 61.34 0.051 7.21 254.29 9.65
9/23/2021 7:00:00 AM 16.22 61.196 0.051 7.26 206.32 9.66
9/23/2021 7:15:00 AM 16.15 61.07 0.05 7.21 212.84 9.69
9/23/2021 7:30:00 AM 16.04 60.872 0.049 7.22 211.59 9.71
9/23/2021 7:45:00 AM 15.94 60.692 0.048 7.2 219.56 9.73
9/23/2021 8:00:00 AM 15.87 60.566 0.047 7.16 218.19 9.74
9/23/2021 8:15:00 AM 15.88 60.584 0.045 7.17 366.02 9.74
9/23/2021 8:30:00 AM 15.82 60.476 0.043 7.04 377.05 9.76
9/23/2021 8:45:00 AM 15.76 60.368 0.041 7.08 452.97 9.78
9/23/2021 9:00:00 AM 15.73 60.314 0.04 7.01 452.93 9.79
9/23/2021 9:15:00 AM 15.71 60.278 0.038 7.02 656.8 9.8
9/23/2021 9:30:00 AM 15.66 60.188 0.036 6.66 99.27 9.76
9/23/2021 9:45:00 AM 15.61 60.098 0.038 6.81 561.47 9.83
9/23/2021 10:00:00 AM 15.59 60.062 0.035 6.6 65.64 9.82
9/23/2021 10:15:00 AM 15.55 59.99 0.034 6.45 91.62 9.56
9/23/2021 10:30:00 AM 15.53 59.954 0.034 6.73 382.48 9.85
9/23/2021 10:45:00 AM 15.51 59.918 0.034 6.78 369.57 9.86
9/23/2021 11:00:00 AM 15.47 59.846 0.034 6.81 357.66 9.86
9/23/2021 11:15:00 AM 15.44 59.792 0.034 6.85 419.55 9.87
9/23/2021 11:30:00 AM 15.41 59.738 0.034 6.87 344.59 9.87
9/23/2021 11:45:00 AM 15.38 59.684 0.034 6.88 338.67 9.88
9/23/2021 12:00:00 PM 15.35 59.63 0.033 6.92 282.28 9.88
9/23/2021 12:15:00 PM 15.33 59.594 0.033 6.85 258.1 9.88
9/23/2021 12:30:00 PM 15.31 59.558 0.033 6.93 270.24 9.88
9/23/2021 12:45:00 PM 15.29 59.522 0.033 6.91 240.23 9.89
9/23/2021 1:00:00 PM 15.27 59.486 0.034 6.85 247.5 9.89
9/23/2021 1:15:00 PM 15.26 59.468 0.033 6.92 183.26 9.89
9/23/2021 1:30:00 PM 15.27 59.486 0.034 6.97 176.07 9.88
9/23/2021 1:45:00 PM 15.27 59.486 0.034 6.9 184.04 9.88
9/23/2021 2:00:00 PM 15.23 59.414 0.034 6.93 164.2 9.89
9/23/2021 2:15:00 PM 15.22 59.396 0.034 6.97 175.2 9.9
9/23/2021 2:30:00 PM 15.2 59.36 0.034 6.89 156.01 9.89
9/23/2021 2:45:00 PM 15.2 59.36 0.034 6.95 138.33 9.9
9/23/2021 3:00:00 PM 15.17 59.306 0.034 6.94 137.74 9.9
9/23/2021 3:15:00 PM 15.14 59.252 0.035 6.99 131.58 9.91
9/23/2021 3:30:00 PM 15.12 59.216 0.035 7.02 119.68 9.92
9/23/2021 3:45:00 PM 15.09 59.162 0.035 7 115.22 9.93
9/23/2021 4:00:00 PM 15.04 59.072 0.035 6.98 113.64 9.94
9/23/2021 4:15:00 PM 15 59 0.035 7.01 117.93 9.95
9/23/2021 4:30:00 PM 14.95 58.91 0.035 7.02 114.03 9.96
9/23/2021 4:45:00 PM 14.9 58.82 0.035 7.01 122.02 9.97
9/23/2021 5:00:00 PM 14.85 58.73 0.035 7.03 100.56 9.98
9/23/2021 5:15:00 PM 14.78 58.604 0.035 7.06 120.63 9.99
9/23/2021 5:30:00 PM 14.73 58.514 0.035 7.02 87.4 10.01
9/23/2021 5:45:00 PM 14.68 58.424 0.035 7.03 107.36 10.01
9/23/2021 6:00:00 PM 14.61 58.298 0.035 7.03 97.29 10.03
9/23/2021 6:15:00 PM 14.56 58.208 0.036 7.02 120.54 10.04
9/23/2021 6:30:00 PM 14.5 58.1 0.036 7.06 109.84 10.06
9/23/2021 6:45:00 PM 14.44 57.992 0.036 7.06 104.15 10.08
9/23/2021 7:00:00 PM 14.37 57.866 0.036 7.09 92.67 10.1
9/23/2021 7:15:00 PM 14.31 57.758 0.036 7.09 89.2 10.11
9/23/2021 7:30:00 PM 14.26 57.668 0.036 7.14 82.06 10.13
9/23/2021 7:45:00 PM 14.2 57.56 0.036 7.13 85.82 10.14
9/23/2021 8:00:00 PM 14.15 57.47 0.036 7.11 86.13 10.15
9/23/2021 8:15:00 PM 14.1 57.38 0.036 7.1 77.32 10.16
9/23/2021 8:30:00 PM 14.05 57.29 0.036 7.11 79.97 10.17
9/23/2021 8:45:00 PM 14 57.2 0.036 7.05 103.92 10.19
9/23/2021 9:00:00 PM 13.95 57.11 0.036 7.08 116.25 10.2
9/23/2021 9:15:00 PM 13.89 57.002 0.036 7.02 163.2 10.22
9/23/2021 9:30:00 PM 13.83 56.894 0.036 6.82 129.82 10.24
9/23/2021 9:45:00 PM 13.77 56.786 0.036 6.89 172.66 10.25
9/23/2021 10:00:00 PM 13.71 56.678 0.036 6.89 97.37 10.27
9/23/2021 10:15:00 PM 13.64 56.552 0.036 6.88 171.95 10.28
9/23/2021 10:30:00 PM 13.58 56.444 0.036 6.84 46.22 10.29
9/23/2021 10:45:00 PM 13.53 56.354 0.036 6.9 70.43 10.3
9/23/2021 11:00:00 PM 13.48 56.264 0.036 6.88 131.21 10.31
9/23/2021 11:15:00 PM 13.44 56.192 0.04 6.89 96.98 10.32
9/23/2021 11:30:00 PM 13.39 56.102 0.036 6.8 80.7 10.32
9/23/2021 11:45:00 PM 13.34 56.012 0.036 6.91 130.16 10.34
9/24/2021 12:00:00 AM 13.3 55.94 0.036 6.9 79.7 10.34
9/24/2021 12:15:00 AM 13.25 55.85 0.036 6.92 72.09 10.36
9/24/2021 12:30:00 AM 13.21 55.778 0.037 6.89 44.23 10.37
9/24/2021 12:45:00 AM 13.17 55.706 0.039 6.92 59.08 10.38
9/24/2021 1:00:00 AM 13.15 55.67 0.036 6.9 94.33 10.39
9/24/2021 1:15:00 AM 13.13 55.634 0.037 6.92 71.93 10.4
9/24/2021 1:30:00 AM 13.11 55.598 0.037 6.94 85.28 10.4
9/24/2021 1:45:00 AM 13.09 55.562 0.037 6.89 98.08 10.41
9/24/2021 2:00:00 AM 13.06 55.508 0.037 6.96 73.48 10.42
9/24/2021 2:15:00 AM 13.03 55.454 0.037 6.95 66.93 10.41
9/24/2021 2:30:00 AM 13 55.4 0.037 6.92 50.83 10.42
9/24/2021 2:45:00 AM 12.98 55.364 0.037 6.93 76.08 10.43
9/24/2021 3:00:00 AM 12.96 55.328 0.037 6.49 57.34 10.43
9/24/2021 3:15:00 AM 12.95 55.31 0.037 6.89 53.43 10.43
9/24/2021 3:30:00 AM 12.94 55.292 0.037 6.94 56.29 10.44
9/24/2021 3:45:00 AM 12.94 55.292 0.037 6.96 61.11 10.44
9/24/2021 4:00:00 AM 12.92 55.256 0.037 6.95 60.18 10.44
9/24/2021 4:15:00 AM 12.9 55.22 0.037 6.96 70.42 10.44
9/24/2021 4:30:00 AM 12.89 55.202 0.037 6.92 66.16 10.45
9/24/2021 4:45:00 AM 12.88 55.184 0.037 6.92 52.09 10.45
9/24/2021 5:00:00 AM 12.86 55.148 0.037 6.96 64.46 10.45
9/24/2021 5:15:00 AM 12.84 55.112 0.037 6.94 46.88 10.46
9/24/2021 5:30:00 AM 12.82 55.076 0.037 6.96 58.5 10.46
9/24/2021 5:45:00 AM 12.8 55.04 0.037 6.95 84.48 10.46
9/24/2021 6:00:00 AM 12.79 55.022 0.037 6.96 54.22 10.47
9/24/2021 6:15:00 AM 12.77 54.986 0.04 6.93 67.47 10.47
9/24/2021 6:30:00 AM 12.76 54.968 0.037 6.95 58.59 10.48
9/24/2021 6:45:00 AM 12.75 54.95 0.038 6.96 61.35 10.48
9/24/2021 7:00:00 AM 12.74 54.932 0.037 6.93 72.77 10.49
9/24/2021 7:15:00 AM 12.73 54.914 0.037 7 77.83 10.48
9/24/2021 7:30:00 AM 12.72 54.896 0.038 6.99 60.89 10.5
9/24/2021 7:45:00 AM 12.72 54.896 0.038 7.04 52.55 10.5
9/24/2021 8:00:00 AM 12.72 54.896 0.038 7.04 48.03 10.5
9/24/2021 8:15:00 AM 12.72 54.896 0.036 7 46.44 10.5
9/24/2021 8:30:00 AM 12.73 54.914 0.04 7 404.58 10.5
9/24/2021 8:45:00 AM 12.74 54.932 0.037 7.01 66.82 10.5
9/24/2021 9:00:00 AM 12.75 54.95 0.038 6.98 54.67 10.5
9/24/2021 9:15:00 AM 12.74 54.932 0.038 7.02 38.48 10.5
9/24/2021 9:30:00 AM 12.76 54.968 0.038 6.98 53.07 10.5
9/24/2021 9:45:00 AM 12.79 55.022 0.038 7.04 76.18 10.5
9/24/2021 10:00:00 AM 12.8 55.04 0.038 7.03 55.4 10.49
9/24/2021 10:15:00 AM 12.81 55.058 0.038 7.05 48.86 10.49
9/24/2021 10:30:00 AM 12.84 55.112 0.038 7.08 45.9 10.49
9/24/2021 10:45:00 AM 12.89 55.202 0.038 7.05 65.06 10.47
9/24/2021 11:00:00 AM 12.94 55.292 0.038 7.05 41.9 10.47
9/24/2021 11:15:00 AM 12.99 55.382 0.038 7.04 47.75 10.46
9/24/2021 11:30:00 AM 13.05 55.49 0.038 7.03 38.26 10.45
9/24/2021 11:45:00 AM 13.1 55.58 0.038 6.98 54.17 10.44
9/24/2021 12:00:00 PM 13.17 55.706 0.038 6.96 45.72 10.43
9/24/2021 12:15:00 PM 13.22 55.796 0.038 7.09 47.09 10.4
9/24/2021 12:30:00 PM 13.28 55.904 0.038 7.04 49.09 10.4
9/24/2021 12:45:00 PM 13.36 56.048 0.038 7.08 46.14 10.37
9/24/2021 1:00:00 PM 13.39 56.102 0.038 7.04 48.36 10.36
9/24/2021 1:15:00 PM 13.44 56.192 0.038 7.01 97.73 10.35
9/24/2021 1:30:00 PM 13.48 56.264 0.038 6.99 119.95 10.33
9/24/2021 1:45:00 PM 13.53 56.354 0.038 6.95 46.37 10.32
9/24/2021 2:00:00 PM 13.56 56.408 0.038 6.92 62.07 10.32
9/24/2021 2:15:00 PM 13.58 56.444 0.038 6.96 65.38 10.31
9/24/2021 2:30:00 PM 13.61 56.498 0.038 6.96 68.03 10.3
9/24/2021 2:45:00 PM 13.64 56.552 0.039 6.91 68.06 10.29
9/24/2021 3:00:00 PM 13.67 56.606 0.039 6.98 51.46 10.29
9/24/2021 3:15:00 PM 13.71 56.678 0.039 6.93 56.86 10.28
9/24/2021 3:30:00 PM 13.73 56.714 0.039 6.98 58.32 10.27
9/24/2021 3:45:00 PM 13.76 56.768 0.039 6.91 71.5 10.27
9/24/2021 4:00:00 PM 13.77 56.786 0.039 6.96 77.62 10.25
9/24/2021 4:15:00 PM 13.77 56.786 0.039 6.95 34.39 10.26
9/24/2021 4:30:00 PM 13.77 56.786 0.039 6.92 94.26 10.25
9/24/2021 4:45:00 PM 13.77 56.786 0.039 6.96 34.78 10.26
9/24/2021 5:00:00 PM 13.77 56.786 0.039 6.91 58.37 10.25
9/24/2021 5:15:00 PM 13.77 56.786 0.039 6.91 34.24 10.26
9/24/2021 5:30:00 PM 13.77 56.786 0.039 6.93 88.51 10.25
9/24/2021 5:45:00 PM 13.75 56.75 0.039 6.96 39.03 10.26
9/24/2021 6:00:00 PM 13.72 56.696 0.039 6.9 83.3 10.26
9/24/2021 6:15:00 PM 13.7 56.66 0.039 6.89 378.69 10.26
9/24/2021 6:30:00 PM 13.66 56.588 0.039 6.86 172.08 10.28
9/24/2021 6:45:00 PM 13.63 56.534 0.039 6.93 83.6 10.28
9/24/2021 7:00:00 PM 13.58 56.444 0.04 6.89 347.6 10.29
9/24/2021 7:15:00 PM 13.54 56.372 0.04 6.86 42.74 10.3
9/24/2021 7:30:00 PM 13.49 56.282 0.04 6.88 67.85 10.31
9/24/2021 7:45:00 PM 13.44 56.192 0.04 6.91 55.86 10.31
9/24/2021 8:00:00 PM 13.39 56.102 0.04 6.89 48.43 10.33
9/24/2021 8:15:00 PM 13.34 56.012 0.04 6.87 48.46 10.34
9/24/2021 8:30:00 PM 13.3 55.94 0.04 6.86 49.48 10.35
9/24/2021 8:45:00 PM 13.24 55.832 0.04 6.88 62 10.37
9/24/2021 9:00:00 PM 13.19 55.742 0.04 6.87 56.89 10.38
9/24/2021 9:15:00 PM 13.14 55.652 0.04 6.87 75.88 10.4
9/24/2021 9:30:00 PM 13.09 55.562 0.04 6.9 34.9 10.42
9/24/2021 9:45:00 PM 13.04 55.472 0.04 6.87 31.06 10.43
9/24/2021 10:00:00 PM 12.99 55.382 0.04 6.9 46.57 10.44
9/24/2021 10:15:00 PM 12.94 55.292 0.04 6.89 33.13 10.45
9/24/2021 10:30:00 PM 12.89 55.202 0.04 6.89 38.31 10.46
9/24/2021 10:45:00 PM 12.85 55.13 0.04 6.92 39.24 10.47
9/24/2021 11:00:00 PM 12.8 55.04 0.04 6.93 37.51 10.47
9/24/2021 11:15:00 PM 12.75 54.95 0.04 6.94 39.66 10.48
9/24/2021 11:30:00 PM 12.71 54.878 0.04 6.93 33.43 10.49
9/24/2021 11:45:00 PM 12.67 54.806 0.04 6.92 37.02 10.5
9/25/2021 12:00:00 AM 12.62 54.716 0.04 6.93 36.99 10.52
9/25/2021 12:15:00 AM 12.58 54.644 0.041 6.89 36.2 10.53
9/25/2021 12:30:00 AM 12.54 54.572 0.04 6.94 27.86 10.55
9/25/2021 12:45:00 AM 12.5 54.5 0.041 6.85 34.34 10.56
9/25/2021 1:00:00 AM 12.46 54.428 0.041 6.89 34.6 10.57
9/25/2021 1:15:00 AM 12.43 54.374 0.041 6.92 37.56 10.58
9/25/2021 1:30:00 AM 12.4 54.32 0.041 6.91 33.18 10.59
9/25/2021 1:45:00 AM 12.38 54.284 0.041 6.94 34.36 10.6
9/25/2021 2:00:00 AM 12.36 54.248 0.041 6.94 41.14 10.6
9/25/2021 2:15:00 AM 12.33 54.194 0.041 6.95 24.83 10.6
9/25/2021 2:30:00 AM 12.3 54.14 0.041 6.93 27.94 10.61
9/25/2021 2:45:00 AM 12.27 54.086 0.041 6.91 30.22 10.61
9/25/2021 3:00:00 AM 12.24 54.032 0.041 6.91 41.24 10.62
9/25/2021 3:15:00 AM 12.21 53.978 0.041 6.88 31.85 10.62
9/25/2021 3:30:00 AM 12.18 53.924 0.041 6.91 43.28 10.62
9/25/2021 3:45:00 AM 12.15 53.87 0.041 6.91 32.52 10.63
9/25/2021 4:00:00 AM 12.12 53.816 0.041 6.93 31.54 10.63
9/25/2021 4:15:00 AM 12.09 53.762 0.041 6.96 39.28 10.64
9/25/2021 4:30:00 AM 12.05 53.69 0.041 6.94 31.85 10.65
9/25/2021 4:45:00 AM 12.02 53.636 0.041 6.94 31.16 10.66
9/25/2021 5:00:00 AM 11.99 53.582 0.041 6.93 31.24 10.68
9/25/2021 5:15:00 AM 11.96 53.528 0.041 6.93 33.56 10.69
9/25/2021 5:30:00 AM 11.94 53.492 0.041 6.97 35.76 10.69
9/25/2021 5:45:00 AM 11.92 53.456 0.041 6.96 26.75 10.69
9/25/2021 6:00:00 AM 11.91 53.438 0.041 6.97 32.82 10.7
9/25/2021 6:15:00 AM 11.89 53.402 0.041 6.96 36.07 10.7
9/25/2021 6:30:00 AM 11.87 53.366 0.041 6.98 33.65 10.72
9/25/2021 6:45:00 AM 11.85 53.33 0.041 7.01 26.07 10.72
9/25/2021 7:00:00 AM 11.83 53.294 0.041 6.95 29.56 10.72
9/25/2021 7:15:00 AM 11.8 53.24 0.041 7.01 30.59 10.73
9/25/2021 7:30:00 AM 11.78 53.204 0.041 6.98 27.7 10.73
9/25/2021 7:45:00 AM 11.76 53.168 0.042 6.96 30.54 10.74
9/25/2021 8:00:00 AM 11.75 53.15 0.042 6.99 31.32 10.75
9/25/2021 8:15:00 AM 11.74 53.132 0.041 7.01 31.96 10.75
9/25/2021 8:30:00 AM 11.73 53.114 0.042 7 28.63 10.75
9/25/2021 8:45:00 AM 11.74 53.132 0.042 7.04 33.57 10.75
9/25/2021 9:00:00 AM 11.74 53.132 0.042 7 28.17 10.75
9/25/2021 9:15:00 AM 11.76 53.168 0.042 7.04 35.03 10.76
9/25/2021 9:30:00 AM 11.8 53.24 0.042 7.06 48.42 10.75
9/25/2021 9:45:00 AM 11.87 53.366 0.042 7.07 32.45 10.73
9/25/2021 10:00:00 AM 11.93 53.474 0.042 7.06 35.09 10.71
9/25/2021 10:15:00 AM 12.01 53.618 0.042 7.03 23.25 10.68
9/25/2021 10:30:00 AM 12.08 53.744 0.042 7.04 29.79 10.66
9/25/2021 10:45:00 AM 12.16 53.888 0.042 7.05 27.49 10.64
9/25/2021 11:00:00 AM 12.26 54.068 0.042 7.06 26.92 10.63
9/25/2021 11:15:00 AM 12.36 54.248 0.042 7.08 28.66 10.6
9/25/2021 11:30:00 AM 12.48 54.464 0.042 7.09 26.85 10.57
9/25/2021 11:45:00 AM 12.59 54.662 0.042 7.07 22.73 10.55
9/25/2021 12:00:00 PM 12.71 54.878 0.042 7.06 32.07 10.51
9/25/2021 12:15:00 PM 12.82 55.076 0.042 7.07 25.4 10.48
9/25/2021 12:30:00 PM 12.94 55.292 0.042 7.07 38.22 10.46
9/25/2021 12:45:00 PM 13.04 55.472 0.042 7.09 29.43 10.44
9/25/2021 1:00:00 PM 13.13 55.634 0.042 7.12 36.97 10.41
9/25/2021 1:15:00 PM 13.22 55.796 0.042 7.08 41.54 10.38
9/25/2021 1:30:00 PM 13.29 55.922 0.042 7.11 21.99 10.36
9/25/2021 1:45:00 PM 13.36 56.048 0.042 7.12 27.84 10.33
9/25/2021 2:00:00 PM 13.42 56.156 0.042 7.07 23.1 10.31
9/25/2021 2:15:00 PM 13.47 56.246 0.042 7.11 29.71 10.31
9/25/2021 2:30:00 PM 13.51 56.318 0.042 7.11 29.4 10.29
9/25/2021 2:45:00 PM 13.55 56.39 0.042 7.12 27.31 10.28
9/25/2021 3:00:00 PM 13.59 56.462 0.042 7.13 32.51 10.27
9/25/2021 3:15:00 PM 13.6 56.48 0.042 7.11 31.45 10.26
9/25/2021 3:30:00 PM 13.62 56.516 0.042 7.09 23.17 10.26
9/25/2021 3:45:00 PM 13.65 56.57 0.042 7.1 24.89 10.25
9/25/2021 4:00:00 PM 13.68 56.624 0.042 7.08 26.53 10.25
9/25/2021 4:15:00 PM 13.69 56.642 0.042 7.07 30.63 10.24
9/25/2021 4:30:00 PM 13.7 56.66 0.043 7.08 29.14 10.24
9/25/2021 4:45:00 PM 13.72 56.696 0.043 7.11 42.46 10.24
9/25/2021 5:00:00 PM 13.71 56.678 0.043 7.11 35.73 10.23
9/25/2021 5:15:00 PM 13.71 56.678 0.043 7.09 34.24 10.23
9/25/2021 5:30:00 PM 13.71 56.678 0.043 7.09 34.06 10.23
9/25/2021 5:45:00 PM 13.7 56.66 0.043 7.09 25.9 10.23
9/25/2021 6:00:00 PM 13.68 56.624 0.043 7.07 37.75 10.24
9/25/2021 6:15:00 PM 13.66 56.588 0.043 7.04 31.19 10.24
9/25/2021 6:30:00 PM 13.65 56.57 0.043 7.04 23.85 10.24
9/25/2021 6:45:00 PM 13.62 56.516 0.043 7.07 24.94 10.25
9/25/2021 7:00:00 PM 13.59 56.462 0.043 7.11 24.62 10.25
9/25/2021 7:15:00 PM 13.55 56.39 0.043 7.12 25.11 10.25
9/25/2021 7:30:00 PM 13.51 56.318 0.043 7.13 26.25 10.26
9/25/2021 7:45:00 PM 13.47 56.246 0.043 7.12 30.74 10.26
9/25/2021 8:00:00 PM 13.42 56.156 0.043 7.13 27.29 10.27
9/25/2021 8:15:00 PM 13.37 56.066 0.043 7.12 23.56 10.29
9/25/2021 8:30:00 PM 13.33 55.994 0.044 7.1 34.37 10.29
9/25/2021 8:45:00 PM 13.29 55.922 0.044 7.13 30.62 10.31
9/25/2021 9:00:00 PM 13.25 55.85 0.044 7.13 31.23 10.32
9/25/2021 9:15:00 PM 13.22 55.796 0.044 7.13 27.29 10.33
9/25/2021 9:30:00 PM 13.18 55.724 0.044 7.13 33.66 10.33
9/25/2021 9:45:00 PM 13.16 55.688 0.044 7.1 29.09 10.34
9/25/2021 10:00:00 PM 13.13 55.634 0.044 7.1 23.71 10.36
9/25/2021 10:15:00 PM 13.1 55.58 0.044 7.09 38.09 10.36
9/25/2021 10:30:00 PM 13.08 55.544 0.044 7.09 26.84 10.37
9/25/2021 10:45:00 PM 13.05 55.49 0.044 7.09 28.51 10.38
9/25/2021 11:00:00 PM 13.04 55.472 0.044 7.1 24.06 10.38
9/25/2021 11:15:00 PM 13.02 55.436 0.044 7.13 33.64 10.39
9/25/2021 11:30:00 PM 13.01 55.418 0.044 7.1 20.54 10.4
9/25/2021 11:45:00 PM 13 55.4 0.044 7.14 25.09 10.4
9/26/2021 12:00:00 AM 12.98 55.364 0.044 7.15 27.21 10.4
9/26/2021 12:15:00 AM 12.97 55.346 0.044 7.14 24.18 10.41
9/26/2021 12:30:00 AM 12.95 55.31 0.044 7.11 27.65 10.41
9/26/2021 12:45:00 AM 12.94 55.292 0.044 7.13 27.13 10.41
9/26/2021 1:00:00 AM 12.93 55.274 0.044 7.11 24.85 10.41
9/26/2021 1:15:00 AM 12.92 55.256 0.044 7.12 26.85 10.41
9/26/2021 1:30:00 AM 12.9 55.22 0.045 7.13 36.38 10.41
9/26/2021 1:45:00 AM 12.88 55.184 0.044 7.1 29.81 10.42
9/26/2021 2:00:00 AM 12.85 55.13 0.044 7.09 31.19 10.42
9/26/2021 2:15:00 AM 12.82 55.076 0.044 7.14 32.56 10.43
9/26/2021 2:30:00 AM 12.78 55.004 0.044 7.12 26.2 10.43
9/26/2021 2:45:00 AM 12.74 54.932 0.045 7.11 27.84 10.44
9/26/2021 3:00:00 AM 12.69 54.842 0.045 7.13 32.97 10.45
9/26/2021 3:15:00 AM 12.64 54.752 0.045 7.06 41.28 10.46
9/26/2021 3:30:00 AM 12.58 54.644 0.045 7.15 22.9 10.48
9/26/2021 3:45:00 AM 12.52 54.536 0.045 7.1 26.87 10.5
9/26/2021 4:00:00 AM 12.47 54.446 0.044 7.12 30.26 10.52
9/26/2021 4:15:00 AM 12.41 54.338 0.044 7.13 28.51 10.54
9/26/2021 4:30:00 AM 12.35 54.23 0.045 7.11 22.98 10.55
9/26/2021 4:45:00 AM 12.29 54.122 0.045 7.16 19.6 10.56
9/26/2021 5:00:00 AM 12.22 53.996 0.044 7.13 21.84 10.57
9/26/2021 5:15:00 AM 12.17 53.906 0.045 7.12 22.81 10.58
9/26/2021 5:30:00 AM 12.12 53.816 0.045 7.13 21.05 10.59
9/26/2021 5:45:00 AM 12.08 53.744 0.045 7.11 39.09 10.6
9/26/2021 6:00:00 AM 12.05 53.69 0.045 7.11 37.02 10.61
9/26/2021 6:15:00 AM 12.01 53.618 0.045 7.15 22.75 10.62
9/26/2021 6:30:00 AM 11.98 53.564 0.045 7.13 25.27 10.64
9/26/2021 6:45:00 AM 11.95 53.51 0.045 7.15 21.83 10.65
9/26/2021 7:00:00 AM 11.93 53.474 0.045 7.16 24.47 10.65
9/26/2021 7:15:00 AM 11.9 53.42 0.045 7.16 23.64 10.66
9/26/2021 7:30:00 AM 11.88 53.384 0.045 7.15 24.78 10.67
9/26/2021 7:45:00 AM 11.86 53.348 0.045 7.15 17.71 10.68
9/26/2021 8:00:00 AM 11.84 53.312 0.045 7.1 20.98 10.69
9/26/2021 8:15:00 AM 11.82 53.276 0.045 7.12 20.87 10.7
9/26/2021 8:30:00 AM 11.8 53.24 0.045 7.17 22.5 10.7
9/26/2021 8:45:00 AM 11.79 53.222 0.045 7.1 20.55 10.71
9/26/2021 9:00:00 AM 11.81 53.258 0.045 7.1 17.19 10.71
9/26/2021 9:15:00 AM 11.83 53.294 0.045 7.16 28.66 10.71
9/26/2021 9:30:00 AM 11.86 53.348 0.045 7.13 28.92 10.7
9/26/2021 9:45:00 AM 11.91 53.438 0.045 7.13 26.84 10.69
9/26/2021 10:00:00 AM 11.96 53.528 0.045 7.12 20.77 10.67
9/26/2021 10:15:00 AM 12.01 53.618 0.045 7.16 22.03 10.66
9/26/2021 10:30:00 AM 12.05 53.69 0.045 7.13 24.71 10.64
9/26/2021 10:45:00 AM 12.11 53.798 0.045 7.15 25.47 10.63
9/26/2021 11:00:00 AM 12.17 53.906 0.045 7.17 23.3 10.62
9/26/2021 11:15:00 AM 12.24 54.032 0.045 7.16 22.41 10.6
9/26/2021 11:30:00 AM 12.31 54.158 0.045 7.15 32.44 10.59
9/26/2021 11:45:00 AM 12.37 54.266 0.045 7.16 27.97 10.58
9/26/2021 12:00:00 PM 12.42 54.356 0.045 7.17 26.26 10.56
9/26/2021 12:15:00 PM 12.52 54.536 0.045 7.15 18.84 10.55
9/26/2021 12:30:00 PM 12.62 54.716 0.045 7.16 21.08 10.51
9/26/2021 12:45:00 PM 12.66 54.788 0.045 7.18 20.2 10.49
9/26/2021 1:00:00 PM 12.75 54.95 0.045 7.19 21.95 10.47
9/26/2021 1:15:00 PM 12.79 55.022 0.045 7.15 25.01 10.45
9/26/2021 1:30:00 PM 12.84 55.112 0.045 7.15 21.46 10.45
9/26/2021 1:45:00 PM 12.9 55.22 0.045 7.2 20.21 10.43
9/26/2021 2:00:00 PM 12.97 55.346 0.045 7.18 17.53 10.42
9/26/2021 2:15:00 PM 13.03 55.454 0.045 7.18 22.01 10.41
9/26/2021 2:30:00 PM 13.03 55.454 0.045 7.17 20.41 10.4
9/26/2021 2:45:00 PM 13.04 55.472 0.045 7.18 14.63 10.38
9/26/2021 3:00:00 PM 13.07 55.526 0.045 7.19 25.05 10.38
9/26/2021 3:15:00 PM 13.08 55.544 0.045 7.18 40.16 10.38
9/26/2021 3:30:00 PM 13.11 55.598 0.045 7.21 27.96 10.37
9/26/2021 3:45:00 PM 13.11 55.598 0.045 7.18 13.11 10.36
9/26/2021 4:00:00 PM 13.1 55.58 0.045 7.21 24.55 10.36
9/26/2021 4:15:00 PM 13.11 55.598 0.046 7.18 18.37 10.36
9/26/2021 4:30:00 PM 13.11 55.598 0.046 7.17 16.97 10.36
9/26/2021 4:45:00 PM 13.13 55.634 0.046 7.16 26.08 10.36
9/26/2021 5:00:00 PM 13.15 55.67 0.046 7.17 22.87 10.35
9/26/2021 5:15:00 PM 13.17 55.706 0.046 7.2 23.31 10.35
9/26/2021 5:30:00 PM 13.19 55.742 0.046 7.15 25.74 10.34
9/26/2021 5:45:00 PM 13.17 55.706 0.046 7.16 21.35 10.34
9/26/2021 6:00:00 PM 13.17 55.706 0.046 7.14 19.2 10.35
9/26/2021 6:15:00 PM 13.15 55.67 0.046 7.17 20.74 10.34
9/26/2021 6:30:00 PM 13.14 55.652 0.046 7.16 21.32 10.35
9/26/2021 6:45:00 PM 13.13 55.634 0.046 7.17 19.89 10.35
9/26/2021 7:00:00 PM 13.11 55.598 0.046 7.15 21.22 10.36
9/26/2021 7:15:00 PM 13.07 55.526 0.046 7.2 22.05 10.36
9/26/2021 7:30:00 PM 13.03 55.454 0.046 7.17 34.37 10.37
9/26/2021 7:45:00 PM 12.99 55.382 0.046 7.15 17.31 10.38
9/26/2021 8:00:00 PM 12.93 55.274 0.046 7.17 23.42 10.38
9/26/2021 8:15:00 PM 12.87 55.166 0.046 7.22 17.14 10.4
9/26/2021 8:30:00 PM 12.82 55.076 0.046 7.18 19.24 10.41
9/26/2021 8:45:00 PM 12.78 55.004 0.046 7.18 19.53 10.42
9/26/2021 9:00:00 PM 12.74 54.932 0.046 7.18 18.44 10.43
9/26/2021 9:15:00 PM 12.69 54.842 0.046 7.18 35.58 10.44
9/26/2021 9:30:00 PM 12.67 54.806 0.047 7.18 22.1 10.45
9/26/2021 9:45:00 PM 12.64 54.752 0.047 7.14 14.57 10.46
9/26/2021 10:00:00 PM 12.62 54.716 0.047 7.13 22.41 10.47
9/26/2021 10:15:00 PM 12.6 54.68 0.047 7.15 17.17 10.47
9/26/2021 10:30:00 PM 12.58 54.644 0.047 7.2 16.54 10.48
9/26/2021 10:45:00 PM 12.55 54.59 0.047 7.2 21.27 10.49
9/26/2021 11:00:00 PM 12.53 54.554 0.047 7.2 20.25 10.49
9/26/2021 11:15:00 PM 12.5 54.5 0.047 7.16 26.53 10.5
9/26/2021 11:30:00 PM 12.47 54.446 0.047 7.18 19.3 10.51
9/26/2021 11:45:00 PM 12.45 54.41 0.047 7.18 14.37 10.51
9/27/2021 12:00:00 AM 12.42 54.356 0.047 7.18 18.56 10.52
9/27/2021 12:15:00 AM 12.39 54.302 0.047 7.21 21.65 10.53
9/27/2021 12:30:00 AM 12.36 54.248 0.047 7.17 23.14 10.53
9/27/2021 12:45:00 AM 12.33 54.194 0.047 7.18 22.56 10.54
9/27/2021 1:00:00 AM 12.31 54.158 0.047 7.21 19.85 10.55
9/27/2021 1:15:00 AM 12.29 54.122 0.047 7.18 19.2 10.55
9/27/2021 1:30:00 AM 12.27 54.086 0.047 7.17 27.09 10.55
9/27/2021 1:45:00 AM 12.25 54.05 0.047 7.12 19.94 10.56
9/27/2021 2:00:00 AM 12.22 53.996 0.047 7.2 25.03 10.56
9/27/2021 2:15:00 AM 12.2 53.96 0.047 7.17 17.63 10.57
9/27/2021 2:30:00 AM 12.17 53.906 0.047 7.2 14.03 10.57
9/27/2021 2:45:00 AM 12.15 53.87 0.047 7.16 21.75 10.57
9/27/2021 3:00:00 AM 12.14 53.852 0.047 7.16 23.46 10.57
9/27/2021 3:15:00 AM 12.14 53.852 0.047 7.14 19.98 10.58
9/27/2021 3:30:00 AM 12.14 53.852 0.047 7.15 18.54 10.57
9/27/2021 3:45:00 AM 12.14 53.852 0.047 7.2 22.41 10.58
9/27/2021 4:00:00 AM 12.15 53.87 0.047 7.17 20.18 10.58
9/27/2021 4:15:00 AM 12.16 53.888 0.047 7.18 17.12 10.57
9/27/2021 4:30:00 AM 12.17 53.906 0.047 7.18 14.78 10.57
9/27/2021 4:45:00 AM 12.19 53.942 0.047 7.17 17.83 10.57
9/27/2021 5:00:00 AM 12.2 53.96 0.047 7.17 21.13 10.57
9/27/2021 5:15:00 AM 12.21 53.978 0.047 7.19 22.77 10.57
9/27/2021 5:30:00 AM 12.23 54.014 0.047 7.21 21.66 10.57
9/27/2021 5:45:00 AM 12.24 54.032 0.047 7.17 17.32 10.57
9/27/2021 6:00:00 AM 12.25 54.05 0.047 7.18 21.24 10.56
9/27/2021 6:15:00 AM 12.27 54.086 0.048 7.19 17.74 10.56
9/27/2021 6:30:00 AM 12.28 54.104 0.047 7.18 22.89 10.56
9/27/2021 6:45:00 AM 12.27 54.086 0.047 7.2 20.55 10.56
9/27/2021 7:00:00 AM 12.27 54.086 0.047 7.22 17.82 10.56
9/27/2021 7:15:00 AM 12.27 54.086 0.047 7.18 19.24 10.56
9/27/2021 7:30:00 AM 12.26 54.068 0.047 7.21 18.87 10.56
9/27/2021 7:45:00 AM 12.26 54.068 0.047 7.21 20.57 10.56
9/27/2021 8:00:00 AM 12.26 54.068 0.047 7.18 27.74 10.57
9/27/2021 8:15:00 AM 12.28 54.104 0.047 7.22 23.03 10.57
9/27/2021 8:30:00 AM 12.31 54.158 0.047 7.17 16.67 10.56
9/27/2021 8:45:00 AM 12.34 54.212 0.047 7.18 28 10.56
9/27/2021 9:00:00 AM 12.37 54.266 0.047 7.2 20.78 10.55
9/27/2021 9:15:00 AM 12.4 54.32 0.048 7.22 17.73 10.55
9/27/2021 9:30:00 AM 12.48 54.464 0.048 7.23 18.48 10.54
9/27/2021 9:45:00 AM 12.55 54.59 0.047 7.24 19.24 10.52
9/27/2021 10:00:00 AM 12.6 54.68 0.048 7.23 18.37 10.51
9/27/2021 10:15:00 AM 12.66 54.788 0.048 7.23 18.12 10.48
9/27/2021 10:30:00 AM 12.7 54.86 0.048 7.24 17.89 10.46
9/27/2021 10:45:00 AM 12.7 54.86 0.048 7.23 26.46 10.45
9/27/2021 11:00:00 AM 12.73 54.914 0.047 7.23 35.16 10.45
9/27/2021 11:15:00 AM 12.77 54.986 0.048 7.23 17.28 10.44
9/27/2021 11:30:00 AM 12.8 55.04 0.048 7.25 17.62 10.43
9/27/2021 11:45:00 AM 12.85 55.13 0.048 7.24 14.41 10.42
9/27/2021 12:00:00 PM 12.87 55.166 0.048 7.22 19.24 10.41
9/27/2021 12:15:00 PM 12.98 55.364 0.048 7.24 17.76 10.41
9/27/2021 12:30:00 PM 13.09 55.562 0.048 7.21 18.45 10.38
9/27/2021 12:45:00 PM 13.17 55.706 0.048 7.24 16.75 10.35
9/27/2021 1:00:00 PM 13.25 55.85 0.048 7.2 17.81 10.33
9/27/2021 1:15:00 PM 13.36 56.048 0.048 7.22 21.25 10.29
9/27/2021 1:30:00 PM 13.44 56.192 0.048 7.25 20.12 10.27
9/27/2021 1:45:00 PM 13.53 56.354 0.048 7.27 19.66 10.25
9/27/2021 2:00:00 PM 13.61 56.498 0.048 7.22 19.32 10.24
9/27/2021 2:15:00 PM 13.7 56.66 0.048 7.26 18.55 10.22
9/27/2021 2:30:00 PM 13.77 56.786 0.048 7.25 19 10.19
9/27/2021 2:45:00 PM 13.82 56.876 0.048 7.28 21.29 10.18
9/27/2021 3:00:00 PM 13.89 57.002 0.048 7.25 15.66 10.16
9/27/2021 3:15:00 PM 13.95 57.11 0.048 7.24 18.65 10.14
9/27/2021 3:30:00 PM 14 57.2 0.047 7.26 22.31 10.12
9/27/2021 3:45:00 PM 14.05 57.29 0.047 7.28 18.61 10.1
9/27/2021 4:00:00 PM 14.1 57.38 0.047 7.26 14.94 10.1
9/27/2021 4:15:00 PM 14.13 57.434 0.046 7.26 17.97 10.09
9/27/2021 4:30:00 PM 14.17 57.506 0.047 7.22 26.87 10.07
9/27/2021 4:45:00 PM 14.2 57.56 0.046 7.22 24.2 10.06
9/27/2021 5:00:00 PM 14.22 57.596 0.046 7.24 18.34 10.06
9/27/2021 5:15:00 PM 14.23 57.614 0.044 7.2 19.18 10.05
9/27/2021 5:30:00 PM 14.24 57.632 0.046 7.21 16.67 10.05
9/27/2021 5:45:00 PM 14.25 57.65 0.045 7.2 19.46 10.05
9/27/2021 6:00:00 PM 14.25 57.65 0.039 7.22 19.35 10.05
9/27/2021 6:15:00 PM 14.25 57.65 0.041 7.2 20.53 10.05
9/27/2021 6:30:00 PM 14.25 57.65 0.042 7.2 19.5 10.04
9/27/2021 6:45:00 PM 14.25 57.65 0.042 7.2 20.66 10.04
9/27/2021 7:00:00 PM 14.24 57.632 0.042 7.21 18.12 10.04
9/27/2021 7:15:00 PM 14.23 57.614 0.037 7.19 19.47 10.04
9/27/2021 7:30:00 PM 14.21 57.578 0.037 7.2 19.2 10.05
9/27/2021 7:45:00 PM 14.19 57.542 0.037 7.2 18.75 10.05
9/27/2021 8:00:00 PM 14.16 57.488 0.037 7.21 23.24 10.06
9/27/2021 8:15:00 PM 14.13 57.434 0.037 7.16 20.22 10.06
9/27/2021 8:30:00 PM 14.1 57.38 0.033 7.22 21.04 10.07
9/27/2021 8:45:00 PM 14.07 57.326 0.036 7.24 19.15 10.08
9/27/2021 9:00:00 PM 14.03 57.254 0.029 7.24 19.66 10.09
9/27/2021 9:15:00 PM 14 57.2 0.029 7.21 19.44 10.09
9/27/2021 9:30:00 PM 13.97 57.146 0.026 7.19 19.21 10.1
9/27/2021 9:45:00 PM 13.94 57.092 0.032 7.19 17.53 10.11
9/27/2021 10:00:00 PM 13.9 57.02 0.03 7.18 18.39 10.12
9/27/2021 10:15:00 PM 13.87 56.966 0.029 7.22 17.43 10.14
9/27/2021 10:30:00 PM 13.84 56.912 0.029 7.22 18.44 10.14
9/27/2021 10:45:00 PM 13.81 56.858 0.024 7.22 17.81 10.15
9/27/2021 11:00:00 PM 13.78 56.804 0.028 7.21 22.32 10.16
9/27/2021 11:15:00 PM 13.75 56.75 0.024 7.18 17.7 10.16
9/27/2021 11:30:00 PM 13.72 56.696 0.024 7.21 17.47 10.18
9/27/2021 11:45:00 PM 13.69 56.642 0.024 7.2 19.06 10.18
9/28/2021 12:00:00 AM 13.66 56.588 0.023 7.23 17.27 10.18
9/28/2021 12:15:00 AM 13.63 56.534 0.018 7.21 18.15 10.19
9/28/2021 12:30:00 AM 13.6 56.48 0.022 7.22 18.12 10.2
9/28/2021 12:45:00 AM 13.58 56.444 0.019 7.2 17.49 10.2
9/28/2021 1:00:00 AM 13.56 56.408 0.02 7.22 16.61 10.2
9/28/2021 1:15:00 AM 13.54 56.372 0.017 7.22 17.61 10.21
9/28/2021 1:30:00 AM 13.52 56.336 0.018 7.25 18.96 10.21
9/28/2021 1:45:00 AM 13.5 56.3 0.011 7.23 16.99 10.21
9/28/2021 2:00:00 AM 13.49 56.282 0.013 7.24 17.25 10.22
9/28/2021 2:15:00 AM 13.47 56.246 0.012 7.25 17.18 10.22
9/28/2021 2:30:00 AM 13.46 56.228 0.013 7.21 27.26 10.22
9/28/2021 2:45:00 AM 13.45 56.21 0.011 7.2 16.34 10.22
9/28/2021 3:00:00 AM 13.44 56.192 0.014 7.2 17.94 10.22
9/28/2021 3:15:00 AM 13.43 56.174 0.01 7.21 15.99 10.23
9/28/2021 3:30:00 AM 13.42 56.156 0.01 7.22 18.22 10.23
9/28/2021 3:45:00 AM 13.4 56.12 0.007 7.24 19.18 10.22
9/28/2021 4:00:00 AM 13.39 56.102 0.008 7.2 18.57 10.23
9/28/2021 4:15:00 AM 13.38 56.084 0.007 7.24 21.14 10.23
9/28/2021 4:30:00 AM 13.37 56.066 0.007 7.25 18.59 10.23
9/28/2021 4:45:00 AM 13.36 56.048 0.008 7.22 16.19 10.23
9/28/2021 5:00:00 AM 13.34 56.012 0.006 7.21 18.8 10.23
9/28/2021 5:15:00 AM 13.33 55.994 0.006 7.21 20.14 10.24
9/28/2021 5:30:00 AM 13.31 55.958 0.007 7.2 18.22 10.24
9/28/2021 5:45:00 AM 13.31 55.958 0.006 7.24 13.47 10.24
9/28/2021 6:00:00 AM 13.31 55.958 0.005 7.21 21.75 10.25
9/28/2021 6:15:00 AM 13.3 55.94 0.004 7.19 18.93 10.25
9/28/2021 6:30:00 AM 13.28 55.904 0.004 7.21 17.5 10.26
9/28/2021 6:45:00 AM 13.26 55.868 0.005 7.24 17.48 10.27
9/28/2021 7:00:00 AM 13.25 55.85 0.004 7.23 17.87 10.27
9/28/2021 7:15:00 AM 13.25 55.85 0.004 7.16 18.64 10.27
9/28/2021 7:30:00 AM 13.26 55.868 0.004 7.17 17.62 10.28
9/28/2021 7:45:00 AM 13.26 55.868 0.003 7.18 19.69 10.28
9/28/2021 8:00:00 AM 13.25 55.85 0.004 7.18 21.15 10.28
9/28/2021 8:15:00 AM 13.25 55.85 0.003 7.23 18.76 10.28
9/28/2021 8:30:00 AM 13.25 55.85 0.003 7.19 22.4 10.28
9/28/2021 8:45:00 AM 13.27 55.886 0.014 7.17 24.44 10.28
9/28/2021 9:00:00 AM 13.28 55.904 0.018 7.17 30.6 10.28
9/28/2021 9:15:00 AM 13.28 55.904 0.03 7.18 33.9 10.27
9/28/2021 9:30:00 AM 13.3 55.94 0.043 7.21 25.68 10.26
9/28/2021 9:45:00 AM 13.31 55.958 0.047 7.22 27.32 10.27
9/28/2021 10:00:00 AM 13.34 56.012 0.045 7.23 26.47 10.27
9/28/2021 10:15:00 AM 13.36 56.048 0.05 7.23 25.44 10.26
9/28/2021 10:30:00 AM 13.37 56.066 0.051 7.27 23.56 10.27
9/28/2021 10:45:00 AM 13.37 56.066 0.051 7.27 24.65 10.26
9/28/2021 11:00:00 AM 13.38 56.084 0.05 7.24 21.46 10.26
9/28/2021 11:15:00 AM 13.41 56.138 0.049 7.29 22.68 10.27
9/28/2021 11:30:00 AM 13.42 56.156 0.047 7.26 25.69 10.26
9/28/2021 11:45:00 AM 13.44 56.192 0.041 7.24 23.24 10.26
9/28/2021 12:00:00 PM 13.45 56.21 0.038 7.25 19.62 10.25
9/28/2021 12:15:00 PM 13.45 56.21 0.03 7.25 23.07 10.26
9/28/2021 12:30:00 PM 13.44 56.192 0.025 7.31 23.68 10.26
9/28/2021 12:45:00 PM 13.44 56.192 0.021 7.3 21.37 10.26
9/28/2021 1:00:00 PM 13.45 56.21 0.016 7.26 24.71 10.26
9/28/2021 1:15:00 PM 13.44 56.192 0.013 7.28 22.5 10.26
9/28/2021 1:30:00 PM 13.45 56.21 0.013 7.27 17.9 10.27
9/28/2021 1:45:00 PM 13.45 56.21 0.009 7.3 20.25 10.27
9/28/2021 2:00:00 PM 13.49 56.282 0.01 7.3 19.69 10.27
9/28/2021 2:15:00 PM 13.5 56.3 0.009 7.31 19.49 10.28
9/28/2021 2:30:00 PM 13.5 56.3 0.007 7.3 18.15 10.27
9/28/2021 2:45:00 PM 13.52 56.336 0.007 7.34 20.2 10.28
9/28/2021 3:00:00 PM 13.53 56.354 0.007 7.29 19.74 10.27
9/28/2021 3:15:00 PM 13.56 56.408 0.006 7.3 19.08 10.26
9/28/2021 3:30:00 PM 13.59 56.462 0.006 7.31 17.81 10.26
9/28/2021 3:45:00 PM 13.59 56.462 0.004 7.3 21.21 10.25
9/28/2021 4:00:00 PM 13.57 56.426 0.007 7.29 19.38 10.25
9/28/2021 4:15:00 PM 13.55 56.39 0.005 7.32 18.89 10.25
9/28/2021 4:30:00 PM 13.54 56.372 0.003 7.26 18.25 10.25
9/28/2021 4:45:00 PM 13.53 56.354 0.004 7.26 18.8 10.25
9/28/2021 5:00:00 PM 13.51 56.318 0.004 7.25 31.87 10.25
9/28/2021 5:15:00 PM 13.48 56.264 0.003 7.25 21.74 10.25
9/28/2021 5:30:00 PM 13.46 56.228 0.003 7.3 20.5 10.25
9/28/2021 5:45:00 PM 13.45 56.21 0.003 7.3 22.31 10.26
9/28/2021 6:00:00 PM 13.41 56.138 0.003 7.31 20.16 10.26
9/28/2021 6:15:00 PM 13.37 56.066 0.003 7.31 20.41 10.27
9/28/2021 6:30:00 PM 13.32 55.976 0.002 7.31 22.13 10.28
9/28/2021 6:45:00 PM 13.27 55.886 0.002 7.28 23.25 10.3
9/28/2021 7:00:00 PM 13.22 55.796 0.002 7.27 22.15 10.31
9/28/2021 7:15:00 PM 13.17 55.706 0.002 7.26 24.81 10.33
9/28/2021 7:30:00 PM 13.12 55.616 0.002 7.27 22.49 10.34
9/28/2021 7:45:00 PM 13.06 55.508 0.002 7.28 27.47 10.36
9/28/2021 8:00:00 PM 12.98 55.364 0.002 7.31 24.47 10.39
9/28/2021 8:15:00 PM 12.96 55.328 0.002 7.27 25.5 10.39
9/28/2021 8:30:00 PM 12.92 55.256 0.002 7.29 23.77 10.39
9/28/2021 8:45:00 PM 12.87 55.166 0.002 7.28 24.45 10.41
9/28/2021 9:00:00 PM 12.8 55.04 0.002 7.26 21.31 10.43
9/28/2021 9:15:00 PM 12.78 55.004 0.002 7.28 20.87 10.43
9/28/2021 9:30:00 PM 12.74 54.932 0.002 7.25 23.28 10.44
9/28/2021 9:45:00 PM 12.66 54.788 0.002 7.27 23.89 10.46
9/28/2021 10:00:00 PM 12.61 54.698 0.002 7.29 23.38 10.47
9/28/2021 10:15:00 PM 12.53 54.554 0.002 7.25 24.92 10.5
9/28/2021 10:30:00 PM 12.48 54.464 0.002 7.26 23.17 10.52
9/28/2021 10:45:00 PM 12.45 54.41 0.002 7.24 24.07 10.53
9/28/2021 11:00:00 PM 12.37 54.266 0.002 7.25 25.59 10.55
9/28/2021 11:15:00 PM 12.33 54.194 0.002 7.25 23.97 10.58
9/28/2021 11:30:00 PM 12.24 54.032 0.002 7.27 23.46 10.59
9/28/2021 11:45:00 PM 12.18 53.924 0.002 7.25 25.49 10.61
9/29/2021 12:00:00 AM 12.11 53.798 0.002 7.27 26.13 10.62
9/29/2021 12:15:00 AM 12.09 53.762 0.002 7.27 26.6 10.62
9/29/2021 12:30:00 AM 12.04 53.672 0.002 7.26 26.72 10.64
9/29/2021 12:45:00 AM 11.99 53.582 0.002 7.29 26.69 10.65
9/29/2021 1:00:00 AM 11.93 53.474 0.002 7.3 26.67 10.67
9/29/2021 1:15:00 AM 11.84 53.312 0.002 7.26 26.67 10.7
9/29/2021 1:30:00 AM 11.82 53.276 0.002 7.27 26.45 10.71
9/29/2021 1:45:00 AM 11.78 53.204 0.002 7.26 24.4 10.72
9/29/2021 2:00:00 AM 11.73 53.114 0.002 7.25 20.25 10.73
9/29/2021 2:15:00 AM 11.68 53.024 0.002 7.18 27.44 10.75
9/29/2021 2:30:00 AM 11.61 52.898 0.002 7.17 27.13 10.77
9/29/2021 2:45:00 AM 11.54 52.772 0.002 7.22 25.29 10.79
9/29/2021 3:00:00 AM 11.49 52.682 0.002 7.23 25.78 10.8
9/29/2021 3:15:00 AM 11.42 52.556 0.002 7.22 28.66 10.81
9/29/2021 3:30:00 AM 11.34 52.412 0.002 7.24 25.92 10.83
9/29/2021 3:45:00 AM 11.3 52.34 0.002 7.22 25.88 10.84
9/29/2021 4:00:00 AM 11.24 52.232 0.002 7.15 28.49 10.86
9/29/2021 4:15:00 AM 11.17 52.106 0.002 7.15 29.07 10.89
9/29/2021 4:30:00 AM 11.12 52.016 0.002 7.16 31.8 10.9
9/29/2021 4:45:00 AM 11.05 51.89 0.002 7.19 28.92 10.94
9/29/2021 5:00:00 AM 11.06 51.908 0.002 7.2 28.14 10.93
9/29/2021 5:15:00 AM 11 51.8 0.002 7.18 29.73 10.95
9/29/2021 5:30:00 AM 10.92 51.656 0.002 7.22 31.75 10.98
9/29/2021 5:45:00 AM 10.85 51.53 0.002 7.23 31.26 11.01
9/29/2021 6:00:00 AM 10.85 51.53 0.002 7.19 30.8 10.99
9/29/2021 6:15:00 AM 10.79 51.422 0.002 7.23 33.6 11.01
9/29/2021 6:30:00 AM 10.74 51.332 0.002 7.22 31.19 11.03
9/29/2021 6:45:00 AM 10.68 51.224 0.002 7.24 32.17 11.04
9/29/2021 7:00:00 AM 10.57 51.026 0.002 7.22 30.3 11.08
9/29/2021 7:15:00 AM 10.6 51.08 0.002 7.23 33.39 11.07
9/29/2021 7:30:00 AM 10.49 50.882 0.002 7.24 33.28 11.11
9/29/2021 7:45:00 AM 10.54 50.972 0.002 7.26 33.78 11.09
9/29/2021 8:00:00 AM 10.46 50.828 0.002 7.22 32.09 11.12
9/29/2021 8:15:00 AM 10.44 50.792 0.002 7.19 34.59 11.13
9/29/2021 8:30:00 AM 10.47 50.846 0.002 7.23 35.08 11.12
9/29/2021 8:45:00 AM 10.32 50.576 0.002 7.25 36.27 11.19
9/29/2021 9:00:00 AM 10.42 50.756 0.002 7.25 34.35 11.15
9/29/2021 9:15:00 AM 10.41 50.738 0.001 7.25 37.26 11.16
9/29/2021 9:30:00 AM 10.56 51.008 0.002 7.26 37.14 11.1
9/29/2021 9:45:00 AM 10.62 51.116 0.002 7.27 36.96 11.08
9/29/2021 10:00:00 AM 10.73 51.314 0.001 7.27 38 11.04
9/29/2021 10:15:00 AM 10.86 51.548 0.001 7.34 38.24 11
9/29/2021 10:30:00 AM 10.96 51.728 0.001 7.34 38.48 10.98
9/29/2021 10:45:00 AM 11.07 51.926 0.001 7.31 37.16 10.95
9/29/2021 11:00:00 AM 11.14 52.052 0.001 7.35 40.54 10.93
9/29/2021 11:15:00 AM 11.22 52.196 0.001 7.32 40.87 10.91
9/29/2021 11:30:00 AM 11.33 52.394 0.001 7.35 45.23 10.87
9/29/2021 11:45:00 AM 11.41 52.538 0.001 7.32 46 10.84
9/29/2021 12:00:00 PM 11.47 52.646 0.001 7.31 42.08 10.83
9/29/2021 12:15:00 PM 11.56 52.808 0.001 7.34 42.21 10.81
9/29/2021 12:30:00 PM 11.65 52.97 0.001 7.31 43.15 10.78
9/29/2021 12:45:00 PM 11.73 53.114 0.001 7.3 42.29 10.76
9/29/2021 1:00:00 PM 11.78 53.204 0.001 7.28 41.97 10.75
9/29/2021 1:15:00 PM 11.89 53.402 0.001 7.31 42.45 10.73
9/29/2021 1:30:00 PM 11.99 53.582 0.001 7.32 40.63 10.7
9/29/2021 1:45:00 PM 12.03 53.654 0.001 7.3 43.13 10.69
9/29/2021 2:00:00 PM 12.11 53.798 0.001 7.3 45.11 10.65
9/29/2021 2:15:00 PM 12.13 53.834 0.001 7.32 44.48 10.65
9/29/2021 2:30:00 PM 12.19 53.942 0.001 7.34 44.94 10.64
9/29/2021 2:45:00 PM 12.26 54.068 0.001 7.33 44.22 10.62
9/29/2021 3:00:00 PM 12.2 53.96 0.001 7.3 44.82 10.64
9/29/2021 3:15:00 PM 12.16 53.888 0.001 7.34 49.49 10.65
9/29/2021 3:30:00 PM 12.26 54.068 0.001 7.31 43.34 10.63
9/29/2021 3:45:00 PM 12.34 54.212 0.001 7.32 47.96 10.61
9/29/2021 4:00:00 PM 12.39 54.302 0.001 7.35 45.68 10.6
9/29/2021 4:15:00 PM 12.37 54.266 0.001 7.31 47.99 10.61
9/29/2021 4:30:00 PM 12.48 54.464 0.001 7.3 44.51 10.58
9/29/2021 4:45:00 PM 12.52 54.536 0.001 7.33 47.57 10.57
9/29/2021 5:00:00 PM 12.55 54.59 0.001 7.33 46.05 10.55
9/29/2021 5:15:00 PM 12.55 54.59 0.001 7.3 46.4 10.56
9/29/2021 5:30:00 PM 12.56 54.608 0.001 7.29 47.45 10.56
9/29/2021 5:45:00 PM 12.52 54.536 0.001 7.27 48.42 10.57
9/29/2021 6:00:00 PM 12.51 54.518 0.001 7.29 47.36 10.58
9/29/2021 6:15:00 PM 12.51 54.518 0.001 7.28 47.44 10.58
9/29/2021 6:30:00 PM 12.48 54.464 0.001 7.33 47.55 10.6
9/29/2021 6:45:00 PM 12.46 54.428 0.001 7.29 47.93 10.6
9/29/2021 7:00:00 PM 12.42 54.356 0.001 7.32 49.14 10.62
9/29/2021 7:15:00 PM 12.43 54.374 0.001 7.3 49.51 10.61
9/29/2021 7:30:00 PM 12.42 54.356 0.001 7.33 46.91 10.62
9/29/2021 7:45:00 PM 12.41 54.338 0.001 7.29 47.61 10.62
9/29/2021 8:00:00 PM 12.39 54.302 0.001 7.33 48.63 10.63
9/29/2021 8:15:00 PM 12.35 54.23 0.001 7.3 46.14 10.64
9/29/2021 8:30:00 PM 12.28 54.104 0.001 7.28 46.13 10.66
9/29/2021 8:45:00 PM 12.24 54.032 0.001 7.29 46.15 10.67
9/29/2021 9:00:00 PM 12.19 53.942 0.001 7.28 47.32 10.68
9/29/2021 9:15:00 PM 12.13 53.834 0.001 7.28 46.88 10.69
9/29/2021 9:30:00 PM 12.07 53.726 0.001 7.3 45.75 10.7
9/29/2021 9:45:00 PM 12.01 53.618 0.001 7.31 46.51 10.72
9/29/2021 10:00:00 PM 11.95 53.51 0.001 7.29 44.26 10.74
9/29/2021 10:15:00 PM 11.88 53.384 0.001 7.28 42.94 10.76
9/29/2021 10:30:00 PM 11.87 53.366 0.001 7.29 47.65 10.76
9/29/2021 10:45:00 PM 11.87 53.366 0.001 7.31 43.94 10.76
9/29/2021 11:00:00 PM 11.79 53.222 0.001 7.32 45.32 10.79
9/29/2021 11:15:00 PM 11.73 53.114 0.001 7.32 46.85 10.81
9/29/2021 11:30:00 PM 11.7 53.06 0.001 7.27 45.13 10.81
9/29/2021 11:45:00 PM 11.7 53.06 0.001 7.29 44.31 10.81
9/30/2021 12:00:00 AM 11.67 53.006 0.001 7.32 44.61 10.83
9/30/2021 12:15:00 AM 11.65 52.97 0.001 7.29 42.41 10.83
9/30/2021 12:30:00 AM 11.61 52.898 0.001 7.31 43.62 10.83
9/30/2021 12:45:00 AM 11.59 52.862 0.001 7.3 46.22 10.84
9/30/2021 1:00:00 AM 11.55 52.79 0.001 7.28 42.22 10.85
9/30/2021 1:15:00 AM 11.54 52.772 0.001 7.32 51.37 10.86
9/30/2021 1:30:00 AM 11.5 52.7 0.001 7.32 42.29 10.85
9/30/2021 1:45:00 AM 11.43 52.574 0.001 7.31 49.08 10.88
9/30/2021 2:00:00 AM 11.39 52.502 0.001 7.28 40.08 10.89
9/30/2021 2:15:00 AM 11.31 52.358 0.001 7.28 42.62 10.91
9/30/2021 2:30:00 AM 11.28 52.304 0.001 7.31 40.47 10.92
9/30/2021 2:45:00 AM 11.24 52.232 0.001 7.24 39.87 10.93
9/30/2021 3:00:00 AM 11.18 52.124 0.001 7.26 38.64 10.96
9/30/2021 3:15:00 AM 11.15 52.07 0.001 7.25 37.55 10.97
9/30/2021 3:30:00 AM 11.11 51.998 0.001 7.24 41.67 10.98
9/30/2021 3:45:00 AM 11.1 51.98 0.001 7.26 49.01 10.98
9/30/2021 4:00:00 AM 11.14 52.052 0.001 7.28 41.88 10.97
9/30/2021 4:15:00 AM 11.1 51.98 0.001 7.26 37.49 10.98
9/30/2021 4:30:00 AM 11.03 51.854 0.001 7.27 36.09 11.01
9/30/2021 4:45:00 AM 10.98 51.764 0.001 7.29 44.88 11.02
9/30/2021 5:00:00 AM 10.85 51.53 0.001 7.28 41.48 11.07
9/30/2021 5:15:00 AM 10.94 51.692 0.001 7.28 34.15 11.03
9/30/2021 5:30:00 AM 10.9 51.62 0.001 7.27 34.58 11.04
9/30/2021 5:45:00 AM 10.83 51.494 0.001 7.28 35.22 11.06
9/30/2021 6:00:00 AM 10.66 51.188 0.001 7.26 38.28 11.12
9/30/2021 6:15:00 AM 10.76 51.368 0.001 7.29 40.26 11.08
9/30/2021 6:30:00 AM 10.76 51.368 0.001 7.29 40.02 11.07
9/30/2021 6:45:00 AM 10.76 51.368 0.001 7.29 38.19 11.08
9/30/2021 7:00:00 AM 10.65 51.17 0.001 7.26 32.38 11.12
9/30/2021 7:15:00 AM 10.77 51.386 0.001 7.3 35.42 11.07
9/30/2021 7:30:00 AM 10.73 51.314 0.001 7.27 37.08 11.09
9/30/2021 7:45:00 AM 10.78 51.404 0.001 7.3 37.54 11.07
9/30/2021 8:00:00 AM 10.75 51.35 0.001 7.26 36.67 11.08
9/30/2021 8:15:00 AM 10.76 51.368 0.001 7.29 36.94 11.07
9/30/2021 8:30:00 AM 10.84 51.512 0.001 7.3 34.76 11.05
9/30/2021 8:45:00 AM 10.87 51.566 0.001 7.27 45.31 11.04
9/30/2021 9:00:00 AM 10.93 51.674 0.001 7.29 36.71 11.03
9/30/2021 9:15:00 AM 11.05 51.89 0.001 7.3 35.91 10.99
9/30/2021 9:30:00 AM